<?xml version="1.0" encoding="UTF-8" standalone="no" ?>
<gpx xmlns="http://www.topografix.com/GPX/1/1" xmlns:xsi="http://www.w3.org/2001/XMLSchema-instance" xsi:schemaLocation="http://www.topografix.com/GPX/1/1 http://www.topografix.com/GPX/1/1/gpx.xsd" version="1.1" creator="VisuGPX - https://www.visugpx.com">
  <metadata>
    <name>Roc de Tormery - le Tapin - Roche du Guet</name>
    <desc><![CDATA[Une traversée magnifique en amont de la Cluse de entre Chartreuse et Bauges.]]></desc>
  </metadata>
  <trk>
    <name><![CDATA[Roc de Tormery - le Tapin - Roche du Guet la Filliere]]></name>
    <trkseg>
      <trkpt lat="45.52485" lon="6.00996">
        <ele>380</ele>
        <time>2011-04-19T10:01:58Z</time>
      </trkpt>
      <trkpt lat="45.52485" lon="6.01003">
        <ele>380</ele>
        <time>2011-04-19T10:02:06Z</time>
      </trkpt>
      <trkpt lat="45.52486" lon="6.0103">
        <ele>379</ele>
        <time>2011-04-19T10:02:22Z</time>
      </trkpt>
      <trkpt lat="45.52481" lon="6.01045">
        <ele>378</ele>
        <time>2011-04-19T10:02:33Z</time>
      </trkpt>
      <trkpt lat="45.52472" lon="6.01055">
        <ele>377</ele>
        <time>2011-04-19T10:02:43Z</time>
      </trkpt>
      <trkpt lat="45.52458" lon="6.0107">
        <ele>376</ele>
        <time>2011-04-19T10:02:57Z</time>
      </trkpt>
      <trkpt lat="45.52447" lon="6.01087">
        <ele>375</ele>
        <time>2011-04-19T10:03:09Z</time>
      </trkpt>
      <trkpt lat="45.52439" lon="6.01106">
        <ele>374</ele>
        <time>2011-04-19T10:03:20Z</time>
      </trkpt>
      <trkpt lat="45.52427" lon="6.01119">
        <ele>372</ele>
        <time>2011-04-19T10:03:32Z</time>
      </trkpt>
      <trkpt lat="45.52415" lon="6.01129">
        <ele>371</ele>
        <time>2011-04-19T10:03:43Z</time>
      </trkpt>
      <trkpt lat="45.52402" lon="6.01147">
        <ele>372</ele>
        <time>2011-04-19T10:03:57Z</time>
      </trkpt>
      <trkpt lat="45.52393" lon="6.01167">
        <ele>374</ele>
        <time>2011-04-19T10:04:10Z</time>
      </trkpt>
      <trkpt lat="45.52391" lon="6.01174">
        <ele>375</ele>
        <time>2011-04-19T10:04:14Z</time>
      </trkpt>
      <trkpt lat="45.52388" lon="6.0119">
        <ele>376</ele>
        <time>2011-04-19T10:04:24Z</time>
      </trkpt>
      <trkpt lat="45.52383" lon="6.01204">
        <ele>377</ele>
        <time>2011-04-19T10:04:33Z</time>
      </trkpt>
      <trkpt lat="45.52378" lon="6.0122">
        <ele>377</ele>
        <time>2011-04-19T10:04:43Z</time>
      </trkpt>
      <trkpt lat="45.52374" lon="6.01234">
        <ele>379</ele>
        <time>2011-04-19T10:04:51Z</time>
      </trkpt>
      <trkpt lat="45.52373" lon="6.01255">
        <ele>381</ele>
        <time>2011-04-19T10:05:03Z</time>
      </trkpt>
      <trkpt lat="45.52377" lon="6.01276">
        <ele>383</ele>
        <time>2011-04-19T10:05:15Z</time>
      </trkpt>
      <trkpt lat="45.52385" lon="6.01295">
        <ele>385</ele>
        <time>2011-04-19T10:05:28Z</time>
      </trkpt>
      <trkpt lat="45.52394" lon="6.01307">
        <ele>386</ele>
        <time>2011-04-19T10:05:39Z</time>
      </trkpt>
      <trkpt lat="45.524" lon="6.01322">
        <ele>388</ele>
        <time>2011-04-19T10:05:50Z</time>
      </trkpt>
      <trkpt lat="45.52407" lon="6.01343">
        <ele>390</ele>
        <time>2011-04-19T10:06:03Z</time>
      </trkpt>
      <trkpt lat="45.5241" lon="6.01359">
        <ele>391</ele>
        <time>2011-04-19T10:06:15Z</time>
      </trkpt>
      <trkpt lat="45.52413" lon="6.01371">
        <ele>394</ele>
        <time>2011-04-19T10:06:24Z</time>
      </trkpt>
      <trkpt lat="45.52417" lon="6.01389">
        <ele>395</ele>
        <time>2011-04-19T10:06:35Z</time>
      </trkpt>
      <trkpt lat="45.52421" lon="6.01404">
        <ele>397</ele>
        <time>2011-04-19T10:06:45Z</time>
      </trkpt>
      <trkpt lat="45.52422" lon="6.01414">
        <ele>399</ele>
        <time>2011-04-19T10:06:52Z</time>
      </trkpt>
      <trkpt lat="45.52422" lon="6.01416">
        <ele>399</ele>
        <time>2011-04-19T10:06:53Z</time>
      </trkpt>
      <trkpt lat="45.52424" lon="6.01424">
        <ele>401</ele>
        <time>2011-04-19T10:06:58Z</time>
      </trkpt>
      <trkpt lat="45.52427" lon="6.01446">
        <ele>403</ele>
        <time>2011-04-19T10:07:12Z</time>
      </trkpt>
      <trkpt lat="45.52429" lon="6.01468">
        <ele>405</ele>
        <time>2011-04-19T10:07:25Z</time>
      </trkpt>
      <trkpt lat="45.52429" lon="6.01477">
        <ele>408</ele>
        <time>2011-04-19T10:07:30Z</time>
      </trkpt>
      <trkpt lat="45.52429" lon="6.01497">
        <ele>411</ele>
        <time>2011-04-19T10:07:43Z</time>
      </trkpt>
      <trkpt lat="45.52424" lon="6.01511">
        <ele>413</ele>
        <time>2011-04-19T10:07:55Z</time>
      </trkpt>
      <trkpt lat="45.52423" lon="6.01511">
        <ele>413</ele>
        <time>2011-04-19T10:07:56Z</time>
      </trkpt>
      <trkpt lat="45.52411" lon="6.01518">
        <ele>416</ele>
        <time>2011-04-19T10:08:10Z</time>
      </trkpt>
      <trkpt lat="45.52404" lon="6.01527">
        <ele>419</ele>
        <time>2011-04-19T10:08:20Z</time>
      </trkpt>
      <trkpt lat="45.52402" lon="6.01534">
        <ele>421</ele>
        <time>2011-04-19T10:08:26Z</time>
      </trkpt>
      <trkpt lat="45.52399" lon="6.01545">
        <ele>423</ele>
        <time>2011-04-19T10:08:36Z</time>
      </trkpt>
      <trkpt lat="45.52395" lon="6.01555">
        <ele>426</ele>
        <time>2011-04-19T10:08:46Z</time>
      </trkpt>
      <trkpt lat="45.5239" lon="6.01572">
        <ele>429</ele>
        <time>2011-04-19T10:09:01Z</time>
      </trkpt>
      <trkpt lat="45.52387" lon="6.01586">
        <ele>432</ele>
        <time>2011-04-19T10:09:12Z</time>
      </trkpt>
      <trkpt lat="45.52386" lon="6.01596">
        <ele>434</ele>
        <time>2011-04-19T10:09:20Z</time>
      </trkpt>
      <trkpt lat="45.52386" lon="6.01611">
        <ele>437</ele>
        <time>2011-04-19T10:09:32Z</time>
      </trkpt>
      <trkpt lat="45.52385" lon="6.01624">
        <ele>440</ele>
        <time>2011-04-19T10:09:44Z</time>
      </trkpt>
      <trkpt lat="45.52385" lon="6.01636">
        <ele>443</ele>
        <time>2011-04-19T10:09:55Z</time>
      </trkpt>
      <trkpt lat="45.52384" lon="6.01648">
        <ele>446</ele>
        <time>2011-04-19T10:10:07Z</time>
      </trkpt>
      <trkpt lat="45.52383" lon="6.01658">
        <ele>449</ele>
        <time>2011-04-19T10:10:18Z</time>
      </trkpt>
      <trkpt lat="45.52383" lon="6.01659">
        <ele>449</ele>
        <time>2011-04-19T10:10:19Z</time>
      </trkpt>
      <trkpt lat="45.5238" lon="6.01669">
        <ele>451</ele>
        <time>2011-04-19T10:10:31Z</time>
      </trkpt>
      <trkpt lat="45.52378" lon="6.0168">
        <ele>454</ele>
        <time>2011-04-19T10:10:41Z</time>
      </trkpt>
      <trkpt lat="45.52375" lon="6.01687">
        <ele>456</ele>
        <time>2011-04-19T10:10:50Z</time>
      </trkpt>
      <trkpt lat="45.52369" lon="6.01695">
        <ele>457</ele>
        <time>2011-04-19T10:11:00Z</time>
      </trkpt>
      <trkpt lat="45.52367" lon="6.017">
        <ele>458</ele>
        <time>2011-04-19T10:11:05Z</time>
      </trkpt>
      <trkpt lat="45.52361" lon="6.01713">
        <ele>460</ele>
        <time>2011-04-19T10:11:16Z</time>
      </trkpt>
      <trkpt lat="45.52356" lon="6.01728">
        <ele>462</ele>
        <time>2011-04-19T10:11:30Z</time>
      </trkpt>
      <trkpt lat="45.5235" lon="6.0174">
        <ele>464</ele>
        <time>2011-04-19T10:11:42Z</time>
      </trkpt>
      <trkpt lat="45.52345" lon="6.01751">
        <ele>466</ele>
        <time>2011-04-19T10:11:53Z</time>
      </trkpt>
      <trkpt lat="45.52342" lon="6.01758">
        <ele>466</ele>
        <time>2011-04-19T10:12:03Z</time>
      </trkpt>
      <trkpt lat="45.5234" lon="6.01759">
        <ele>467</ele>
        <time>2011-04-19T10:12:13Z</time>
      </trkpt>
      <trkpt lat="45.52345" lon="6.01765">
        <ele>468</ele>
        <time>2011-04-19T10:15:14Z</time>
      </trkpt>
      <trkpt lat="45.52345" lon="6.01771">
        <ele>470</ele>
        <time>2011-04-19T10:15:23Z</time>
      </trkpt>
      <trkpt lat="45.52348" lon="6.01773">
        <ele>472</ele>
        <time>2011-04-19T10:15:32Z</time>
      </trkpt>
      <trkpt lat="45.5235" lon="6.01778">
        <ele>474</ele>
        <time>2011-04-19T10:15:42Z</time>
      </trkpt>
      <trkpt lat="45.52351" lon="6.01783">
        <ele>476</ele>
        <time>2011-04-19T10:15:54Z</time>
      </trkpt>
      <trkpt lat="45.52352" lon="6.01786">
        <ele>476</ele>
        <time>2011-04-19T10:16:02Z</time>
      </trkpt>
      <trkpt lat="45.52354" lon="6.01789">
        <ele>478</ele>
        <time>2011-04-19T10:16:12Z</time>
      </trkpt>
      <trkpt lat="45.52355" lon="6.01792">
        <ele>479</ele>
        <time>2011-04-19T10:16:23Z</time>
      </trkpt>
      <trkpt lat="45.52356" lon="6.01795">
        <ele>480</ele>
        <time>2011-04-19T10:16:32Z</time>
      </trkpt>
      <trkpt lat="45.52358" lon="6.01798">
        <ele>483</ele>
        <time>2011-04-19T10:16:45Z</time>
      </trkpt>
      <trkpt lat="45.5236" lon="6.018">
        <ele>485</ele>
        <time>2011-04-19T10:16:53Z</time>
      </trkpt>
      <trkpt lat="45.52361" lon="6.01803">
        <ele>487</ele>
        <time>2011-04-19T10:17:03Z</time>
      </trkpt>
      <trkpt lat="45.52363" lon="6.01804">
        <ele>488</ele>
        <time>2011-04-19T10:17:11Z</time>
      </trkpt>
      <trkpt lat="45.52364" lon="6.01806">
        <ele>488</ele>
        <time>2011-04-19T10:17:20Z</time>
      </trkpt>
      <trkpt lat="45.52366" lon="6.01808">
        <ele>489</ele>
        <time>2011-04-19T10:17:30Z</time>
      </trkpt>
      <trkpt lat="45.52367" lon="6.01811">
        <ele>491</ele>
        <time>2011-04-19T10:17:43Z</time>
      </trkpt>
      <trkpt lat="45.52369" lon="6.01813">
        <ele>492</ele>
        <time>2011-04-19T10:17:50Z</time>
      </trkpt>
      <trkpt lat="45.5237" lon="6.01819">
        <ele>494</ele>
        <time>2011-04-19T10:18:00Z</time>
      </trkpt>
      <trkpt lat="45.5237" lon="6.01823">
        <ele>496</ele>
        <time>2011-04-19T10:18:08Z</time>
      </trkpt>
      <trkpt lat="45.52366" lon="6.01825">
        <ele>498</ele>
        <time>2011-04-19T10:18:17Z</time>
      </trkpt>
      <trkpt lat="45.52362" lon="6.01829">
        <ele>500</ele>
        <time>2011-04-19T10:18:26Z</time>
      </trkpt>
      <trkpt lat="45.52359" lon="6.01832">
        <ele>502</ele>
        <time>2011-04-19T10:18:36Z</time>
      </trkpt>
      <trkpt lat="45.52358" lon="6.01836">
        <ele>503</ele>
        <time>2011-04-19T10:18:44Z</time>
      </trkpt>
      <trkpt lat="45.5236" lon="6.01839">
        <ele>505</ele>
        <time>2011-04-19T10:18:52Z</time>
      </trkpt>
      <trkpt lat="45.52365" lon="6.0184">
        <ele>507</ele>
        <time>2011-04-19T10:19:01Z</time>
      </trkpt>
      <trkpt lat="45.52368" lon="6.01843">
        <ele>508</ele>
        <time>2011-04-19T10:19:10Z</time>
      </trkpt>
      <trkpt lat="45.5237" lon="6.01846">
        <ele>509</ele>
        <time>2011-04-19T10:19:19Z</time>
      </trkpt>
      <trkpt lat="45.52374" lon="6.01848">
        <ele>510</ele>
        <time>2011-04-19T10:19:28Z</time>
      </trkpt>
      <trkpt lat="45.52377" lon="6.01849">
        <ele>512</ele>
        <time>2011-04-19T10:19:38Z</time>
      </trkpt>
      <trkpt lat="45.52374" lon="6.01845">
        <ele>513</ele>
        <time>2011-04-19T10:19:46Z</time>
      </trkpt>
      <trkpt lat="45.52368" lon="6.01845">
        <ele>515</ele>
        <time>2011-04-19T10:19:59Z</time>
      </trkpt>
      <trkpt lat="45.52364" lon="6.0185">
        <ele>518</ele>
        <time>2011-04-19T10:20:12Z</time>
      </trkpt>
      <trkpt lat="45.52364" lon="6.01854">
        <ele>518</ele>
        <time>2011-04-19T10:20:20Z</time>
      </trkpt>
      <trkpt lat="45.52367" lon="6.01857">
        <ele>520</ele>
        <time>2011-04-19T10:20:29Z</time>
      </trkpt>
      <trkpt lat="45.52367" lon="6.01861">
        <ele>521</ele>
        <time>2011-04-19T10:20:37Z</time>
      </trkpt>
      <trkpt lat="45.52363" lon="6.01862">
        <ele>523</ele>
        <time>2011-04-19T10:20:46Z</time>
      </trkpt>
      <trkpt lat="45.52361" lon="6.01868">
        <ele>523</ele>
        <time>2011-04-19T10:20:56Z</time>
      </trkpt>
      <trkpt lat="45.52358" lon="6.01874">
        <ele>525</ele>
        <time>2011-04-19T10:21:07Z</time>
      </trkpt>
      <trkpt lat="45.52355" lon="6.01881">
        <ele>526</ele>
        <time>2011-04-19T10:21:17Z</time>
      </trkpt>
      <trkpt lat="45.52354" lon="6.01887">
        <ele>527</ele>
        <time>2011-04-19T10:21:26Z</time>
      </trkpt>
      <trkpt lat="45.52359" lon="6.01886">
        <ele>529</ele>
        <time>2011-04-19T10:21:36Z</time>
      </trkpt>
      <trkpt lat="45.52366" lon="6.01884">
        <ele>530</ele>
        <time>2011-04-19T10:21:47Z</time>
      </trkpt>
      <trkpt lat="45.5237" lon="6.01884">
        <ele>532</ele>
        <time>2011-04-19T10:21:56Z</time>
      </trkpt>
      <trkpt lat="45.52371" lon="6.01888">
        <ele>533</ele>
        <time>2011-04-19T10:22:07Z</time>
      </trkpt>
      <trkpt lat="45.52373" lon="6.01892">
        <ele>535</ele>
        <time>2011-04-19T10:22:16Z</time>
      </trkpt>
      <trkpt lat="45.52375" lon="6.01894">
        <ele>536</ele>
        <time>2011-04-19T10:22:27Z</time>
      </trkpt>
      <trkpt lat="45.52377" lon="6.01899">
        <ele>540</ele>
        <time>2011-04-19T10:22:47Z</time>
      </trkpt>
      <trkpt lat="45.52375" lon="6.01901">
        <ele>541</ele>
        <time>2011-04-19T10:22:56Z</time>
      </trkpt>
      <trkpt lat="45.52373" lon="6.01902">
        <ele>542</ele>
        <time>2011-04-19T10:23:05Z</time>
      </trkpt>
      <trkpt lat="45.52371" lon="6.01903">
        <ele>544</ele>
        <time>2011-04-19T10:23:15Z</time>
      </trkpt>
      <trkpt lat="45.52367" lon="6.01902">
        <ele>546</ele>
        <time>2011-04-19T10:23:26Z</time>
      </trkpt>
      <trkpt lat="45.52366" lon="6.01907">
        <ele>548</ele>
        <time>2011-04-19T10:23:36Z</time>
      </trkpt>
      <trkpt lat="45.52369" lon="6.01912">
        <ele>549</ele>
        <time>2011-04-19T10:23:45Z</time>
      </trkpt>
      <trkpt lat="45.52371" lon="6.01916">
        <ele>550</ele>
        <time>2011-04-19T10:23:54Z</time>
      </trkpt>
      <trkpt lat="45.52374" lon="6.01919">
        <ele>550</ele>
        <time>2011-04-19T10:24:05Z</time>
      </trkpt>
      <trkpt lat="45.52377" lon="6.0192">
        <ele>552</ele>
        <time>2011-04-19T10:24:14Z</time>
      </trkpt>
      <trkpt lat="45.52376" lon="6.01922">
        <ele>553</ele>
        <time>2011-04-19T10:24:22Z</time>
      </trkpt>
      <trkpt lat="45.52374" lon="6.01926">
        <ele>555</ele>
        <time>2011-04-19T10:24:31Z</time>
      </trkpt>
      <trkpt lat="45.52372" lon="6.0193">
        <ele>557</ele>
        <time>2011-04-19T10:24:41Z</time>
      </trkpt>
      <trkpt lat="45.52369" lon="6.01933">
        <ele>559</ele>
        <time>2011-04-19T10:24:51Z</time>
      </trkpt>
      <trkpt lat="45.52366" lon="6.01935">
        <ele>560</ele>
        <time>2011-04-19T10:25:00Z</time>
      </trkpt>
      <trkpt lat="45.52364" lon="6.01938">
        <ele>561</ele>
        <time>2011-04-19T10:25:11Z</time>
      </trkpt>
      <trkpt lat="45.52361" lon="6.01942">
        <ele>563</ele>
        <time>2011-04-19T10:25:23Z</time>
      </trkpt>
      <trkpt lat="45.5236" lon="6.01947">
        <ele>565</ele>
        <time>2011-04-19T10:25:31Z</time>
      </trkpt>
      <trkpt lat="45.52359" lon="6.01951">
        <ele>565</ele>
        <time>2011-04-19T10:25:38Z</time>
      </trkpt>
      <trkpt lat="45.52361" lon="6.01954">
        <ele>566</ele>
        <time>2011-04-19T10:25:46Z</time>
      </trkpt>
      <trkpt lat="45.52364" lon="6.01958">
        <ele>568</ele>
        <time>2011-04-19T10:25:57Z</time>
      </trkpt>
      <trkpt lat="45.52368" lon="6.01958">
        <ele>570</ele>
        <time>2011-04-19T10:26:09Z</time>
      </trkpt>
      <trkpt lat="45.52371" lon="6.01959">
        <ele>572</ele>
        <time>2011-04-19T10:26:20Z</time>
      </trkpt>
      <trkpt lat="45.52371" lon="6.01963">
        <ele>574</ele>
        <time>2011-04-19T10:26:30Z</time>
      </trkpt>
      <trkpt lat="45.5237" lon="6.01966">
        <ele>575</ele>
        <time>2011-04-19T10:26:40Z</time>
      </trkpt>
      <trkpt lat="45.52368" lon="6.01968">
        <ele>577</ele>
        <time>2011-04-19T10:26:50Z</time>
      </trkpt>
      <trkpt lat="45.52371" lon="6.0197">
        <ele>578</ele>
        <time>2011-04-19T10:27:00Z</time>
      </trkpt>
      <trkpt lat="45.52375" lon="6.01972">
        <ele>580</ele>
        <time>2011-04-19T10:27:12Z</time>
      </trkpt>
      <trkpt lat="45.52379" lon="6.01971">
        <ele>582</ele>
        <time>2011-04-19T10:27:22Z</time>
      </trkpt>
      <trkpt lat="45.52381" lon="6.01969">
        <ele>583</ele>
        <time>2011-04-19T10:27:31Z</time>
      </trkpt>
      <trkpt lat="45.52384" lon="6.01971">
        <ele>585</ele>
        <time>2011-04-19T10:27:43Z</time>
      </trkpt>
      <trkpt lat="45.52384" lon="6.01978">
        <ele>587</ele>
        <time>2011-04-19T10:27:53Z</time>
      </trkpt>
      <trkpt lat="45.5238" lon="6.0198">
        <ele>588</ele>
        <time>2011-04-19T10:28:03Z</time>
      </trkpt>
      <trkpt lat="45.52378" lon="6.01984">
        <ele>589</ele>
        <time>2011-04-19T10:28:17Z</time>
      </trkpt>
      <trkpt lat="45.52382" lon="6.01983">
        <ele>591</ele>
        <time>2011-04-19T10:28:27Z</time>
      </trkpt>
      <trkpt lat="45.52388" lon="6.01983">
        <ele>593</ele>
        <time>2011-04-19T10:28:38Z</time>
      </trkpt>
      <trkpt lat="45.52393" lon="6.01982">
        <ele>594</ele>
        <time>2011-04-19T10:28:48Z</time>
      </trkpt>
      <trkpt lat="45.52399" lon="6.01986">
        <ele>596</ele>
        <time>2011-04-19T10:29:00Z</time>
      </trkpt>
      <trkpt lat="45.52396" lon="6.0199">
        <ele>598</ele>
        <time>2011-04-19T10:29:08Z</time>
      </trkpt>
      <trkpt lat="45.52392" lon="6.01993">
        <ele>599</ele>
        <time>2011-04-19T10:29:18Z</time>
      </trkpt>
      <trkpt lat="45.52389" lon="6.01997">
        <ele>600</ele>
        <time>2011-04-19T10:29:28Z</time>
      </trkpt>
      <trkpt lat="45.52387" lon="6.01999">
        <ele>601</ele>
        <time>2011-04-19T10:29:36Z</time>
      </trkpt>
      <trkpt lat="45.52384" lon="6.02003">
        <ele>603</ele>
        <time>2011-04-19T10:29:55Z</time>
      </trkpt>
      <trkpt lat="45.52381" lon="6.02008">
        <ele>605</ele>
        <time>2011-04-19T10:30:05Z</time>
      </trkpt>
      <trkpt lat="45.5238" lon="6.0201">
        <ele>607</ele>
        <time>2011-04-19T10:30:14Z</time>
      </trkpt>
      <trkpt lat="45.52376" lon="6.02011">
        <ele>609</ele>
        <time>2011-04-19T10:30:22Z</time>
      </trkpt>
      <trkpt lat="45.52375" lon="6.02014">
        <ele>609</ele>
        <time>2011-04-19T10:30:31Z</time>
      </trkpt>
      <trkpt lat="45.52379" lon="6.02017">
        <ele>611</ele>
        <time>2011-04-19T10:30:41Z</time>
      </trkpt>
      <trkpt lat="45.52383" lon="6.02019">
        <ele>612</ele>
        <time>2011-04-19T10:30:51Z</time>
      </trkpt>
      <trkpt lat="45.52384" lon="6.02022">
        <ele>614</ele>
        <time>2011-04-19T10:31:01Z</time>
      </trkpt>
      <trkpt lat="45.52382" lon="6.02027">
        <ele>615</ele>
        <time>2011-04-19T10:31:14Z</time>
      </trkpt>
      <trkpt lat="45.52378" lon="6.0203">
        <ele>616</ele>
        <time>2011-04-19T10:31:24Z</time>
      </trkpt>
      <trkpt lat="45.52372" lon="6.02032">
        <ele>618</ele>
        <time>2011-04-19T10:31:37Z</time>
      </trkpt>
      <trkpt lat="45.52368" lon="6.02034">
        <ele>620</ele>
        <time>2011-04-19T10:31:48Z</time>
      </trkpt>
      <trkpt lat="45.52365" lon="6.02036">
        <ele>621</ele>
        <time>2011-04-19T10:31:58Z</time>
      </trkpt>
      <trkpt lat="45.52362" lon="6.02044">
        <ele>622</ele>
        <time>2011-04-19T10:32:09Z</time>
      </trkpt>
      <trkpt lat="45.52362" lon="6.02048">
        <ele>624</ele>
        <time>2011-04-19T10:32:19Z</time>
      </trkpt>
      <trkpt lat="45.52363" lon="6.02047">
        <ele>625</ele>
        <time>2011-04-19T10:32:26Z</time>
      </trkpt>
      <trkpt lat="45.52366" lon="6.02049">
        <ele>628</ele>
        <time>2011-04-19T10:32:35Z</time>
      </trkpt>
      <trkpt lat="45.52368" lon="6.0205">
        <ele>629</ele>
        <time>2011-04-19T10:32:42Z</time>
      </trkpt>
      <trkpt lat="45.52374" lon="6.02051">
        <ele>633</ele>
        <time>2011-04-19T10:33:01Z</time>
      </trkpt>
      <trkpt lat="45.52377" lon="6.02052">
        <ele>633</ele>
        <time>2011-04-19T10:33:10Z</time>
      </trkpt>
      <trkpt lat="45.52381" lon="6.02052">
        <ele>635</ele>
        <time>2011-04-19T10:33:21Z</time>
      </trkpt>
      <trkpt lat="45.5238" lon="6.02055">
        <ele>636</ele>
        <time>2011-04-19T10:33:28Z</time>
      </trkpt>
      <trkpt lat="45.52376" lon="6.02058">
        <ele>638</ele>
        <time>2011-04-19T10:33:38Z</time>
      </trkpt>
      <trkpt lat="45.52372" lon="6.02063">
        <ele>639</ele>
        <time>2011-04-19T10:33:49Z</time>
      </trkpt>
      <trkpt lat="45.52367" lon="6.02065">
        <ele>641</ele>
        <time>2011-04-19T10:34:00Z</time>
      </trkpt>
      <trkpt lat="45.52363" lon="6.02068">
        <ele>642</ele>
        <time>2011-04-19T10:34:10Z</time>
      </trkpt>
      <trkpt lat="45.5236" lon="6.02074">
        <ele>643</ele>
        <time>2011-04-19T10:34:20Z</time>
      </trkpt>
      <trkpt lat="45.52356" lon="6.02081">
        <ele>645</ele>
        <time>2011-04-19T10:34:32Z</time>
      </trkpt>
      <trkpt lat="45.52355" lon="6.02086">
        <ele>646</ele>
        <time>2011-04-19T10:34:38Z</time>
      </trkpt>
      <trkpt lat="45.52355" lon="6.02092">
        <ele>648</ele>
        <time>2011-04-19T10:34:47Z</time>
      </trkpt>
      <trkpt lat="45.52356" lon="6.02097">
        <ele>650</ele>
        <time>2011-04-19T10:34:57Z</time>
      </trkpt>
      <trkpt lat="45.52357" lon="6.02103">
        <ele>651</ele>
        <time>2011-04-19T10:35:06Z</time>
      </trkpt>
      <trkpt lat="45.52356" lon="6.02108">
        <ele>652</ele>
        <time>2011-04-19T10:35:17Z</time>
      </trkpt>
      <trkpt lat="45.52355" lon="6.02114">
        <ele>654</ele>
        <time>2011-04-19T10:35:28Z</time>
      </trkpt>
      <trkpt lat="45.52355" lon="6.02121">
        <ele>656</ele>
        <time>2011-04-19T10:35:39Z</time>
      </trkpt>
      <trkpt lat="45.52357" lon="6.02118">
        <ele>657</ele>
        <time>2011-04-19T10:35:47Z</time>
      </trkpt>
      <trkpt lat="45.5236" lon="6.02112">
        <ele>659</ele>
        <time>2011-04-19T10:35:57Z</time>
      </trkpt>
      <trkpt lat="45.52363" lon="6.02106">
        <ele>660</ele>
        <time>2011-04-19T10:36:06Z</time>
      </trkpt>
      <trkpt lat="45.52367" lon="6.02101">
        <ele>661</ele>
        <time>2011-04-19T10:36:17Z</time>
      </trkpt>
      <trkpt lat="45.52371" lon="6.02097">
        <ele>662</ele>
        <time>2011-04-19T10:36:30Z</time>
      </trkpt>
      <trkpt lat="45.52371" lon="6.02103">
        <ele>663</ele>
        <time>2011-04-19T10:36:38Z</time>
      </trkpt>
      <trkpt lat="45.5237" lon="6.02112">
        <ele>664</ele>
        <time>2011-04-19T10:36:47Z</time>
      </trkpt>
      <trkpt lat="45.5237" lon="6.0212">
        <ele>665</ele>
        <time>2011-04-19T10:36:58Z</time>
      </trkpt>
      <trkpt lat="45.5237" lon="6.02126">
        <ele>666</ele>
        <time>2011-04-19T10:37:07Z</time>
      </trkpt>
      <trkpt lat="45.5237" lon="6.02131">
        <ele>668</ele>
        <time>2011-04-19T10:37:16Z</time>
      </trkpt>
      <trkpt lat="45.52372" lon="6.02137">
        <ele>670</ele>
        <time>2011-04-19T10:37:25Z</time>
      </trkpt>
      <trkpt lat="45.5237" lon="6.02143">
        <ele>671</ele>
        <time>2011-04-19T10:37:34Z</time>
      </trkpt>
      <trkpt lat="45.52368" lon="6.02149">
        <ele>671</ele>
        <time>2011-04-19T10:37:46Z</time>
      </trkpt>
      <trkpt lat="45.52367" lon="6.02153">
        <ele>672</ele>
        <time>2011-04-19T10:37:57Z</time>
      </trkpt>
      <trkpt lat="45.52368" lon="6.02156">
        <ele>674</ele>
        <time>2011-04-19T10:38:06Z</time>
      </trkpt>
      <trkpt lat="45.52373" lon="6.02153">
        <ele>676</ele>
        <time>2011-04-19T10:38:17Z</time>
      </trkpt>
      <trkpt lat="45.52377" lon="6.02146">
        <ele>677</ele>
        <time>2011-04-19T10:38:26Z</time>
      </trkpt>
      <trkpt lat="45.52379" lon="6.0214">
        <ele>678</ele>
        <time>2011-04-19T10:38:34Z</time>
      </trkpt>
      <trkpt lat="45.52381" lon="6.02135">
        <ele>678</ele>
        <time>2011-04-19T10:38:42Z</time>
      </trkpt>
      <trkpt lat="45.52385" lon="6.02127">
        <ele>680</ele>
        <time>2011-04-19T10:38:53Z</time>
      </trkpt>
      <trkpt lat="45.52389" lon="6.02129">
        <ele>682</ele>
        <time>2011-04-19T10:39:01Z</time>
      </trkpt>
      <trkpt lat="45.5239" lon="6.02135">
        <ele>684</ele>
        <time>2011-04-19T10:39:13Z</time>
      </trkpt>
      <trkpt lat="45.52391" lon="6.02141">
        <ele>685</ele>
        <time>2011-04-19T10:39:22Z</time>
      </trkpt>
      <trkpt lat="45.5239" lon="6.02149">
        <ele>687</ele>
        <time>2011-04-19T10:39:32Z</time>
      </trkpt>
      <trkpt lat="45.5239" lon="6.02155">
        <ele>688</ele>
        <time>2011-04-19T10:39:41Z</time>
      </trkpt>
      <trkpt lat="45.52388" lon="6.02164">
        <ele>689</ele>
        <time>2011-04-19T10:39:51Z</time>
      </trkpt>
      <trkpt lat="45.52387" lon="6.02171">
        <ele>690</ele>
        <time>2011-04-19T10:40:01Z</time>
      </trkpt>
      <trkpt lat="45.52386" lon="6.02177">
        <ele>692</ele>
        <time>2011-04-19T10:40:11Z</time>
      </trkpt>
      <trkpt lat="45.52388" lon="6.02178">
        <ele>693</ele>
        <time>2011-04-19T10:40:20Z</time>
      </trkpt>
      <trkpt lat="45.52391" lon="6.02175">
        <ele>694</ele>
        <time>2011-04-19T10:40:30Z</time>
      </trkpt>
      <trkpt lat="45.52393" lon="6.02169">
        <ele>696</ele>
        <time>2011-04-19T10:40:41Z</time>
      </trkpt>
      <trkpt lat="45.52395" lon="6.02166">
        <ele>697</ele>
        <time>2011-04-19T10:40:50Z</time>
      </trkpt>
      <trkpt lat="45.52398" lon="6.02162">
        <ele>698</ele>
        <time>2011-04-19T10:41:00Z</time>
      </trkpt>
      <trkpt lat="45.52402" lon="6.02158">
        <ele>700</ele>
        <time>2011-04-19T10:41:10Z</time>
      </trkpt>
      <trkpt lat="45.52407" lon="6.02153">
        <ele>702</ele>
        <time>2011-04-19T10:41:23Z</time>
      </trkpt>
      <trkpt lat="45.52412" lon="6.02149">
        <ele>704</ele>
        <time>2011-04-19T10:41:33Z</time>
      </trkpt>
      <trkpt lat="45.52417" lon="6.02147">
        <ele>705</ele>
        <time>2011-04-19T10:41:42Z</time>
      </trkpt>
      <trkpt lat="45.52421" lon="6.02144">
        <ele>707</ele>
        <time>2011-04-19T10:41:53Z</time>
      </trkpt>
      <trkpt lat="45.52426" lon="6.02141">
        <ele>708</ele>
        <time>2011-04-19T10:42:02Z</time>
      </trkpt>
      <trkpt lat="45.52428" lon="6.02145">
        <ele>710</ele>
        <time>2011-04-19T10:42:10Z</time>
      </trkpt>
      <trkpt lat="45.52428" lon="6.0215">
        <ele>711</ele>
        <time>2011-04-19T10:42:19Z</time>
      </trkpt>
      <trkpt lat="45.52426" lon="6.02154">
        <ele>713</ele>
        <time>2011-04-19T10:42:27Z</time>
      </trkpt>
      <trkpt lat="45.52425" lon="6.02159">
        <ele>714</ele>
        <time>2011-04-19T10:42:34Z</time>
      </trkpt>
      <trkpt lat="45.52423" lon="6.02165">
        <ele>714</ele>
        <time>2011-04-19T10:42:44Z</time>
      </trkpt>
      <trkpt lat="45.52427" lon="6.02167">
        <ele>715</ele>
        <time>2011-04-19T10:42:52Z</time>
      </trkpt>
      <trkpt lat="45.52433" lon="6.02165">
        <ele>718</ele>
        <time>2011-04-19T10:43:03Z</time>
      </trkpt>
      <trkpt lat="45.52438" lon="6.02164">
        <ele>719</ele>
        <time>2011-04-19T10:43:11Z</time>
      </trkpt>
      <trkpt lat="45.52443" lon="6.02162">
        <ele>720</ele>
        <time>2011-04-19T10:43:19Z</time>
      </trkpt>
      <trkpt lat="45.52445" lon="6.02162">
        <ele>720</ele>
        <time>2011-04-19T10:43:25Z</time>
      </trkpt>
      <trkpt lat="45.52451" lon="6.02164">
        <ele>721</ele>
        <time>2011-04-19T10:43:33Z</time>
      </trkpt>
      <trkpt lat="45.52455" lon="6.02161">
        <ele>722</ele>
        <time>2011-04-19T10:43:43Z</time>
      </trkpt>
      <trkpt lat="45.52462" lon="6.02161">
        <ele>722</ele>
        <time>2011-04-19T10:43:52Z</time>
      </trkpt>
      <trkpt lat="45.52471" lon="6.02162">
        <ele>722</ele>
        <time>2011-04-19T10:44:04Z</time>
      </trkpt>
      <trkpt lat="45.52476" lon="6.02163">
        <ele>724</ele>
        <time>2011-04-19T10:44:12Z</time>
      </trkpt>
      <trkpt lat="45.5248" lon="6.02162">
        <ele>724</ele>
        <time>2011-04-19T10:44:20Z</time>
      </trkpt>
      <trkpt lat="45.52485" lon="6.02162">
        <ele>725</ele>
        <time>2011-04-19T10:44:27Z</time>
      </trkpt>
      <trkpt lat="45.5249" lon="6.02162">
        <ele>727</ele>
        <time>2011-04-19T10:44:37Z</time>
      </trkpt>
      <trkpt lat="45.52494" lon="6.02161">
        <ele>728</ele>
        <time>2011-04-19T10:44:45Z</time>
      </trkpt>
      <trkpt lat="45.52499" lon="6.02159">
        <ele>729</ele>
        <time>2011-04-19T10:44:53Z</time>
      </trkpt>
      <trkpt lat="45.52504" lon="6.02159">
        <ele>730</ele>
        <time>2011-04-19T10:45:02Z</time>
      </trkpt>
      <trkpt lat="45.52511" lon="6.02159">
        <ele>731</ele>
        <time>2011-04-19T10:45:13Z</time>
      </trkpt>
      <trkpt lat="45.52518" lon="6.02159">
        <ele>731</ele>
        <time>2011-04-19T10:45:22Z</time>
      </trkpt>
      <trkpt lat="45.52524" lon="6.02162">
        <ele>730</ele>
        <time>2011-04-19T10:45:31Z</time>
      </trkpt>
      <trkpt lat="45.52531" lon="6.02165">
        <ele>730</ele>
        <time>2011-04-19T10:45:39Z</time>
      </trkpt>
      <trkpt lat="45.52535" lon="6.02171">
        <ele>730</ele>
        <time>2011-04-19T10:45:45Z</time>
      </trkpt>
      <trkpt lat="45.52541" lon="6.02169">
        <ele>732</ele>
        <time>2011-04-19T10:45:56Z</time>
      </trkpt>
      <trkpt lat="45.52547" lon="6.02172">
        <ele>733</ele>
        <time>2011-04-19T10:46:05Z</time>
      </trkpt>
      <trkpt lat="45.52549" lon="6.02176">
        <ele>735</ele>
        <time>2011-04-19T10:46:15Z</time>
      </trkpt>
      <trkpt lat="45.52554" lon="6.02178">
        <ele>736</ele>
        <time>2011-04-19T10:46:24Z</time>
      </trkpt>
      <trkpt lat="45.5256" lon="6.02179">
        <ele>738</ele>
        <time>2011-04-19T10:46:33Z</time>
      </trkpt>
      <trkpt lat="45.52564" lon="6.02179">
        <ele>740</ele>
        <time>2011-04-19T10:46:47Z</time>
      </trkpt>
      <trkpt lat="45.52566" lon="6.02169">
        <ele>742</ele>
        <time>2011-04-19T10:46:58Z</time>
      </trkpt>
      <trkpt lat="45.5257" lon="6.02158">
        <ele>744</ele>
        <time>2011-04-19T10:47:11Z</time>
      </trkpt>
      <trkpt lat="45.52573" lon="6.02151">
        <ele>746</ele>
        <time>2011-04-19T10:47:20Z</time>
      </trkpt>
      <trkpt lat="45.52577" lon="6.02147">
        <ele>748</ele>
        <time>2011-04-19T10:47:28Z</time>
      </trkpt>
      <trkpt lat="45.5258" lon="6.02147">
        <ele>749</ele>
        <time>2011-04-19T10:47:37Z</time>
      </trkpt>
      <trkpt lat="45.52582" lon="6.0215">
        <ele>750</ele>
        <time>2011-04-19T10:47:46Z</time>
      </trkpt>
      <trkpt lat="45.52584" lon="6.02147">
        <ele>751</ele>
        <time>2011-04-19T10:47:54Z</time>
      </trkpt>
      <trkpt lat="45.5259" lon="6.02145">
        <ele>754</ele>
        <time>2011-04-19T10:48:07Z</time>
      </trkpt>
      <trkpt lat="45.52594" lon="6.02142">
        <ele>755</ele>
        <time>2011-04-19T10:48:17Z</time>
      </trkpt>
      <trkpt lat="45.52597" lon="6.02138">
        <ele>757</ele>
        <time>2011-04-19T10:48:26Z</time>
      </trkpt>
      <trkpt lat="45.52599" lon="6.02133">
        <ele>758</ele>
        <time>2011-04-19T10:48:36Z</time>
      </trkpt>
      <trkpt lat="45.52605" lon="6.02129">
        <ele>760</ele>
        <time>2011-04-19T10:48:49Z</time>
      </trkpt>
      <trkpt lat="45.52607" lon="6.02124">
        <ele>761</ele>
        <time>2011-04-19T10:48:59Z</time>
      </trkpt>
      <trkpt lat="45.5261" lon="6.02121">
        <ele>762</ele>
        <time>2011-04-19T10:49:07Z</time>
      </trkpt>
      <trkpt lat="45.52613" lon="6.02117">
        <ele>764</ele>
        <time>2011-04-19T10:49:18Z</time>
      </trkpt>
      <trkpt lat="45.52616" lon="6.02111">
        <ele>765</ele>
        <time>2011-04-19T10:49:29Z</time>
      </trkpt>
      <trkpt lat="45.5262" lon="6.02106">
        <ele>768</ele>
        <time>2011-04-19T10:49:40Z</time>
      </trkpt>
      <trkpt lat="45.52623" lon="6.02104">
        <ele>770</ele>
        <time>2011-04-19T10:49:51Z</time>
      </trkpt>
      <trkpt lat="45.52626" lon="6.021">
        <ele>772</ele>
        <time>2011-04-19T10:50:01Z</time>
      </trkpt>
      <trkpt lat="45.52629" lon="6.02096">
        <ele>773</ele>
        <time>2011-04-19T10:50:11Z</time>
      </trkpt>
      <trkpt lat="45.52631" lon="6.021">
        <ele>774</ele>
        <time>2011-04-19T10:50:20Z</time>
      </trkpt>
      <trkpt lat="45.52631" lon="6.0211">
        <ele>775</ele>
        <time>2011-04-19T10:50:30Z</time>
      </trkpt>
      <trkpt lat="45.52633" lon="6.02118">
        <ele>776</ele>
        <time>2011-04-19T10:50:41Z</time>
      </trkpt>
      <trkpt lat="45.52634" lon="6.02122">
        <ele>777</ele>
        <time>2011-04-19T10:50:49Z</time>
      </trkpt>
      <trkpt lat="45.52637" lon="6.02126">
        <ele>778</ele>
        <time>2011-04-19T10:50:55Z</time>
      </trkpt>
      <trkpt lat="45.52637" lon="6.02132">
        <ele>778</ele>
        <time>2011-04-19T10:51:04Z</time>
      </trkpt>
      <trkpt lat="45.52638" lon="6.02138">
        <ele>780</ele>
        <time>2011-04-19T10:51:13Z</time>
      </trkpt>
      <trkpt lat="45.52638" lon="6.02143">
        <ele>782</ele>
        <time>2011-04-19T10:51:21Z</time>
      </trkpt>
      <trkpt lat="45.52637" lon="6.02145">
        <ele>783</ele>
        <time>2011-04-19T10:51:23Z</time>
      </trkpt>
      <trkpt lat="45.52635" lon="6.02153">
        <ele>785</ele>
        <time>2011-04-19T10:51:35Z</time>
      </trkpt>
      <trkpt lat="45.52636" lon="6.02158">
        <ele>786</ele>
        <time>2011-04-19T10:51:43Z</time>
      </trkpt>
      <trkpt lat="45.52635" lon="6.02165">
        <ele>788</ele>
        <time>2011-04-19T10:51:54Z</time>
      </trkpt>
      <trkpt lat="45.52633" lon="6.02171">
        <ele>790</ele>
        <time>2011-04-19T10:52:06Z</time>
      </trkpt>
      <trkpt lat="45.52631" lon="6.02179">
        <ele>792</ele>
        <time>2011-04-19T10:52:17Z</time>
      </trkpt>
      <trkpt lat="45.5263" lon="6.02187">
        <ele>795</ele>
        <time>2011-04-19T10:52:29Z</time>
      </trkpt>
      <trkpt lat="45.52629" lon="6.02193">
        <ele>796</ele>
        <time>2011-04-19T10:52:38Z</time>
      </trkpt>
      <trkpt lat="45.5263" lon="6.02198">
        <ele>798</ele>
        <time>2011-04-19T10:52:48Z</time>
      </trkpt>
      <trkpt lat="45.52634" lon="6.02199">
        <ele>799</ele>
        <time>2011-04-19T10:53:00Z</time>
      </trkpt>
      <trkpt lat="45.52636" lon="6.02197">
        <ele>799</ele>
        <time>2011-04-19T10:53:09Z</time>
      </trkpt>
      <trkpt lat="45.5264" lon="6.02195">
        <ele>801</ele>
        <time>2011-04-19T10:53:19Z</time>
      </trkpt>
      <trkpt lat="45.52645" lon="6.02194">
        <ele>803</ele>
        <time>2011-04-19T10:53:28Z</time>
      </trkpt>
      <trkpt lat="45.52649" lon="6.02191">
        <ele>804</ele>
        <time>2011-04-19T10:53:38Z</time>
      </trkpt>
      <trkpt lat="45.52654" lon="6.0219">
        <ele>806</ele>
        <time>2011-04-19T10:53:48Z</time>
      </trkpt>
      <trkpt lat="45.52657" lon="6.02187">
        <ele>808</ele>
        <time>2011-04-19T10:53:57Z</time>
      </trkpt>
      <trkpt lat="45.52661" lon="6.02183">
        <ele>809</ele>
        <time>2011-04-19T10:54:08Z</time>
      </trkpt>
      <trkpt lat="45.52666" lon="6.02179">
        <ele>811</ele>
        <time>2011-04-19T10:54:20Z</time>
      </trkpt>
      <trkpt lat="45.52668" lon="6.02174">
        <ele>813</ele>
        <time>2011-04-19T10:54:29Z</time>
      </trkpt>
      <trkpt lat="45.52673" lon="6.02171">
        <ele>815</ele>
        <time>2011-04-19T10:54:40Z</time>
      </trkpt>
      <trkpt lat="45.52676" lon="6.02168">
        <ele>816</ele>
        <time>2011-04-19T10:54:48Z</time>
      </trkpt>
      <trkpt lat="45.52681" lon="6.02162">
        <ele>818</ele>
        <time>2011-04-19T10:55:01Z</time>
      </trkpt>
      <trkpt lat="45.52683" lon="6.02157">
        <ele>819</ele>
        <time>2011-04-19T10:55:11Z</time>
      </trkpt>
      <trkpt lat="45.52686" lon="6.02151">
        <ele>820</ele>
        <time>2011-04-19T10:55:22Z</time>
      </trkpt>
      <trkpt lat="45.52689" lon="6.02147">
        <ele>821</ele>
        <time>2011-04-19T10:55:31Z</time>
      </trkpt>
      <trkpt lat="45.52692" lon="6.02142">
        <ele>823</ele>
        <time>2011-04-19T10:55:41Z</time>
      </trkpt>
      <trkpt lat="45.52694" lon="6.02137">
        <ele>824</ele>
        <time>2011-04-19T10:55:52Z</time>
      </trkpt>
      <trkpt lat="45.52698" lon="6.02133">
        <ele>825</ele>
        <time>2011-04-19T10:56:03Z</time>
      </trkpt>
      <trkpt lat="45.527" lon="6.02128">
        <ele>827</ele>
        <time>2011-04-19T10:56:12Z</time>
      </trkpt>
      <trkpt lat="45.52702" lon="6.02122">
        <ele>827</ele>
        <time>2011-04-19T10:56:20Z</time>
      </trkpt>
      <trkpt lat="45.52705" lon="6.02117">
        <ele>829</ele>
        <time>2011-04-19T10:56:29Z</time>
      </trkpt>
      <trkpt lat="45.52709" lon="6.0211">
        <ele>829</ele>
        <time>2011-04-19T10:56:40Z</time>
      </trkpt>
      <trkpt lat="45.52714" lon="6.02106">
        <ele>832</ele>
        <time>2011-04-19T10:56:50Z</time>
      </trkpt>
      <trkpt lat="45.52719" lon="6.02103">
        <ele>833</ele>
        <time>2011-04-19T10:56:59Z</time>
      </trkpt>
      <trkpt lat="45.52724" lon="6.02103">
        <ele>835</ele>
        <time>2011-04-19T10:57:09Z</time>
      </trkpt>
      <trkpt lat="45.52726" lon="6.02104">
        <ele>836</ele>
        <time>2011-04-19T10:57:18Z</time>
      </trkpt>
      <trkpt lat="45.52726" lon="6.02107">
        <ele>838</ele>
        <time>2011-04-19T10:57:27Z</time>
      </trkpt>
      <trkpt lat="45.52726" lon="6.02115">
        <ele>841</ele>
        <time>2011-04-19T10:57:39Z</time>
      </trkpt>
      <trkpt lat="45.52725" lon="6.02117">
        <ele>842</ele>
        <time>2011-04-19T10:57:44Z</time>
      </trkpt>
      <trkpt lat="45.52723" lon="6.02127">
        <ele>844</ele>
        <time>2011-04-19T10:57:54Z</time>
      </trkpt>
      <trkpt lat="45.52725" lon="6.02135">
        <ele>845</ele>
        <time>2011-04-19T10:58:02Z</time>
      </trkpt>
      <trkpt lat="45.52723" lon="6.02146">
        <ele>846</ele>
        <time>2011-04-19T10:58:12Z</time>
      </trkpt>
      <trkpt lat="45.52722" lon="6.02157">
        <ele>847</ele>
        <time>2011-04-19T10:58:23Z</time>
      </trkpt>
      <trkpt lat="45.52724" lon="6.02162">
        <ele>848</ele>
        <time>2011-04-19T10:58:32Z</time>
      </trkpt>
      <trkpt lat="45.52727" lon="6.02155">
        <ele>849</ele>
        <time>2011-04-19T10:58:42Z</time>
      </trkpt>
      <trkpt lat="45.5273" lon="6.02148">
        <ele>850</ele>
        <time>2011-04-19T10:58:51Z</time>
      </trkpt>
      <trkpt lat="45.52735" lon="6.0214">
        <ele>851</ele>
        <time>2011-04-19T10:59:03Z</time>
      </trkpt>
      <trkpt lat="45.5274" lon="6.02136">
        <ele>853</ele>
        <time>2011-04-19T10:59:14Z</time>
      </trkpt>
      <trkpt lat="45.52746" lon="6.02133">
        <ele>854</ele>
        <time>2011-04-19T10:59:23Z</time>
      </trkpt>
      <trkpt lat="45.52751" lon="6.02131">
        <ele>854</ele>
        <time>2011-04-19T10:59:30Z</time>
      </trkpt>
      <trkpt lat="45.52753" lon="6.02131">
        <ele>855</ele>
        <time>2011-04-19T10:59:38Z</time>
      </trkpt>
      <trkpt lat="45.52749" lon="6.02134">
        <ele>858</ele>
        <time>2011-04-19T10:59:52Z</time>
      </trkpt>
      <trkpt lat="45.52746" lon="6.02142">
        <ele>858</ele>
        <time>2011-04-19T11:00:01Z</time>
      </trkpt>
      <trkpt lat="45.52741" lon="6.02151">
        <ele>860</ele>
        <time>2011-04-19T11:00:11Z</time>
      </trkpt>
      <trkpt lat="45.52738" lon="6.02159">
        <ele>860</ele>
        <time>2011-04-19T11:00:18Z</time>
      </trkpt>
      <trkpt lat="45.52736" lon="6.02168">
        <ele>861</ele>
        <time>2011-04-19T11:00:26Z</time>
      </trkpt>
      <trkpt lat="45.52735" lon="6.02174">
        <ele>861</ele>
        <time>2011-04-19T11:00:35Z</time>
      </trkpt>
      <trkpt lat="45.52733" lon="6.02181">
        <ele>861</ele>
        <time>2011-04-19T11:00:44Z</time>
      </trkpt>
      <trkpt lat="45.52731" lon="6.02189">
        <ele>861</ele>
        <time>2011-04-19T11:00:55Z</time>
      </trkpt>
      <trkpt lat="45.52729" lon="6.02195">
        <ele>862</ele>
        <time>2011-04-19T11:01:04Z</time>
      </trkpt>
      <trkpt lat="45.52728" lon="6.02202">
        <ele>862</ele>
        <time>2011-04-19T11:01:12Z</time>
      </trkpt>
      <trkpt lat="45.52726" lon="6.02215">
        <ele>863</ele>
        <time>2011-04-19T11:07:44Z</time>
      </trkpt>
      <trkpt lat="45.52724" lon="6.02223">
        <ele>864</ele>
        <time>2011-04-19T11:07:54Z</time>
      </trkpt>
      <trkpt lat="45.52722" lon="6.0223">
        <ele>865</ele>
        <time>2011-04-19T11:08:03Z</time>
      </trkpt>
      <trkpt lat="45.5272" lon="6.02237">
        <ele>866</ele>
        <time>2011-04-19T11:08:13Z</time>
      </trkpt>
      <trkpt lat="45.52717" lon="6.02246">
        <ele>867</ele>
        <time>2011-04-19T11:08:23Z</time>
      </trkpt>
      <trkpt lat="45.52713" lon="6.02254">
        <ele>869</ele>
        <time>2011-04-19T11:08:31Z</time>
      </trkpt>
      <trkpt lat="45.52708" lon="6.02266">
        <ele>869</ele>
        <time>2011-04-19T11:08:42Z</time>
      </trkpt>
      <trkpt lat="45.52703" lon="6.02278">
        <ele>871</ele>
        <time>2011-04-19T11:08:54Z</time>
      </trkpt>
      <trkpt lat="45.52699" lon="6.02293">
        <ele>871</ele>
        <time>2011-04-19T11:09:06Z</time>
      </trkpt>
      <trkpt lat="45.52697" lon="6.02305">
        <ele>872</ele>
        <time>2011-04-19T11:09:16Z</time>
      </trkpt>
      <trkpt lat="45.52699" lon="6.02319">
        <ele>873</ele>
        <time>2011-04-19T11:09:27Z</time>
      </trkpt>
      <trkpt lat="45.527" lon="6.02331">
        <ele>874</ele>
        <time>2011-04-19T11:09:37Z</time>
      </trkpt>
      <trkpt lat="45.52702" lon="6.0234">
        <ele>874</ele>
        <time>2011-04-19T11:09:46Z</time>
      </trkpt>
      <trkpt lat="45.52701" lon="6.0235">
        <ele>875</ele>
        <time>2011-04-19T11:09:56Z</time>
      </trkpt>
      <trkpt lat="45.52702" lon="6.02358">
        <ele>875</ele>
        <time>2011-04-19T11:10:02Z</time>
      </trkpt>
      <trkpt lat="45.52698" lon="6.02367">
        <ele>875</ele>
        <time>2011-04-19T11:10:11Z</time>
      </trkpt>
      <trkpt lat="45.52692" lon="6.02376">
        <ele>877</ele>
        <time>2011-04-19T11:10:21Z</time>
      </trkpt>
      <trkpt lat="45.52686" lon="6.0238">
        <ele>876</ele>
        <time>2011-04-19T11:10:28Z</time>
      </trkpt>
      <trkpt lat="45.52681" lon="6.02381">
        <ele>877</ele>
        <time>2011-04-19T11:10:35Z</time>
      </trkpt>
      <trkpt lat="45.52674" lon="6.02387">
        <ele>878</ele>
        <time>2011-04-19T11:10:45Z</time>
      </trkpt>
      <trkpt lat="45.52669" lon="6.02393">
        <ele>878</ele>
        <time>2011-04-19T11:10:53Z</time>
      </trkpt>
      <trkpt lat="45.52667" lon="6.02395">
        <ele>878</ele>
        <time>2011-04-19T11:10:56Z</time>
      </trkpt>
      <trkpt lat="45.5266" lon="6.02395">
        <ele>878</ele>
        <time>2011-04-19T11:11:06Z</time>
      </trkpt>
      <trkpt lat="45.52654" lon="6.02399">
        <ele>879</ele>
        <time>2011-04-19T11:11:15Z</time>
      </trkpt>
      <trkpt lat="45.52648" lon="6.02399">
        <ele>880</ele>
        <time>2011-04-19T11:11:22Z</time>
      </trkpt>
      <trkpt lat="45.52642" lon="6.02399">
        <ele>881</ele>
        <time>2011-04-19T11:11:29Z</time>
      </trkpt>
      <trkpt lat="45.52636" lon="6.02401">
        <ele>881</ele>
        <time>2011-04-19T11:11:38Z</time>
      </trkpt>
      <trkpt lat="45.52626" lon="6.02403">
        <ele>883</ele>
        <time>2011-04-19T11:11:49Z</time>
      </trkpt>
      <trkpt lat="45.52622" lon="6.02412">
        <ele>884</ele>
        <time>2011-04-19T11:11:59Z</time>
      </trkpt>
      <trkpt lat="45.52618" lon="6.02416">
        <ele>884</ele>
        <time>2011-04-19T11:12:06Z</time>
      </trkpt>
      <trkpt lat="45.52613" lon="6.0242">
        <ele>885</ele>
        <time>2011-04-19T11:12:13Z</time>
      </trkpt>
      <trkpt lat="45.52609" lon="6.02421">
        <ele>886</ele>
        <time>2011-04-19T11:12:19Z</time>
      </trkpt>
      <trkpt lat="45.52603" lon="6.02424">
        <ele>887</ele>
        <time>2011-04-19T11:12:27Z</time>
      </trkpt>
      <trkpt lat="45.52599" lon="6.02422">
        <ele>887</ele>
        <time>2011-04-19T11:12:34Z</time>
      </trkpt>
      <trkpt lat="45.52592" lon="6.02425">
        <ele>889</ele>
        <time>2011-04-19T11:12:45Z</time>
      </trkpt>
      <trkpt lat="45.52585" lon="6.02427">
        <ele>891</ele>
        <time>2011-04-19T11:12:55Z</time>
      </trkpt>
      <trkpt lat="45.52576" lon="6.02429">
        <ele>892</ele>
        <time>2011-04-19T11:13:06Z</time>
      </trkpt>
      <trkpt lat="45.52569" lon="6.02434">
        <ele>892</ele>
        <time>2011-04-19T11:13:16Z</time>
      </trkpt>
      <trkpt lat="45.5256" lon="6.02438">
        <ele>893</ele>
        <time>2011-04-19T11:13:28Z</time>
      </trkpt>
      <trkpt lat="45.52558" lon="6.02438">
        <ele>893</ele>
        <time>2011-04-19T11:13:30Z</time>
      </trkpt>
      <trkpt lat="45.52548" lon="6.02443">
        <ele>894</ele>
        <time>2011-04-19T11:13:42Z</time>
      </trkpt>
      <trkpt lat="45.52539" lon="6.02447">
        <ele>894</ele>
        <time>2011-04-19T11:13:52Z</time>
      </trkpt>
      <trkpt lat="45.52531" lon="6.02456">
        <ele>893</ele>
        <time>2011-04-19T11:14:03Z</time>
      </trkpt>
      <trkpt lat="45.52527" lon="6.02465">
        <ele>893</ele>
        <time>2011-04-19T11:14:14Z</time>
      </trkpt>
      <trkpt lat="45.52525" lon="6.02472">
        <ele>894</ele>
        <time>2011-04-19T11:14:22Z</time>
      </trkpt>
      <trkpt lat="45.52519" lon="6.02477">
        <ele>897</ele>
        <time>2011-04-19T11:14:32Z</time>
      </trkpt>
      <trkpt lat="45.5251" lon="6.02476">
        <ele>898</ele>
        <time>2011-04-19T11:14:44Z</time>
      </trkpt>
      <trkpt lat="45.52503" lon="6.02476">
        <ele>900</ele>
        <time>2011-04-19T11:14:55Z</time>
      </trkpt>
      <trkpt lat="45.52495" lon="6.02479">
        <ele>900</ele>
        <time>2011-04-19T11:15:05Z</time>
      </trkpt>
      <trkpt lat="45.52487" lon="6.02484">
        <ele>901</ele>
        <time>2011-04-19T11:15:15Z</time>
      </trkpt>
      <trkpt lat="45.52479" lon="6.02486">
        <ele>901</ele>
        <time>2011-04-19T11:15:24Z</time>
      </trkpt>
      <trkpt lat="45.52472" lon="6.02489">
        <ele>902</ele>
        <time>2011-04-19T11:15:33Z</time>
      </trkpt>
      <trkpt lat="45.52469" lon="6.02493">
        <ele>903</ele>
        <time>2011-04-19T11:15:40Z</time>
      </trkpt>
      <trkpt lat="45.52465" lon="6.02497">
        <ele>905</ele>
        <time>2011-04-19T11:15:46Z</time>
      </trkpt>
      <trkpt lat="45.52457" lon="6.02509">
        <ele>905</ele>
        <time>2011-04-19T11:15:57Z</time>
      </trkpt>
      <trkpt lat="45.52453" lon="6.02515">
        <ele>907</ele>
        <time>2011-04-19T11:16:05Z</time>
      </trkpt>
      <trkpt lat="45.52447" lon="6.02522">
        <ele>908</ele>
        <time>2011-04-19T11:16:14Z</time>
      </trkpt>
      <trkpt lat="45.52444" lon="6.02526">
        <ele>908</ele>
        <time>2011-04-19T11:16:19Z</time>
      </trkpt>
      <trkpt lat="45.5244" lon="6.02531">
        <ele>908</ele>
        <time>2011-04-19T11:16:26Z</time>
      </trkpt>
      <trkpt lat="45.52435" lon="6.02537">
        <ele>909</ele>
        <time>2011-04-19T11:16:34Z</time>
      </trkpt>
      <trkpt lat="45.5243" lon="6.02547">
        <ele>909</ele>
        <time>2011-04-19T11:16:43Z</time>
      </trkpt>
      <trkpt lat="45.52424" lon="6.02554">
        <ele>911</ele>
        <time>2011-04-19T11:16:53Z</time>
      </trkpt>
      <trkpt lat="45.52421" lon="6.02558">
        <ele>911</ele>
        <time>2011-04-19T11:17:01Z</time>
      </trkpt>
      <trkpt lat="45.52418" lon="6.02561">
        <ele>912</ele>
        <time>2011-04-19T11:17:07Z</time>
      </trkpt>
      <trkpt lat="45.52412" lon="6.02566">
        <ele>914</ele>
        <time>2011-04-19T11:17:17Z</time>
      </trkpt>
      <trkpt lat="45.52407" lon="6.02571">
        <ele>915</ele>
        <time>2011-04-19T11:17:25Z</time>
      </trkpt>
      <trkpt lat="45.524" lon="6.0258">
        <ele>916</ele>
        <time>2011-04-19T11:17:36Z</time>
      </trkpt>
      <trkpt lat="45.52394" lon="6.02591">
        <ele>916</ele>
        <time>2011-04-19T11:17:47Z</time>
      </trkpt>
      <trkpt lat="45.52388" lon="6.026">
        <ele>917</ele>
        <time>2011-04-19T11:17:58Z</time>
      </trkpt>
      <trkpt lat="45.52384" lon="6.02608">
        <ele>919</ele>
        <time>2011-04-19T11:18:07Z</time>
      </trkpt>
      <trkpt lat="45.52377" lon="6.02617">
        <ele>919</ele>
        <time>2011-04-19T11:18:18Z</time>
      </trkpt>
      <trkpt lat="45.52371" lon="6.02626">
        <ele>921</ele>
        <time>2011-04-19T11:18:30Z</time>
      </trkpt>
      <trkpt lat="45.52362" lon="6.0263">
        <ele>922</ele>
        <time>2011-04-19T11:18:42Z</time>
      </trkpt>
      <trkpt lat="45.52357" lon="6.02631">
        <ele>923</ele>
        <time>2011-04-19T11:18:51Z</time>
      </trkpt>
      <trkpt lat="45.52353" lon="6.02638">
        <ele>923</ele>
        <time>2011-04-19T11:19:00Z</time>
      </trkpt>
      <trkpt lat="45.52351" lon="6.02645">
        <ele>924</ele>
        <time>2011-04-19T11:19:10Z</time>
      </trkpt>
      <trkpt lat="45.52348" lon="6.02651">
        <ele>925</ele>
        <time>2011-04-19T11:19:18Z</time>
      </trkpt>
      <trkpt lat="45.52345" lon="6.02655">
        <ele>925</ele>
        <time>2011-04-19T11:19:23Z</time>
      </trkpt>
      <trkpt lat="45.52343" lon="6.02659">
        <ele>926</ele>
        <time>2011-04-19T11:19:29Z</time>
      </trkpt>
      <trkpt lat="45.52338" lon="6.02665">
        <ele>926</ele>
        <time>2011-04-19T11:19:36Z</time>
      </trkpt>
      <trkpt lat="45.52335" lon="6.02671">
        <ele>927</ele>
        <time>2011-04-19T11:19:42Z</time>
      </trkpt>
      <trkpt lat="45.52331" lon="6.02673">
        <ele>928</ele>
        <time>2011-04-19T11:19:49Z</time>
      </trkpt>
      <trkpt lat="45.52325" lon="6.02679">
        <ele>929</ele>
        <time>2011-04-19T11:19:58Z</time>
      </trkpt>
      <trkpt lat="45.52318" lon="6.02688">
        <ele>930</ele>
        <time>2011-04-19T11:20:08Z</time>
      </trkpt>
      <trkpt lat="45.52316" lon="6.02695">
        <ele>932</ele>
        <time>2011-04-19T11:20:17Z</time>
      </trkpt>
      <trkpt lat="45.52313" lon="6.02703">
        <ele>932</ele>
        <time>2011-04-19T11:20:25Z</time>
      </trkpt>
      <trkpt lat="45.52309" lon="6.02709">
        <ele>932</ele>
        <time>2011-04-19T11:20:31Z</time>
      </trkpt>
      <trkpt lat="45.52302" lon="6.02716">
        <ele>933</ele>
        <time>2011-04-19T11:20:41Z</time>
      </trkpt>
      <trkpt lat="45.52296" lon="6.0272">
        <ele>933</ele>
        <time>2011-04-19T11:20:49Z</time>
      </trkpt>
      <trkpt lat="45.5229" lon="6.02722">
        <ele>933</ele>
        <time>2011-04-19T11:20:58Z</time>
      </trkpt>
      <trkpt lat="45.52285" lon="6.02726">
        <ele>935</ele>
        <time>2011-04-19T11:21:07Z</time>
      </trkpt>
      <trkpt lat="45.52279" lon="6.02732">
        <ele>936</ele>
        <time>2011-04-19T11:21:17Z</time>
      </trkpt>
      <trkpt lat="45.52275" lon="6.02735">
        <ele>936</ele>
        <time>2011-04-19T11:21:23Z</time>
      </trkpt>
      <trkpt lat="45.5227" lon="6.02737">
        <ele>937</ele>
        <time>2011-04-19T11:21:32Z</time>
      </trkpt>
      <trkpt lat="45.52265" lon="6.02737">
        <ele>938</ele>
        <time>2011-04-19T11:21:39Z</time>
      </trkpt>
      <trkpt lat="45.52261" lon="6.02739">
        <ele>939</ele>
        <time>2011-04-19T11:21:47Z</time>
      </trkpt>
      <trkpt lat="45.52253" lon="6.02743">
        <ele>940</ele>
        <time>2011-04-19T11:21:57Z</time>
      </trkpt>
      <trkpt lat="45.52246" lon="6.02745">
        <ele>939</ele>
        <time>2011-04-19T11:22:07Z</time>
      </trkpt>
      <trkpt lat="45.52241" lon="6.02746">
        <ele>939</ele>
        <time>2011-04-19T11:22:16Z</time>
      </trkpt>
      <trkpt lat="45.52237" lon="6.02751">
        <ele>940</ele>
        <time>2011-04-19T11:22:23Z</time>
      </trkpt>
      <trkpt lat="45.52234" lon="6.02752">
        <ele>940</ele>
        <time>2011-04-19T11:22:31Z</time>
      </trkpt>
      <trkpt lat="45.52231" lon="6.02753">
        <ele>939</ele>
        <time>2011-04-19T11:22:37Z</time>
      </trkpt>
      <trkpt lat="45.52219" lon="6.02752">
        <ele>938</ele>
        <time>2011-04-19T11:22:48Z</time>
      </trkpt>
      <trkpt lat="45.52216" lon="6.02755">
        <ele>938</ele>
        <time>2011-04-19T11:22:56Z</time>
      </trkpt>
      <trkpt lat="45.52213" lon="6.0276">
        <ele>939</ele>
        <time>2011-04-19T11:23:03Z</time>
      </trkpt>
      <trkpt lat="45.52211" lon="6.02765">
        <ele>941</ele>
        <time>2011-04-19T11:23:10Z</time>
      </trkpt>
      <trkpt lat="45.52205" lon="6.02769">
        <ele>941</ele>
        <time>2011-04-19T11:23:20Z</time>
      </trkpt>
      <trkpt lat="45.52201" lon="6.02773">
        <ele>941</ele>
        <time>2011-04-19T11:23:29Z</time>
      </trkpt>
      <trkpt lat="45.52194" lon="6.02774">
        <ele>939</ele>
        <time>2011-04-19T11:23:39Z</time>
      </trkpt>
      <trkpt lat="45.52191" lon="6.02781">
        <ele>937</ele>
        <time>2011-04-19T11:23:48Z</time>
      </trkpt>
      <trkpt lat="45.52188" lon="6.02789">
        <ele>937</ele>
        <time>2011-04-19T11:23:58Z</time>
      </trkpt>
      <trkpt lat="45.52182" lon="6.02797">
        <ele>937</ele>
        <time>2011-04-19T11:24:07Z</time>
      </trkpt>
      <trkpt lat="45.5218" lon="6.028">
        <ele>937</ele>
        <time>2011-04-19T11:24:15Z</time>
      </trkpt>
      <trkpt lat="45.52176" lon="6.02804">
        <ele>937</ele>
        <time>2011-04-19T11:24:27Z</time>
      </trkpt>
      <trkpt lat="45.52166" lon="6.02809">
        <ele>937</ele>
        <time>2011-04-19T11:24:37Z</time>
      </trkpt>
      <trkpt lat="45.52159" lon="6.02814">
        <ele>935</ele>
        <time>2011-04-19T11:24:45Z</time>
      </trkpt>
      <trkpt lat="45.5215" lon="6.02821">
        <ele>932</ele>
        <time>2011-04-19T11:24:55Z</time>
      </trkpt>
      <trkpt lat="45.52143" lon="6.02824">
        <ele>933</ele>
        <time>2011-04-19T11:25:04Z</time>
      </trkpt>
      <trkpt lat="45.52139" lon="6.02825">
        <ele>933</ele>
        <time>2011-04-19T11:25:13Z</time>
      </trkpt>
      <trkpt lat="45.52133" lon="6.02825">
        <ele>935</ele>
        <time>2011-04-19T11:25:22Z</time>
      </trkpt>
      <trkpt lat="45.52132" lon="6.02829">
        <ele>936</ele>
        <time>2011-04-19T11:25:31Z</time>
      </trkpt>
      <trkpt lat="45.52131" lon="6.02831">
        <ele>937</ele>
        <time>2011-04-19T11:25:41Z</time>
      </trkpt>
      <trkpt lat="45.52125" lon="6.02836">
        <ele>939</ele>
        <time>2011-04-19T11:25:51Z</time>
      </trkpt>
      <trkpt lat="45.52122" lon="6.02842">
        <ele>940</ele>
        <time>2011-04-19T11:25:58Z</time>
      </trkpt>
      <trkpt lat="45.5212" lon="6.0285">
        <ele>943</ele>
        <time>2011-04-19T11:26:10Z</time>
      </trkpt>
      <trkpt lat="45.52118" lon="6.02857">
        <ele>944</ele>
        <time>2011-04-19T11:26:18Z</time>
      </trkpt>
      <trkpt lat="45.52118" lon="6.0286">
        <ele>945</ele>
        <time>2011-04-19T11:26:28Z</time>
      </trkpt>
      <trkpt lat="45.52119" lon="6.02863">
        <ele>947</ele>
        <time>2011-04-19T11:26:40Z</time>
      </trkpt>
      <trkpt lat="45.52122" lon="6.02862">
        <ele>948</ele>
        <time>2011-04-19T11:26:48Z</time>
      </trkpt>
      <trkpt lat="45.52125" lon="6.0286">
        <ele>949</ele>
        <time>2011-04-19T11:26:55Z</time>
      </trkpt>
      <trkpt lat="45.52128" lon="6.02859">
        <ele>951</ele>
        <time>2011-04-19T11:27:04Z</time>
      </trkpt>
      <trkpt lat="45.52129" lon="6.02863">
        <ele>952</ele>
        <time>2011-04-19T11:27:23Z</time>
      </trkpt>
      <trkpt lat="45.52128" lon="6.02866">
        <ele>954</ele>
        <time>2011-04-19T11:27:32Z</time>
      </trkpt>
      <trkpt lat="45.52126" lon="6.02873">
        <ele>955</ele>
        <time>2011-04-19T11:27:43Z</time>
      </trkpt>
      <trkpt lat="45.52122" lon="6.02877">
        <ele>957</ele>
        <time>2011-04-19T11:27:53Z</time>
      </trkpt>
      <trkpt lat="45.52119" lon="6.02879">
        <ele>959</ele>
        <time>2011-04-19T11:28:00Z</time>
      </trkpt>
      <trkpt lat="45.52114" lon="6.02884">
        <ele>960</ele>
        <time>2011-04-19T11:28:10Z</time>
      </trkpt>
      <trkpt lat="45.52111" lon="6.02889">
        <ele>962</ele>
        <time>2011-04-19T11:28:18Z</time>
      </trkpt>
      <trkpt lat="45.52108" lon="6.02892">
        <ele>962</ele>
        <time>2011-04-19T11:28:26Z</time>
      </trkpt>
      <trkpt lat="45.52104" lon="6.02897">
        <ele>964</ele>
        <time>2011-04-19T11:28:35Z</time>
      </trkpt>
      <trkpt lat="45.52101" lon="6.029">
        <ele>965</ele>
        <time>2011-04-19T11:28:41Z</time>
      </trkpt>
      <trkpt lat="45.52096" lon="6.02902">
        <ele>966</ele>
        <time>2011-04-19T11:28:50Z</time>
      </trkpt>
      <trkpt lat="45.52092" lon="6.02906">
        <ele>967</ele>
        <time>2011-04-19T11:28:59Z</time>
      </trkpt>
      <trkpt lat="45.52087" lon="6.0291">
        <ele>968</ele>
        <time>2011-04-19T11:29:06Z</time>
      </trkpt>
      <trkpt lat="45.52084" lon="6.02916">
        <ele>969</ele>
        <time>2011-04-19T11:29:14Z</time>
      </trkpt>
      <trkpt lat="45.52078" lon="6.02921">
        <ele>971</ele>
        <time>2011-04-19T11:29:24Z</time>
      </trkpt>
      <trkpt lat="45.52074" lon="6.02923">
        <ele>972</ele>
        <time>2011-04-19T11:29:32Z</time>
      </trkpt>
      <trkpt lat="45.52068" lon="6.02925">
        <ele>973</ele>
        <time>2011-04-19T11:29:41Z</time>
      </trkpt>
      <trkpt lat="45.52062" lon="6.02932">
        <ele>973</ele>
        <time>2011-04-19T11:29:51Z</time>
      </trkpt>
      <trkpt lat="45.52056" lon="6.02941">
        <ele>975</ele>
        <time>2011-04-19T11:30:02Z</time>
      </trkpt>
      <trkpt lat="45.52052" lon="6.02947">
        <ele>975</ele>
        <time>2011-04-19T11:30:09Z</time>
      </trkpt>
      <trkpt lat="45.52048" lon="6.02953">
        <ele>976</ele>
        <time>2011-04-19T11:30:18Z</time>
      </trkpt>
      <trkpt lat="45.52045" lon="6.02957">
        <ele>977</ele>
        <time>2011-04-19T11:30:24Z</time>
      </trkpt>
      <trkpt lat="45.52038" lon="6.02965">
        <ele>978</ele>
        <time>2011-04-19T11:30:36Z</time>
      </trkpt>
      <trkpt lat="45.52033" lon="6.0297">
        <ele>980</ele>
        <time>2011-04-19T11:30:46Z</time>
      </trkpt>
      <trkpt lat="45.52029" lon="6.02972">
        <ele>981</ele>
        <time>2011-04-19T11:30:54Z</time>
      </trkpt>
      <trkpt lat="45.52024" lon="6.02979">
        <ele>982</ele>
        <time>2011-04-19T11:31:03Z</time>
      </trkpt>
      <trkpt lat="45.52019" lon="6.02987">
        <ele>983</ele>
        <time>2011-04-19T11:31:12Z</time>
      </trkpt>
      <trkpt lat="45.52015" lon="6.02991">
        <ele>983</ele>
        <time>2011-04-19T11:31:20Z</time>
      </trkpt>
      <trkpt lat="45.52009" lon="6.03002">
        <ele>984</ele>
        <time>2011-04-19T11:31:30Z</time>
      </trkpt>
      <trkpt lat="45.52004" lon="6.03004">
        <ele>985</ele>
        <time>2011-04-19T11:31:37Z</time>
      </trkpt>
      <trkpt lat="45.52002" lon="6.03007">
        <ele>985</ele>
        <time>2011-04-19T11:31:44Z</time>
      </trkpt>
      <trkpt lat="45.51998" lon="6.03008">
        <ele>986</ele>
        <time>2011-04-19T11:31:53Z</time>
      </trkpt>
      <trkpt lat="45.51993" lon="6.03008">
        <ele>987</ele>
        <time>2011-04-19T11:32:01Z</time>
      </trkpt>
      <trkpt lat="45.51987" lon="6.03005">
        <ele>988</ele>
        <time>2011-04-19T11:32:10Z</time>
      </trkpt>
      <trkpt lat="45.51981" lon="6.03004">
        <ele>989</ele>
        <time>2011-04-19T11:32:18Z</time>
      </trkpt>
      <trkpt lat="45.51972" lon="6.03005">
        <ele>990</ele>
        <time>2011-04-19T11:32:28Z</time>
      </trkpt>
      <trkpt lat="45.51966" lon="6.03006">
        <ele>991</ele>
        <time>2011-04-19T11:32:36Z</time>
      </trkpt>
      <trkpt lat="45.51961" lon="6.03007">
        <ele>992</ele>
        <time>2011-04-19T11:32:43Z</time>
      </trkpt>
      <trkpt lat="45.51956" lon="6.03013">
        <ele>992</ele>
        <time>2011-04-19T11:32:52Z</time>
      </trkpt>
      <trkpt lat="45.51943" lon="6.03023">
        <ele>992</ele>
        <time>2011-04-19T11:38:33Z</time>
      </trkpt>
      <trkpt lat="45.51936" lon="6.03021">
        <ele>991</ele>
        <time>2011-04-19T11:38:41Z</time>
      </trkpt>
      <trkpt lat="45.51931" lon="6.03022">
        <ele>992</ele>
        <time>2011-04-19T11:38:48Z</time>
      </trkpt>
      <trkpt lat="45.51926" lon="6.03022">
        <ele>993</ele>
        <time>2011-04-19T11:38:55Z</time>
      </trkpt>
      <trkpt lat="45.51923" lon="6.03022">
        <ele>994</ele>
        <time>2011-04-19T11:39:01Z</time>
      </trkpt>
      <trkpt lat="45.5192" lon="6.03019">
        <ele>994</ele>
        <time>2011-04-19T11:39:08Z</time>
      </trkpt>
      <trkpt lat="45.51914" lon="6.0302">
        <ele>995</ele>
        <time>2011-04-19T11:39:18Z</time>
      </trkpt>
      <trkpt lat="45.51912" lon="6.03021">
        <ele>997</ele>
        <time>2011-04-19T11:39:27Z</time>
      </trkpt>
      <trkpt lat="45.51905" lon="6.0302">
        <ele>999</ele>
        <time>2011-04-19T11:39:45Z</time>
      </trkpt>
      <trkpt lat="45.51901" lon="6.0302">
        <ele>998</ele>
        <time>2011-04-19T11:39:55Z</time>
      </trkpt>
      <trkpt lat="45.51897" lon="6.03027">
        <ele>1000</ele>
        <time>2011-04-19T11:40:03Z</time>
      </trkpt>
      <trkpt lat="45.51894" lon="6.03033">
        <ele>1001</ele>
        <time>2011-04-19T11:40:12Z</time>
      </trkpt>
      <trkpt lat="45.51888" lon="6.0303">
        <ele>1002</ele>
        <time>2011-04-19T11:40:22Z</time>
      </trkpt>
      <trkpt lat="45.51886" lon="6.03028">
        <ele>1004</ele>
        <time>2011-04-19T11:40:37Z</time>
      </trkpt>
      <trkpt lat="45.51879" lon="6.03011">
        <ele>1007</ele>
        <time>2011-04-19T11:41:09Z</time>
      </trkpt>
      <trkpt lat="45.51871" lon="6.03013">
        <ele>1010</ele>
        <time>2011-04-19T11:41:29Z</time>
      </trkpt>
      <trkpt lat="45.51863" lon="6.03012">
        <ele>1013</ele>
        <time>2011-04-19T11:41:41Z</time>
      </trkpt>
      <trkpt lat="45.51859" lon="6.03023">
        <ele>1014</ele>
        <time>2011-04-19T11:41:50Z</time>
      </trkpt>
      <trkpt lat="45.51856" lon="6.03036">
        <ele>1016</ele>
        <time>2011-04-19T11:41:58Z</time>
      </trkpt>
      <trkpt lat="45.51852" lon="6.03036">
        <ele>1017</ele>
        <time>2011-04-19T11:42:05Z</time>
      </trkpt>
      <trkpt lat="45.51849" lon="6.03044">
        <ele>1019</ele>
        <time>2011-04-19T11:42:17Z</time>
      </trkpt>
      <trkpt lat="45.51847" lon="6.03049">
        <ele>1021</ele>
        <time>2011-04-19T11:42:26Z</time>
      </trkpt>
      <trkpt lat="45.51845" lon="6.03051">
        <ele>1021</ele>
        <time>2011-04-19T11:42:33Z</time>
      </trkpt>
      <trkpt lat="45.51843" lon="6.03049">
        <ele>1023</ele>
        <time>2011-04-19T11:42:43Z</time>
      </trkpt>
      <trkpt lat="45.5184" lon="6.03053">
        <ele>1027</ele>
        <time>2011-04-19T11:42:58Z</time>
      </trkpt>
      <trkpt lat="45.51837" lon="6.03058">
        <ele>1029</ele>
        <time>2011-04-19T11:43:08Z</time>
      </trkpt>
      <trkpt lat="45.51834" lon="6.03057">
        <ele>1029</ele>
        <time>2011-04-19T11:43:14Z</time>
      </trkpt>
      <trkpt lat="45.51828" lon="6.03055">
        <ele>1030</ele>
        <time>2011-04-19T11:43:24Z</time>
      </trkpt>
      <trkpt lat="45.51826" lon="6.03057">
        <ele>1032</ele>
        <time>2011-04-19T11:43:34Z</time>
      </trkpt>
      <trkpt lat="45.51822" lon="6.03062">
        <ele>1035</ele>
        <time>2011-04-19T11:43:45Z</time>
      </trkpt>
      <trkpt lat="45.51817" lon="6.03066">
        <ele>1038</ele>
        <time>2011-04-19T11:44:04Z</time>
      </trkpt>
      <trkpt lat="45.51814" lon="6.03072">
        <ele>1040</ele>
        <time>2011-04-19T11:44:13Z</time>
      </trkpt>
      <trkpt lat="45.51813" lon="6.03075">
        <ele>1042</ele>
        <time>2011-04-19T11:44:22Z</time>
      </trkpt>
      <trkpt lat="45.51811" lon="6.03076">
        <ele>1044</ele>
        <time>2011-04-19T11:44:32Z</time>
      </trkpt>
      <trkpt lat="45.51809" lon="6.03074">
        <ele>1044</ele>
        <time>2011-04-19T11:44:40Z</time>
      </trkpt>
      <trkpt lat="45.51806" lon="6.03075">
        <ele>1046</ele>
        <time>2011-04-19T11:44:48Z</time>
      </trkpt>
      <trkpt lat="45.51802" lon="6.03075">
        <ele>1048</ele>
        <time>2011-04-19T11:44:59Z</time>
      </trkpt>
      <trkpt lat="45.51799" lon="6.03076">
        <ele>1050</ele>
        <time>2011-04-19T11:45:12Z</time>
      </trkpt>
      <trkpt lat="45.51794" lon="6.03073">
        <ele>1052</ele>
        <time>2011-04-19T11:45:21Z</time>
      </trkpt>
      <trkpt lat="45.51788" lon="6.03068">
        <ele>1053</ele>
        <time>2011-04-19T11:45:31Z</time>
      </trkpt>
      <trkpt lat="45.51784" lon="6.0307">
        <ele>1054</ele>
        <time>2011-04-19T11:45:38Z</time>
      </trkpt>
      <trkpt lat="45.5178" lon="6.03067">
        <ele>1055</ele>
        <time>2011-04-19T11:45:45Z</time>
      </trkpt>
      <trkpt lat="45.51776" lon="6.03063">
        <ele>1055</ele>
        <time>2011-04-19T11:45:53Z</time>
      </trkpt>
      <trkpt lat="45.51767" lon="6.03059">
        <ele>1060</ele>
        <time>2011-04-19T11:46:16Z</time>
      </trkpt>
      <trkpt lat="45.51766" lon="6.03066">
        <ele>1061</ele>
        <time>2011-04-19T11:46:25Z</time>
      </trkpt>
      <trkpt lat="45.51766" lon="6.03074">
        <ele>1064</ele>
        <time>2011-04-19T11:46:37Z</time>
      </trkpt>
      <trkpt lat="45.51763" lon="6.03071">
        <ele>1066</ele>
        <time>2011-04-19T11:46:45Z</time>
      </trkpt>
      <trkpt lat="45.5176" lon="6.0307">
        <ele>1067</ele>
        <time>2011-04-19T11:46:53Z</time>
      </trkpt>
      <trkpt lat="45.51756" lon="6.03059">
        <ele>1069</ele>
        <time>2011-04-19T11:47:08Z</time>
      </trkpt>
      <trkpt lat="45.51753" lon="6.03064">
        <ele>1071</ele>
        <time>2011-04-19T11:47:17Z</time>
      </trkpt>
      <trkpt lat="45.5175" lon="6.0307">
        <ele>1072</ele>
        <time>2011-04-19T11:47:25Z</time>
      </trkpt>
      <trkpt lat="45.51746" lon="6.03069">
        <ele>1073</ele>
        <time>2011-04-19T11:47:32Z</time>
      </trkpt>
      <trkpt lat="45.51744" lon="6.03071">
        <ele>1075</ele>
        <time>2011-04-19T11:47:39Z</time>
      </trkpt>
      <trkpt lat="45.51748" lon="6.03077">
        <ele>1077</ele>
        <time>2011-04-19T11:47:58Z</time>
      </trkpt>
      <trkpt lat="45.51751" lon="6.03081">
        <ele>1078</ele>
        <time>2011-04-19T11:48:08Z</time>
      </trkpt>
      <trkpt lat="45.51757" lon="6.03083">
        <ele>1078</ele>
        <time>2011-04-19T11:48:18Z</time>
      </trkpt>
      <trkpt lat="45.5176" lon="6.03083">
        <ele>1079</ele>
        <time>2011-04-19T11:48:27Z</time>
      </trkpt>
      <trkpt lat="45.51762" lon="6.03093">
        <ele>1078</ele>
        <time>2011-04-19T11:48:42Z</time>
      </trkpt>
      <trkpt lat="45.51763" lon="6.03096">
        <ele>1079</ele>
        <time>2011-04-19T11:48:53Z</time>
      </trkpt>
      <trkpt lat="45.51766" lon="6.03099">
        <ele>1079</ele>
        <time>2011-04-19T11:49:10Z</time>
      </trkpt>
      <trkpt lat="45.51767" lon="6.03096">
        <ele>1079</ele>
        <time>2011-04-19T11:49:21Z</time>
      </trkpt>
      <trkpt lat="45.51767" lon="6.0309">
        <ele>1081</ele>
        <time>2011-04-19T11:50:10Z</time>
      </trkpt>
      <trkpt lat="45.51769" lon="6.03085">
        <ele>1083</ele>
        <time>2011-04-19T11:50:27Z</time>
      </trkpt>
      <trkpt lat="45.51764" lon="6.03077">
        <ele>1088</ele>
        <time>2011-04-19T11:50:45Z</time>
      </trkpt>
      <trkpt lat="45.51773" lon="6.03093">
        <ele>1091</ele>
        <time>2011-04-19T11:50:59Z</time>
      </trkpt>
      <trkpt lat="45.51779" lon="6.03097">
        <ele>1093</ele>
        <time>2011-04-19T11:51:06Z</time>
      </trkpt>
      <trkpt lat="45.51781" lon="6.03102">
        <ele>1093</ele>
        <time>2011-04-19T11:51:13Z</time>
      </trkpt>
      <trkpt lat="45.51779" lon="6.03104">
        <ele>1095</ele>
        <time>2011-04-19T11:51:20Z</time>
      </trkpt>
      <trkpt lat="45.51776" lon="6.03104">
        <ele>1096</ele>
        <time>2011-04-19T11:51:30Z</time>
      </trkpt>
      <trkpt lat="45.51774" lon="6.03109">
        <ele>1098</ele>
        <time>2011-04-19T11:57:29Z</time>
      </trkpt>
      <trkpt lat="45.51771" lon="6.03109">
        <ele>1099</ele>
        <time>2011-04-19T11:57:39Z</time>
      </trkpt>
      <trkpt lat="45.51769" lon="6.03111">
        <ele>1100</ele>
        <time>2011-04-19T11:57:47Z</time>
      </trkpt>
      <trkpt lat="45.51767" lon="6.03113">
        <ele>1102</ele>
        <time>2011-04-19T11:57:56Z</time>
      </trkpt>
      <trkpt lat="45.51763" lon="6.03116">
        <ele>1105</ele>
        <time>2011-04-19T11:58:08Z</time>
      </trkpt>
      <trkpt lat="45.51759" lon="6.03117">
        <ele>1107</ele>
        <time>2011-04-19T11:58:18Z</time>
      </trkpt>
      <trkpt lat="45.51753" lon="6.03116">
        <ele>1108</ele>
        <time>2011-04-19T11:58:29Z</time>
      </trkpt>
      <trkpt lat="45.51749" lon="6.03121">
        <ele>1110</ele>
        <time>2011-04-19T11:58:39Z</time>
      </trkpt>
      <trkpt lat="45.51743" lon="6.03127">
        <ele>1110</ele>
        <time>2011-04-19T11:58:50Z</time>
      </trkpt>
      <trkpt lat="45.51737" lon="6.03132">
        <ele>1111</ele>
        <time>2011-04-19T11:59:01Z</time>
      </trkpt>
      <trkpt lat="45.5173" lon="6.03135">
        <ele>1113</ele>
        <time>2011-04-19T11:59:11Z</time>
      </trkpt>
      <trkpt lat="45.51728" lon="6.0314">
        <ele>1115</ele>
        <time>2011-04-19T11:59:20Z</time>
      </trkpt>
      <trkpt lat="45.51722" lon="6.0314">
        <ele>1116</ele>
        <time>2011-04-19T11:59:30Z</time>
      </trkpt>
      <trkpt lat="45.51718" lon="6.03145">
        <ele>1117</ele>
        <time>2011-04-19T11:59:38Z</time>
      </trkpt>
      <trkpt lat="45.51714" lon="6.03143">
        <ele>1119</ele>
        <time>2011-04-19T11:59:47Z</time>
      </trkpt>
      <trkpt lat="45.51709" lon="6.03141">
        <ele>1120</ele>
        <time>2011-04-19T11:59:55Z</time>
      </trkpt>
      <trkpt lat="45.51704" lon="6.03144">
        <ele>1120</ele>
        <time>2011-04-19T12:00:03Z</time>
      </trkpt>
      <trkpt lat="45.51701" lon="6.03142">
        <ele>1122</ele>
        <time>2011-04-19T12:00:11Z</time>
      </trkpt>
      <trkpt lat="45.51695" lon="6.03143">
        <ele>1124</ele>
        <time>2011-04-19T12:00:22Z</time>
      </trkpt>
      <trkpt lat="45.5169" lon="6.03147">
        <ele>1125</ele>
        <time>2011-04-19T12:00:31Z</time>
      </trkpt>
      <trkpt lat="45.51685" lon="6.03154">
        <ele>1125</ele>
        <time>2011-04-19T12:00:40Z</time>
      </trkpt>
      <trkpt lat="45.51679" lon="6.03166">
        <ele>1126</ele>
        <time>2011-04-19T12:00:53Z</time>
      </trkpt>
      <trkpt lat="45.51675" lon="6.03176">
        <ele>1127</ele>
        <time>2011-04-19T12:01:03Z</time>
      </trkpt>
      <trkpt lat="45.51673" lon="6.03186">
        <ele>1127</ele>
        <time>2011-04-19T12:01:12Z</time>
      </trkpt>
      <trkpt lat="45.51672" lon="6.032">
        <ele>1127</ele>
        <time>2011-04-19T12:01:23Z</time>
      </trkpt>
      <trkpt lat="45.5167" lon="6.03214">
        <ele>1126</ele>
        <time>2011-04-19T12:01:35Z</time>
      </trkpt>
      <trkpt lat="45.51665" lon="6.03219">
        <ele>1127</ele>
        <time>2011-04-19T12:01:44Z</time>
      </trkpt>
      <trkpt lat="45.5166" lon="6.03229">
        <ele>1128</ele>
        <time>2011-04-19T12:01:54Z</time>
      </trkpt>
      <trkpt lat="45.51655" lon="6.03242">
        <ele>1128</ele>
        <time>2011-04-19T12:02:05Z</time>
      </trkpt>
      <trkpt lat="45.51648" lon="6.03253">
        <ele>1128</ele>
        <time>2011-04-19T12:02:16Z</time>
      </trkpt>
      <trkpt lat="45.51647" lon="6.03255">
        <ele>1128</ele>
        <time>2011-04-19T12:02:18Z</time>
      </trkpt>
      <trkpt lat="45.51641" lon="6.03264">
        <ele>1129</ele>
        <time>2011-04-19T12:02:29Z</time>
      </trkpt>
      <trkpt lat="45.51636" lon="6.03261">
        <ele>1129</ele>
        <time>2011-04-19T12:02:37Z</time>
      </trkpt>
      <trkpt lat="45.51633" lon="6.03263">
        <ele>1131</ele>
        <time>2011-04-19T12:02:46Z</time>
      </trkpt>
      <trkpt lat="45.51633" lon="6.0327">
        <ele>1131</ele>
        <time>2011-04-19T12:02:53Z</time>
      </trkpt>
      <trkpt lat="45.51631" lon="6.03276">
        <ele>1131</ele>
        <time>2011-04-19T12:03:01Z</time>
      </trkpt>
      <trkpt lat="45.5163" lon="6.0328">
        <ele>1131</ele>
        <time>2011-04-19T12:03:08Z</time>
      </trkpt>
      <trkpt lat="45.51628" lon="6.03287">
        <ele>1130</ele>
        <time>2011-04-19T12:03:15Z</time>
      </trkpt>
      <trkpt lat="45.51624" lon="6.03291">
        <ele>1129</ele>
        <time>2011-04-19T12:03:22Z</time>
      </trkpt>
      <trkpt lat="45.51618" lon="6.03297">
        <ele>1128</ele>
        <time>2011-04-19T12:03:33Z</time>
      </trkpt>
      <trkpt lat="45.51616" lon="6.03302">
        <ele>1129</ele>
        <time>2011-04-19T12:03:40Z</time>
      </trkpt>
      <trkpt lat="45.51613" lon="6.03306">
        <ele>1131</ele>
        <time>2011-04-19T12:03:47Z</time>
      </trkpt>
      <trkpt lat="45.51611" lon="6.03313">
        <ele>1130</ele>
        <time>2011-04-19T12:03:55Z</time>
      </trkpt>
      <trkpt lat="45.51611" lon="6.03317">
        <ele>1129</ele>
        <time>2011-04-19T12:04:00Z</time>
      </trkpt>
      <trkpt lat="45.51604" lon="6.03322">
        <ele>1129</ele>
        <time>2011-04-19T12:04:11Z</time>
      </trkpt>
      <trkpt lat="45.51597" lon="6.03326">
        <ele>1130</ele>
        <time>2011-04-19T12:04:21Z</time>
      </trkpt>
      <trkpt lat="45.51591" lon="6.03327">
        <ele>1133</ele>
        <time>2011-04-19T12:04:32Z</time>
      </trkpt>
      <trkpt lat="45.51586" lon="6.0333">
        <ele>1134</ele>
        <time>2011-04-19T12:04:40Z</time>
      </trkpt>
      <trkpt lat="45.51578" lon="6.03334">
        <ele>1134</ele>
        <time>2011-04-19T12:04:50Z</time>
      </trkpt>
      <trkpt lat="45.51571" lon="6.03335">
        <ele>1133</ele>
        <time>2011-04-19T12:04:59Z</time>
      </trkpt>
      <trkpt lat="45.51565" lon="6.03339">
        <ele>1135</ele>
        <time>2011-04-19T12:05:09Z</time>
      </trkpt>
      <trkpt lat="45.51562" lon="6.03344">
        <ele>1137</ele>
        <time>2011-04-19T12:05:19Z</time>
      </trkpt>
      <trkpt lat="45.51558" lon="6.03353">
        <ele>1139</ele>
        <time>2011-04-19T12:05:29Z</time>
      </trkpt>
      <trkpt lat="45.51552" lon="6.03357">
        <ele>1140</ele>
        <time>2011-04-19T12:05:39Z</time>
      </trkpt>
      <trkpt lat="45.51546" lon="6.03361">
        <ele>1142</ele>
        <time>2011-04-19T12:05:50Z</time>
      </trkpt>
      <trkpt lat="45.51539" lon="6.03366">
        <ele>1143</ele>
        <time>2011-04-19T12:06:00Z</time>
      </trkpt>
      <trkpt lat="45.51532" lon="6.03365">
        <ele>1144</ele>
        <time>2011-04-19T12:06:11Z</time>
      </trkpt>
      <trkpt lat="45.51533" lon="6.03362">
        <ele>1145</ele>
        <time>2011-04-19T12:06:21Z</time>
      </trkpt>
      <trkpt lat="45.51532" lon="6.03365">
        <ele>1145</ele>
        <time>2011-04-19T12:06:38Z</time>
      </trkpt>
      <trkpt lat="45.51531" lon="6.03367">
        <ele>1145</ele>
        <time>2011-04-19T12:06:47Z</time>
      </trkpt>
      <trkpt lat="45.51533" lon="6.03369">
        <ele>1144</ele>
        <time>2011-04-19T12:06:55Z</time>
      </trkpt>
      <trkpt lat="45.51532" lon="6.03374">
        <ele>1143</ele>
        <time>2011-04-19T12:10:04Z</time>
      </trkpt>
      <trkpt lat="45.51529" lon="6.03378">
        <ele>1143</ele>
        <time>2011-04-19T12:10:15Z</time>
      </trkpt>
      <trkpt lat="45.51528" lon="6.03385">
        <ele>1143</ele>
        <time>2011-04-19T12:10:32Z</time>
      </trkpt>
      <trkpt lat="45.51524" lon="6.03392">
        <ele>1143</ele>
        <time>2011-04-19T12:10:42Z</time>
      </trkpt>
      <trkpt lat="45.51521" lon="6.03399">
        <ele>1144</ele>
        <time>2011-04-19T12:10:51Z</time>
      </trkpt>
      <trkpt lat="45.5152" lon="6.03408">
        <ele>1144</ele>
        <time>2011-04-19T12:11:00Z</time>
      </trkpt>
      <trkpt lat="45.51524" lon="6.03411">
        <ele>1144</ele>
        <time>2011-04-19T12:11:09Z</time>
      </trkpt>
      <trkpt lat="45.51527" lon="6.03413">
        <ele>1143</ele>
        <time>2011-04-19T12:11:16Z</time>
      </trkpt>
      <trkpt lat="45.51529" lon="6.03413">
        <ele>1142</ele>
        <time>2011-04-19T12:11:24Z</time>
      </trkpt>
      <trkpt lat="45.51531" lon="6.03416">
        <ele>1141</ele>
        <time>2011-04-19T12:11:30Z</time>
      </trkpt>
      <trkpt lat="45.51533" lon="6.03421">
        <ele>1140</ele>
        <time>2011-04-19T12:11:38Z</time>
      </trkpt>
      <trkpt lat="45.51536" lon="6.03422">
        <ele>1138</ele>
        <time>2011-04-19T12:11:43Z</time>
      </trkpt>
      <trkpt lat="45.51536" lon="6.03427">
        <ele>1136</ele>
        <time>2011-04-19T12:11:50Z</time>
      </trkpt>
      <trkpt lat="45.51534" lon="6.03435">
        <ele>1134</ele>
        <time>2011-04-19T12:11:59Z</time>
      </trkpt>
      <trkpt lat="45.51533" lon="6.03439">
        <ele>1131</ele>
        <time>2011-04-19T12:12:06Z</time>
      </trkpt>
      <trkpt lat="45.51537" lon="6.03439">
        <ele>1129</ele>
        <time>2011-04-19T12:12:14Z</time>
      </trkpt>
      <trkpt lat="45.51537" lon="6.03445">
        <ele>1126</ele>
        <time>2011-04-19T12:12:20Z</time>
      </trkpt>
      <trkpt lat="45.5154" lon="6.03445">
        <ele>1126</ele>
        <time>2011-04-19T12:12:30Z</time>
      </trkpt>
      <trkpt lat="45.51541" lon="6.03446">
        <ele>1125</ele>
        <time>2011-04-19T12:12:33Z</time>
      </trkpt>
      <trkpt lat="45.51545" lon="6.0345">
        <ele>1122</ele>
        <time>2011-04-19T12:12:42Z</time>
      </trkpt>
      <trkpt lat="45.51543" lon="6.03454">
        <ele>1121</ele>
        <time>2011-04-19T12:12:49Z</time>
      </trkpt>
      <trkpt lat="45.5154" lon="6.03459">
        <ele>1120</ele>
        <time>2011-04-19T12:12:57Z</time>
      </trkpt>
      <trkpt lat="45.51546" lon="6.03466">
        <ele>1118</ele>
        <time>2011-04-19T12:13:16Z</time>
      </trkpt>
      <trkpt lat="45.51546" lon="6.03469">
        <ele>1116</ele>
        <time>2011-04-19T12:13:19Z</time>
      </trkpt>
      <trkpt lat="45.51551" lon="6.03471">
        <ele>1117</ele>
        <time>2011-04-19T12:13:24Z</time>
      </trkpt>
      <trkpt lat="45.51553" lon="6.0347">
        <ele>1118</ele>
        <time>2011-04-19T12:13:26Z</time>
      </trkpt>
      <trkpt lat="45.51555" lon="6.03469">
        <ele>1125</ele>
        <time>2011-04-19T12:13:28Z</time>
      </trkpt>
      <trkpt lat="45.51558" lon="6.03467">
        <ele>1119</ele>
        <time>2011-04-19T12:13:31Z</time>
      </trkpt>
      <trkpt lat="45.51566" lon="6.03466">
        <ele>1116</ele>
        <time>2011-04-19T12:13:40Z</time>
      </trkpt>
      <trkpt lat="45.51568" lon="6.03466">
        <ele>1114</ele>
        <time>2011-04-19T12:13:43Z</time>
      </trkpt>
      <trkpt lat="45.51575" lon="6.03468">
        <ele>1113</ele>
        <time>2011-04-19T12:13:51Z</time>
      </trkpt>
      <trkpt lat="45.5158" lon="6.03471">
        <ele>1112</ele>
        <time>2011-04-19T12:14:00Z</time>
      </trkpt>
      <trkpt lat="45.51579" lon="6.03477">
        <ele>1111</ele>
        <time>2011-04-19T12:14:08Z</time>
      </trkpt>
      <trkpt lat="45.51582" lon="6.03476">
        <ele>1111</ele>
        <time>2011-04-19T12:14:17Z</time>
      </trkpt>
      <trkpt lat="45.51586" lon="6.03479">
        <ele>1110</ele>
        <time>2011-04-19T12:14:33Z</time>
      </trkpt>
      <trkpt lat="45.51587" lon="6.03486">
        <ele>1110</ele>
        <time>2011-04-19T12:14:41Z</time>
      </trkpt>
      <trkpt lat="45.51584" lon="6.03494">
        <ele>1110</ele>
        <time>2011-04-19T12:14:50Z</time>
      </trkpt>
      <trkpt lat="45.51584" lon="6.03496">
        <ele>1109</ele>
        <time>2011-04-19T12:14:59Z</time>
      </trkpt>
      <trkpt lat="45.51585" lon="6.03506">
        <ele>1109</ele>
        <time>2011-04-19T12:15:17Z</time>
      </trkpt>
      <trkpt lat="45.51585" lon="6.03519">
        <ele>1109</ele>
        <time>2011-04-19T12:15:27Z</time>
      </trkpt>
      <trkpt lat="45.51585" lon="6.03526">
        <ele>1109</ele>
        <time>2011-04-19T12:15:34Z</time>
      </trkpt>
      <trkpt lat="45.51586" lon="6.03535">
        <ele>1110</ele>
        <time>2011-04-19T12:15:41Z</time>
      </trkpt>
      <trkpt lat="45.51587" lon="6.03544">
        <ele>1111</ele>
        <time>2011-04-19T12:15:48Z</time>
      </trkpt>
      <trkpt lat="45.5159" lon="6.03555">
        <ele>1114</ele>
        <time>2011-04-19T12:15:54Z</time>
      </trkpt>
      <trkpt lat="45.5159" lon="6.03559">
        <ele>1113</ele>
        <time>2011-04-19T12:15:56Z</time>
      </trkpt>
      <trkpt lat="45.51589" lon="6.03573">
        <ele>1115</ele>
        <time>2011-04-19T12:16:05Z</time>
      </trkpt>
      <trkpt lat="45.51588" lon="6.0358">
        <ele>1116</ele>
        <time>2011-04-19T12:16:10Z</time>
      </trkpt>
      <trkpt lat="45.51585" lon="6.03587">
        <ele>1116</ele>
        <time>2011-04-19T12:16:15Z</time>
      </trkpt>
      <trkpt lat="45.51585" lon="6.03599">
        <ele>1119</ele>
        <time>2011-04-19T12:16:25Z</time>
      </trkpt>
      <trkpt lat="45.51584" lon="6.03614">
        <ele>1121</ele>
        <time>2011-04-19T12:16:36Z</time>
      </trkpt>
      <trkpt lat="45.51581" lon="6.03637">
        <ele>1120</ele>
        <time>2011-04-19T12:16:49Z</time>
      </trkpt>
      <trkpt lat="45.5158" lon="6.03654">
        <ele>1119</ele>
        <time>2011-04-19T12:16:59Z</time>
      </trkpt>
      <trkpt lat="45.51577" lon="6.03664">
        <ele>1118</ele>
        <time>2011-04-19T12:17:05Z</time>
      </trkpt>
      <trkpt lat="45.51576" lon="6.03677">
        <ele>1116</ele>
        <time>2011-04-19T12:17:13Z</time>
      </trkpt>
      <trkpt lat="45.51575" lon="6.03688">
        <ele>1115</ele>
        <time>2011-04-19T12:17:19Z</time>
      </trkpt>
      <trkpt lat="45.51571" lon="6.03695">
        <ele>1114</ele>
        <time>2011-04-19T12:17:24Z</time>
      </trkpt>
      <trkpt lat="45.51567" lon="6.03705">
        <ele>1113</ele>
        <time>2011-04-19T12:17:33Z</time>
      </trkpt>
      <trkpt lat="45.51568" lon="6.03708">
        <ele>1113</ele>
        <time>2011-04-19T12:18:01Z</time>
      </trkpt>
      <trkpt lat="45.51566" lon="6.03729">
        <ele>1113</ele>
        <time>2011-04-19T12:18:13Z</time>
      </trkpt>
      <trkpt lat="45.51566" lon="6.03745">
        <ele>1114</ele>
        <time>2011-04-19T12:18:23Z</time>
      </trkpt>
      <trkpt lat="45.51567" lon="6.03754">
        <ele>1116</ele>
        <time>2011-04-19T12:18:32Z</time>
      </trkpt>
      <trkpt lat="45.51565" lon="6.03763">
        <ele>1119</ele>
        <time>2011-04-19T12:18:40Z</time>
      </trkpt>
      <trkpt lat="45.51562" lon="6.03769">
        <ele>1119</ele>
        <time>2011-04-19T12:18:45Z</time>
      </trkpt>
      <trkpt lat="45.51553" lon="6.03782">
        <ele>1121</ele>
        <time>2011-04-19T12:18:55Z</time>
      </trkpt>
      <trkpt lat="45.51545" lon="6.03793">
        <ele>1122</ele>
        <time>2011-04-19T12:19:04Z</time>
      </trkpt>
      <trkpt lat="45.51541" lon="6.03801">
        <ele>1122</ele>
        <time>2011-04-19T12:19:10Z</time>
      </trkpt>
      <trkpt lat="45.51536" lon="6.0382">
        <ele>1124</ele>
        <time>2011-04-19T12:19:22Z</time>
      </trkpt>
      <trkpt lat="45.51536" lon="6.03837">
        <ele>1123</ele>
        <time>2011-04-19T12:19:33Z</time>
      </trkpt>
      <trkpt lat="45.51535" lon="6.03841">
        <ele>1122</ele>
        <time>2011-04-19T12:19:35Z</time>
      </trkpt>
      <trkpt lat="45.51538" lon="6.03858">
        <ele>1122</ele>
        <time>2011-04-19T12:19:45Z</time>
      </trkpt>
      <trkpt lat="45.5154" lon="6.03872">
        <ele>1122</ele>
        <time>2011-04-19T12:19:53Z</time>
      </trkpt>
      <trkpt lat="45.51538" lon="6.03887">
        <ele>1120</ele>
        <time>2011-04-19T12:20:03Z</time>
      </trkpt>
      <trkpt lat="45.51545" lon="6.03904">
        <ele>1119</ele>
        <time>2011-04-19T12:20:13Z</time>
      </trkpt>
      <trkpt lat="45.5155" lon="6.03912">
        <ele>1118</ele>
        <time>2011-04-19T12:20:18Z</time>
      </trkpt>
      <trkpt lat="45.51553" lon="6.03922">
        <ele>1117</ele>
        <time>2011-04-19T12:20:27Z</time>
      </trkpt>
      <trkpt lat="45.51559" lon="6.03935">
        <ele>1114</ele>
        <time>2011-04-19T12:20:37Z</time>
      </trkpt>
      <trkpt lat="45.51564" lon="6.0395">
        <ele>1113</ele>
        <time>2011-04-19T12:20:46Z</time>
      </trkpt>
      <trkpt lat="45.51567" lon="6.03958">
        <ele>1112</ele>
        <time>2011-04-19T12:20:53Z</time>
      </trkpt>
      <trkpt lat="45.51571" lon="6.03964">
        <ele>1112</ele>
        <time>2011-04-19T12:21:01Z</time>
      </trkpt>
      <trkpt lat="45.51573" lon="6.03968">
        <ele>1112</ele>
        <time>2011-04-19T12:21:11Z</time>
      </trkpt>
      <trkpt lat="45.51573" lon="6.0397">
        <ele>1113</ele>
        <time>2011-04-19T12:21:21Z</time>
      </trkpt>
      <trkpt lat="45.51575" lon="6.03982">
        <ele>1113</ele>
        <time>2011-04-19T12:21:38Z</time>
      </trkpt>
      <trkpt lat="45.51578" lon="6.03995">
        <ele>1112</ele>
        <time>2011-04-19T12:21:46Z</time>
      </trkpt>
      <trkpt lat="45.51578" lon="6.04011">
        <ele>1112</ele>
        <time>2011-04-19T12:21:54Z</time>
      </trkpt>
      <trkpt lat="45.51575" lon="6.04028">
        <ele>1113</ele>
        <time>2011-04-19T12:22:03Z</time>
      </trkpt>
      <trkpt lat="45.51574" lon="6.04033">
        <ele>1113</ele>
        <time>2011-04-19T12:22:07Z</time>
      </trkpt>
      <trkpt lat="45.51568" lon="6.04044">
        <ele>1116</ele>
        <time>2011-04-19T12:22:16Z</time>
      </trkpt>
      <trkpt lat="45.51568" lon="6.04048">
        <ele>1117</ele>
        <time>2011-04-19T12:22:24Z</time>
      </trkpt>
      <trkpt lat="45.51567" lon="6.04053">
        <ele>1117</ele>
        <time>2011-04-19T12:22:31Z</time>
      </trkpt>
      <trkpt lat="45.51568" lon="6.04061">
        <ele>1119</ele>
        <time>2011-04-19T12:22:38Z</time>
      </trkpt>
      <trkpt lat="45.51569" lon="6.04068">
        <ele>1121</ele>
        <time>2011-04-19T12:22:46Z</time>
      </trkpt>
      <trkpt lat="45.51569" lon="6.04076">
        <ele>1124</ele>
        <time>2011-04-19T12:22:56Z</time>
      </trkpt>
      <trkpt lat="45.51569" lon="6.04083">
        <ele>1126</ele>
        <time>2011-04-19T12:23:03Z</time>
      </trkpt>
      <trkpt lat="45.51569" lon="6.04094">
        <ele>1126</ele>
        <time>2011-04-19T12:23:11Z</time>
      </trkpt>
      <trkpt lat="45.51566" lon="6.04104">
        <ele>1127</ele>
        <time>2011-04-19T12:23:19Z</time>
      </trkpt>
      <trkpt lat="45.51563" lon="6.04113">
        <ele>1128</ele>
        <time>2011-04-19T12:23:26Z</time>
      </trkpt>
      <trkpt lat="45.5156" lon="6.04122">
        <ele>1129</ele>
        <time>2011-04-19T12:23:32Z</time>
      </trkpt>
      <trkpt lat="45.51558" lon="6.0413">
        <ele>1129</ele>
        <time>2011-04-19T12:23:40Z</time>
      </trkpt>
      <trkpt lat="45.51557" lon="6.04145">
        <ele>1130</ele>
        <time>2011-04-19T12:25:33Z</time>
      </trkpt>
      <trkpt lat="45.51558" lon="6.04152">
        <ele>1132</ele>
        <time>2011-04-19T12:25:44Z</time>
      </trkpt>
      <trkpt lat="45.51556" lon="6.04156">
        <ele>1133</ele>
        <time>2011-04-19T12:25:51Z</time>
      </trkpt>
      <trkpt lat="45.51555" lon="6.04162">
        <ele>1136</ele>
        <time>2011-04-19T12:25:59Z</time>
      </trkpt>
      <trkpt lat="45.51555" lon="6.04164">
        <ele>1134</ele>
        <time>2011-04-19T12:26:01Z</time>
      </trkpt>
      <trkpt lat="45.51559" lon="6.04172">
        <ele>1136</ele>
        <time>2011-04-19T12:26:10Z</time>
      </trkpt>
      <trkpt lat="45.51559" lon="6.04177">
        <ele>1137</ele>
        <time>2011-04-19T12:26:18Z</time>
      </trkpt>
      <trkpt lat="45.51565" lon="6.04185">
        <ele>1139</ele>
        <time>2011-04-19T12:26:27Z</time>
      </trkpt>
      <trkpt lat="45.51571" lon="6.04194">
        <ele>1138</ele>
        <time>2011-04-19T12:26:37Z</time>
      </trkpt>
      <trkpt lat="45.51574" lon="6.04198">
        <ele>1141</ele>
        <time>2011-04-19T12:26:43Z</time>
      </trkpt>
      <trkpt lat="45.51575" lon="6.042">
        <ele>1144</ele>
        <time>2011-04-19T12:26:44Z</time>
      </trkpt>
      <trkpt lat="45.51577" lon="6.04203">
        <ele>1145</ele>
        <time>2011-04-19T12:26:46Z</time>
      </trkpt>
      <trkpt lat="45.51578" lon="6.04209">
        <ele>1146</ele>
        <time>2011-04-19T12:26:52Z</time>
      </trkpt>
      <trkpt lat="45.51581" lon="6.04218">
        <ele>1147</ele>
        <time>2011-04-19T12:27:03Z</time>
      </trkpt>
      <trkpt lat="45.51586" lon="6.04226">
        <ele>1144</ele>
        <time>2011-04-19T12:27:15Z</time>
      </trkpt>
      <trkpt lat="45.51586" lon="6.0423">
        <ele>1146</ele>
        <time>2011-04-19T12:27:24Z</time>
      </trkpt>
      <trkpt lat="45.51583" lon="6.04232">
        <ele>1147</ele>
        <time>2011-04-19T12:27:33Z</time>
      </trkpt>
      <trkpt lat="45.51581" lon="6.04235">
        <ele>1150</ele>
        <time>2011-04-19T12:27:44Z</time>
      </trkpt>
      <trkpt lat="45.51578" lon="6.04239">
        <ele>1151</ele>
        <time>2011-04-19T12:27:53Z</time>
      </trkpt>
      <trkpt lat="45.5158" lon="6.04244">
        <ele>1153</ele>
        <time>2011-04-19T12:28:02Z</time>
      </trkpt>
      <trkpt lat="45.51583" lon="6.04248">
        <ele>1155</ele>
        <time>2011-04-19T12:28:12Z</time>
      </trkpt>
      <trkpt lat="45.51582" lon="6.04252">
        <ele>1156</ele>
        <time>2011-04-19T12:28:21Z</time>
      </trkpt>
      <trkpt lat="45.51581" lon="6.04256">
        <ele>1157</ele>
        <time>2011-04-19T12:28:30Z</time>
      </trkpt>
      <trkpt lat="45.51579" lon="6.04259">
        <ele>1160</ele>
        <time>2011-04-19T12:28:40Z</time>
      </trkpt>
      <trkpt lat="45.51577" lon="6.04263">
        <ele>1162</ele>
        <time>2011-04-19T12:28:50Z</time>
      </trkpt>
      <trkpt lat="45.51575" lon="6.04265">
        <ele>1164</ele>
        <time>2011-04-19T12:29:02Z</time>
      </trkpt>
      <trkpt lat="45.51573" lon="6.04268">
        <ele>1166</ele>
        <time>2011-04-19T12:29:09Z</time>
      </trkpt>
      <trkpt lat="45.51569" lon="6.04271">
        <ele>1169</ele>
        <time>2011-04-19T12:29:25Z</time>
      </trkpt>
      <trkpt lat="45.51566" lon="6.04271">
        <ele>1170</ele>
        <time>2011-04-19T12:29:34Z</time>
      </trkpt>
      <trkpt lat="45.51563" lon="6.0427">
        <ele>1171</ele>
        <time>2011-04-19T12:29:42Z</time>
      </trkpt>
      <trkpt lat="45.51559" lon="6.04272">
        <ele>1172</ele>
        <time>2011-04-19T12:29:52Z</time>
      </trkpt>
      <trkpt lat="45.51556" lon="6.04274">
        <ele>1175</ele>
        <time>2011-04-19T12:30:02Z</time>
      </trkpt>
      <trkpt lat="45.51556" lon="6.04276">
        <ele>1177</ele>
        <time>2011-04-19T12:30:11Z</time>
      </trkpt>
      <trkpt lat="45.51559" lon="6.04281">
        <ele>1178</ele>
        <time>2011-04-19T12:30:29Z</time>
      </trkpt>
      <trkpt lat="45.51563" lon="6.04284">
        <ele>1177</ele>
        <time>2011-04-19T12:30:36Z</time>
      </trkpt>
      <trkpt lat="45.51566" lon="6.04286">
        <ele>1179</ele>
        <time>2011-04-19T12:30:45Z</time>
      </trkpt>
      <trkpt lat="45.51568" lon="6.04289">
        <ele>1180</ele>
        <time>2011-04-19T12:30:54Z</time>
      </trkpt>
      <trkpt lat="45.51567" lon="6.04291">
        <ele>1181</ele>
        <time>2011-04-19T12:31:04Z</time>
      </trkpt>
      <trkpt lat="45.51565" lon="6.04294">
        <ele>1184</ele>
        <time>2011-04-19T12:31:14Z</time>
      </trkpt>
      <trkpt lat="45.51564" lon="6.04292">
        <ele>1184</ele>
        <time>2011-04-19T12:31:22Z</time>
      </trkpt>
      <trkpt lat="45.51563" lon="6.04296">
        <ele>1185</ele>
        <time>2011-04-19T12:31:30Z</time>
      </trkpt>
      <trkpt lat="45.51563" lon="6.04301">
        <ele>1187</ele>
        <time>2011-04-19T12:31:40Z</time>
      </trkpt>
      <trkpt lat="45.5156" lon="6.04302">
        <ele>1189</ele>
        <time>2011-04-19T12:31:49Z</time>
      </trkpt>
      <trkpt lat="45.51557" lon="6.04304">
        <ele>1191</ele>
        <time>2011-04-19T12:31:59Z</time>
      </trkpt>
      <trkpt lat="45.51555" lon="6.04305">
        <ele>1192</ele>
        <time>2011-04-19T12:32:08Z</time>
      </trkpt>
      <trkpt lat="45.51552" lon="6.04305">
        <ele>1194</ele>
        <time>2011-04-19T12:32:18Z</time>
      </trkpt>
      <trkpt lat="45.5155" lon="6.04306">
        <ele>1196</ele>
        <time>2011-04-19T12:32:27Z</time>
      </trkpt>
      <trkpt lat="45.51548" lon="6.04309">
        <ele>1197</ele>
        <time>2011-04-19T12:32:36Z</time>
      </trkpt>
      <trkpt lat="45.51544" lon="6.04315">
        <ele>1199</ele>
        <time>2011-04-19T12:32:48Z</time>
      </trkpt>
      <trkpt lat="45.51544" lon="6.04324">
        <ele>1201</ele>
        <time>2011-04-19T12:33:01Z</time>
      </trkpt>
      <trkpt lat="45.51542" lon="6.04332">
        <ele>1202</ele>
        <time>2011-04-19T12:33:11Z</time>
      </trkpt>
      <trkpt lat="45.51542" lon="6.04339">
        <ele>1203</ele>
        <time>2011-04-19T12:33:20Z</time>
      </trkpt>
      <trkpt lat="45.51543" lon="6.04344">
        <ele>1203</ele>
        <time>2011-04-19T12:33:25Z</time>
      </trkpt>
      <trkpt lat="45.51544" lon="6.04355">
        <ele>1205</ele>
        <time>2011-04-19T12:33:36Z</time>
      </trkpt>
      <trkpt lat="45.51542" lon="6.04364">
        <ele>1206</ele>
        <time>2011-04-19T12:33:46Z</time>
      </trkpt>
      <trkpt lat="45.51542" lon="6.04372">
        <ele>1206</ele>
        <time>2011-04-19T12:33:54Z</time>
      </trkpt>
      <trkpt lat="45.51543" lon="6.04374">
        <ele>1207</ele>
        <time>2011-04-19T12:37:59Z</time>
      </trkpt>
      <trkpt lat="45.51545" lon="6.04385">
        <ele>1208</ele>
        <time>2011-04-19T12:38:09Z</time>
      </trkpt>
      <trkpt lat="45.51545" lon="6.04397">
        <ele>1209</ele>
        <time>2011-04-19T12:38:20Z</time>
      </trkpt>
      <trkpt lat="45.51543" lon="6.04411">
        <ele>1209</ele>
        <time>2011-04-19T12:38:32Z</time>
      </trkpt>
      <trkpt lat="45.51543" lon="6.04417">
        <ele>1209</ele>
        <time>2011-04-19T12:38:36Z</time>
      </trkpt>
      <trkpt lat="45.51544" lon="6.04428">
        <ele>1208</ele>
        <time>2011-04-19T12:38:45Z</time>
      </trkpt>
      <trkpt lat="45.51545" lon="6.04438">
        <ele>1207</ele>
        <time>2011-04-19T12:38:54Z</time>
      </trkpt>
      <trkpt lat="45.51542" lon="6.04445">
        <ele>1205</ele>
        <time>2011-04-19T12:39:03Z</time>
      </trkpt>
      <trkpt lat="45.51542" lon="6.04454">
        <ele>1206</ele>
        <time>2011-04-19T12:39:13Z</time>
      </trkpt>
      <trkpt lat="45.51542" lon="6.0446">
        <ele>1208</ele>
        <time>2011-04-19T12:39:21Z</time>
      </trkpt>
      <trkpt lat="45.51542" lon="6.04464">
        <ele>1209</ele>
        <time>2011-04-19T12:39:29Z</time>
      </trkpt>
      <trkpt lat="45.51543" lon="6.04471">
        <ele>1211</ele>
        <time>2011-04-19T12:39:37Z</time>
      </trkpt>
      <trkpt lat="45.51541" lon="6.04478">
        <ele>1212</ele>
        <time>2011-04-19T12:39:46Z</time>
      </trkpt>
      <trkpt lat="45.51541" lon="6.04481">
        <ele>1211</ele>
        <time>2011-04-19T12:39:53Z</time>
      </trkpt>
      <trkpt lat="45.51542" lon="6.04487">
        <ele>1209</ele>
        <time>2011-04-19T12:40:02Z</time>
      </trkpt>
      <trkpt lat="45.51544" lon="6.04489">
        <ele>1208</ele>
        <time>2011-04-19T12:40:07Z</time>
      </trkpt>
      <trkpt lat="45.51542" lon="6.04496">
        <ele>1207</ele>
        <time>2011-04-19T12:40:15Z</time>
      </trkpt>
      <trkpt lat="45.51544" lon="6.04506">
        <ele>1206</ele>
        <time>2011-04-19T12:40:25Z</time>
      </trkpt>
      <trkpt lat="45.51547" lon="6.04513">
        <ele>1206</ele>
        <time>2011-04-19T12:40:33Z</time>
      </trkpt>
      <trkpt lat="45.5155" lon="6.04514">
        <ele>1204</ele>
        <time>2011-04-19T12:40:40Z</time>
      </trkpt>
      <trkpt lat="45.51554" lon="6.04513">
        <ele>1202</ele>
        <time>2011-04-19T12:40:47Z</time>
      </trkpt>
      <trkpt lat="45.51556" lon="6.04512">
        <ele>1202</ele>
        <time>2011-04-19T12:40:55Z</time>
      </trkpt>
      <trkpt lat="45.51558" lon="6.04506">
        <ele>1201</ele>
        <time>2011-04-19T12:41:36Z</time>
      </trkpt>
      <trkpt lat="45.5156" lon="6.04507">
        <ele>1201</ele>
        <time>2011-04-19T12:42:39Z</time>
      </trkpt>
      <trkpt lat="45.51561" lon="6.04507">
        <ele>1202</ele>
        <time>2011-04-19T12:42:42Z</time>
      </trkpt>
      <trkpt lat="45.51564" lon="6.04508">
        <ele>1204</ele>
        <time>2011-04-19T12:42:48Z</time>
      </trkpt>
      <trkpt lat="45.51569" lon="6.04515">
        <ele>1202</ele>
        <time>2011-04-19T12:42:58Z</time>
      </trkpt>
      <trkpt lat="45.5157" lon="6.0452">
        <ele>1202</ele>
        <time>2011-04-19T12:43:05Z</time>
      </trkpt>
      <trkpt lat="45.51573" lon="6.04523">
        <ele>1200</ele>
        <time>2011-04-19T12:43:15Z</time>
      </trkpt>
      <trkpt lat="45.51575" lon="6.04531">
        <ele>1199</ele>
        <time>2011-04-19T12:43:25Z</time>
      </trkpt>
      <trkpt lat="45.51575" lon="6.04538">
        <ele>1200</ele>
        <time>2011-04-19T12:43:34Z</time>
      </trkpt>
      <trkpt lat="45.51577" lon="6.04548">
        <ele>1200</ele>
        <time>2011-04-19T12:43:43Z</time>
      </trkpt>
      <trkpt lat="45.51577" lon="6.04558">
        <ele>1200</ele>
        <time>2011-04-19T12:43:52Z</time>
      </trkpt>
      <trkpt lat="45.51577" lon="6.0457">
        <ele>1199</ele>
        <time>2011-04-19T12:44:00Z</time>
      </trkpt>
      <trkpt lat="45.51578" lon="6.04583">
        <ele>1197</ele>
        <time>2011-04-19T12:44:11Z</time>
      </trkpt>
      <trkpt lat="45.5158" lon="6.04594">
        <ele>1197</ele>
        <time>2011-04-19T12:44:19Z</time>
      </trkpt>
      <trkpt lat="45.51581" lon="6.04606">
        <ele>1196</ele>
        <time>2011-04-19T12:44:28Z</time>
      </trkpt>
      <trkpt lat="45.51581" lon="6.04618">
        <ele>1196</ele>
        <time>2011-04-19T12:44:37Z</time>
      </trkpt>
      <trkpt lat="45.51581" lon="6.04624">
        <ele>1197</ele>
        <time>2011-04-19T12:44:46Z</time>
      </trkpt>
      <trkpt lat="45.51582" lon="6.04629">
        <ele>1196</ele>
        <time>2011-04-19T12:45:01Z</time>
      </trkpt>
      <trkpt lat="45.51582" lon="6.04642">
        <ele>1196</ele>
        <time>2011-04-19T12:46:24Z</time>
      </trkpt>
      <trkpt lat="45.51582" lon="6.04653">
        <ele>1196</ele>
        <time>2011-04-19T12:46:33Z</time>
      </trkpt>
      <trkpt lat="45.51584" lon="6.04666">
        <ele>1195</ele>
        <time>2011-04-19T12:46:43Z</time>
      </trkpt>
      <trkpt lat="45.51586" lon="6.04678">
        <ele>1194</ele>
        <time>2011-04-19T12:46:51Z</time>
      </trkpt>
      <trkpt lat="45.51587" lon="6.04696">
        <ele>1193</ele>
        <time>2011-04-19T12:47:02Z</time>
      </trkpt>
      <trkpt lat="45.51589" lon="6.04713">
        <ele>1193</ele>
        <time>2011-04-19T12:47:12Z</time>
      </trkpt>
      <trkpt lat="45.51593" lon="6.0473">
        <ele>1191</ele>
        <time>2011-04-19T12:47:23Z</time>
      </trkpt>
      <trkpt lat="45.51599" lon="6.0474">
        <ele>1189</ele>
        <time>2011-04-19T12:47:32Z</time>
      </trkpt>
      <trkpt lat="45.51603" lon="6.04749">
        <ele>1188</ele>
        <time>2011-04-19T12:47:40Z</time>
      </trkpt>
      <trkpt lat="45.51602" lon="6.04758">
        <ele>1186</ele>
        <time>2011-04-19T12:47:50Z</time>
      </trkpt>
      <trkpt lat="45.51604" lon="6.04763">
        <ele>1184</ele>
        <time>2011-04-19T12:47:56Z</time>
      </trkpt>
      <trkpt lat="45.51609" lon="6.04773">
        <ele>1183</ele>
        <time>2011-04-19T12:48:03Z</time>
      </trkpt>
      <trkpt lat="45.51616" lon="6.04779">
        <ele>1183</ele>
        <time>2011-04-19T12:48:12Z</time>
      </trkpt>
      <trkpt lat="45.51621" lon="6.04782">
        <ele>1186</ele>
        <time>2011-04-19T12:48:23Z</time>
      </trkpt>
      <trkpt lat="45.51623" lon="6.04788">
        <ele>1187</ele>
        <time>2011-04-19T12:48:32Z</time>
      </trkpt>
      <trkpt lat="45.51627" lon="6.04789">
        <ele>1189</ele>
        <time>2011-04-19T12:48:41Z</time>
      </trkpt>
      <trkpt lat="45.51636" lon="6.04792">
        <ele>1189</ele>
        <time>2011-04-19T12:48:51Z</time>
      </trkpt>
      <trkpt lat="45.51642" lon="6.04795">
        <ele>1188</ele>
        <time>2011-04-19T12:48:58Z</time>
      </trkpt>
      <trkpt lat="45.51645" lon="6.04801">
        <ele>1186</ele>
        <time>2011-04-19T12:49:06Z</time>
      </trkpt>
      <trkpt lat="45.5165" lon="6.04809">
        <ele>1185</ele>
        <time>2011-04-19T12:49:14Z</time>
      </trkpt>
      <trkpt lat="45.51656" lon="6.04817">
        <ele>1185</ele>
        <time>2011-04-19T12:49:22Z</time>
      </trkpt>
      <trkpt lat="45.51664" lon="6.04815">
        <ele>1184</ele>
        <time>2011-04-19T12:49:31Z</time>
      </trkpt>
      <trkpt lat="45.51669" lon="6.04814">
        <ele>1184</ele>
        <time>2011-04-19T12:49:37Z</time>
      </trkpt>
      <trkpt lat="45.51673" lon="6.04812">
        <ele>1185</ele>
        <time>2011-04-19T12:49:42Z</time>
      </trkpt>
      <trkpt lat="45.5168" lon="6.0481">
        <ele>1186</ele>
        <time>2011-04-19T12:49:50Z</time>
      </trkpt>
      <trkpt lat="45.51689" lon="6.04811">
        <ele>1188</ele>
        <time>2011-04-19T12:49:58Z</time>
      </trkpt>
      <trkpt lat="45.51691" lon="6.04812">
        <ele>1185</ele>
        <time>2011-04-19T12:50:01Z</time>
      </trkpt>
      <trkpt lat="45.51696" lon="6.04817">
        <ele>1187</ele>
        <time>2011-04-19T12:50:10Z</time>
      </trkpt>
      <trkpt lat="45.517" lon="6.0482">
        <ele>1189</ele>
        <time>2011-04-19T12:50:19Z</time>
      </trkpt>
      <trkpt lat="45.51703" lon="6.04822">
        <ele>1191</ele>
        <time>2011-04-19T12:50:29Z</time>
      </trkpt>
      <trkpt lat="45.51703" lon="6.04828">
        <ele>1192</ele>
        <time>2011-04-19T12:50:38Z</time>
      </trkpt>
      <trkpt lat="45.51705" lon="6.0483">
        <ele>1194</ele>
        <time>2011-04-19T12:50:44Z</time>
      </trkpt>
      <trkpt lat="45.51707" lon="6.04833">
        <ele>1195</ele>
        <time>2011-04-19T12:50:53Z</time>
      </trkpt>
      <trkpt lat="45.51712" lon="6.04838">
        <ele>1196</ele>
        <time>2011-04-19T12:51:02Z</time>
      </trkpt>
      <trkpt lat="45.51719" lon="6.04845">
        <ele>1198</ele>
        <time>2011-04-19T12:51:13Z</time>
      </trkpt>
      <trkpt lat="45.51724" lon="6.04851">
        <ele>1200</ele>
        <time>2011-04-19T12:51:22Z</time>
      </trkpt>
      <trkpt lat="45.51728" lon="6.04855">
        <ele>1201</ele>
        <time>2011-04-19T12:51:30Z</time>
      </trkpt>
      <trkpt lat="45.51732" lon="6.04863">
        <ele>1201</ele>
        <time>2011-04-19T12:51:38Z</time>
      </trkpt>
      <trkpt lat="45.51733" lon="6.04868">
        <ele>1202</ele>
        <time>2011-04-19T12:51:46Z</time>
      </trkpt>
      <trkpt lat="45.51736" lon="6.04873">
        <ele>1200</ele>
        <time>2011-04-19T12:51:54Z</time>
      </trkpt>
      <trkpt lat="45.51737" lon="6.04879">
        <ele>1200</ele>
        <time>2011-04-19T12:52:04Z</time>
      </trkpt>
      <trkpt lat="45.51738" lon="6.04886">
        <ele>1199</ele>
        <time>2011-04-19T12:52:12Z</time>
      </trkpt>
      <trkpt lat="45.5174" lon="6.04893">
        <ele>1199</ele>
        <time>2011-04-19T12:52:19Z</time>
      </trkpt>
      <trkpt lat="45.51741" lon="6.04908">
        <ele>1199</ele>
        <time>2011-04-19T12:52:32Z</time>
      </trkpt>
      <trkpt lat="45.51741" lon="6.04917">
        <ele>1200</ele>
        <time>2011-04-19T12:52:41Z</time>
      </trkpt>
      <trkpt lat="45.51738" lon="6.04922">
        <ele>1201</ele>
        <time>2011-04-19T12:52:51Z</time>
      </trkpt>
      <trkpt lat="45.51737" lon="6.04917">
        <ele>1202</ele>
        <time>2011-04-19T12:53:03Z</time>
      </trkpt>
      <trkpt lat="45.51735" lon="6.04913">
        <ele>1205</ele>
        <time>2011-04-19T12:53:14Z</time>
      </trkpt>
      <trkpt lat="45.51732" lon="6.04908">
        <ele>1206</ele>
        <time>2011-04-19T12:53:23Z</time>
      </trkpt>
      <trkpt lat="45.5173" lon="6.04903">
        <ele>1207</ele>
        <time>2011-04-19T12:53:31Z</time>
      </trkpt>
      <trkpt lat="45.51728" lon="6.04898">
        <ele>1209</ele>
        <time>2011-04-19T12:53:40Z</time>
      </trkpt>
      <trkpt lat="45.51723" lon="6.04894">
        <ele>1210</ele>
        <time>2011-04-19T12:53:50Z</time>
      </trkpt>
      <trkpt lat="45.51719" lon="6.04891">
        <ele>1212</ele>
        <time>2011-04-19T12:53:59Z</time>
      </trkpt>
      <trkpt lat="45.51716" lon="6.04888">
        <ele>1214</ele>
        <time>2011-04-19T12:54:08Z</time>
      </trkpt>
      <trkpt lat="45.51712" lon="6.04885">
        <ele>1215</ele>
        <time>2011-04-19T12:54:17Z</time>
      </trkpt>
      <trkpt lat="45.51708" lon="6.04886">
        <ele>1217</ele>
        <time>2011-04-19T12:54:26Z</time>
      </trkpt>
      <trkpt lat="45.51707" lon="6.04884">
        <ele>1216</ele>
        <time>2011-04-19T12:54:33Z</time>
      </trkpt>
      <trkpt lat="45.51709" lon="6.04893">
        <ele>1216</ele>
        <time>2011-04-19T12:54:51Z</time>
      </trkpt>
      <trkpt lat="45.5171" lon="6.04896">
        <ele>1216</ele>
        <time>2011-04-19T12:54:54Z</time>
      </trkpt>
      <trkpt lat="45.51711" lon="6.04905">
        <ele>1215</ele>
        <time>2011-04-19T12:55:03Z</time>
      </trkpt>
      <trkpt lat="45.5171" lon="6.04918">
        <ele>1215</ele>
        <time>2011-04-19T12:55:13Z</time>
      </trkpt>
      <trkpt lat="45.5171" lon="6.04927">
        <ele>1214</ele>
        <time>2011-04-19T12:55:22Z</time>
      </trkpt>
      <trkpt lat="45.51709" lon="6.04929">
        <ele>1212</ele>
        <time>2011-04-19T13:55:19Z</time>
      </trkpt>
      <trkpt lat="45.5171" lon="6.0493">
        <ele>1211</ele>
        <time>2011-04-19T13:55:26Z</time>
      </trkpt>
      <trkpt lat="45.5171" lon="6.04932">
        <ele>1211</ele>
        <time>2011-04-19T13:56:23Z</time>
      </trkpt>
      <trkpt lat="45.5171" lon="6.04936">
        <ele>1211</ele>
        <time>2011-04-19T13:56:51Z</time>
      </trkpt>
      <trkpt lat="45.51711" lon="6.04939">
        <ele>1211</ele>
        <time>2011-04-19T13:57:06Z</time>
      </trkpt>
      <trkpt lat="45.51714" lon="6.0495">
        <ele>1209</ele>
        <time>2011-04-19T13:57:26Z</time>
      </trkpt>
      <trkpt lat="45.51717" lon="6.0496">
        <ele>1206</ele>
        <time>2011-04-19T13:57:36Z</time>
      </trkpt>
      <trkpt lat="45.5172" lon="6.04968">
        <ele>1205</ele>
        <time>2011-04-19T13:57:45Z</time>
      </trkpt>
      <trkpt lat="45.51723" lon="6.04977">
        <ele>1205</ele>
        <time>2011-04-19T13:57:54Z</time>
      </trkpt>
      <trkpt lat="45.51726" lon="6.04989">
        <ele>1202</ele>
        <time>2011-04-19T13:58:06Z</time>
      </trkpt>
      <trkpt lat="45.51731" lon="6.04996">
        <ele>1201</ele>
        <time>2011-04-19T13:58:15Z</time>
      </trkpt>
      <trkpt lat="45.51732" lon="6.05004">
        <ele>1200</ele>
        <time>2011-04-19T13:58:23Z</time>
      </trkpt>
      <trkpt lat="45.51736" lon="6.0501">
        <ele>1200</ele>
        <time>2011-04-19T13:58:32Z</time>
      </trkpt>
      <trkpt lat="45.5174" lon="6.0502">
        <ele>1199</ele>
        <time>2011-04-19T13:58:42Z</time>
      </trkpt>
      <trkpt lat="45.51742" lon="6.05027">
        <ele>1198</ele>
        <time>2011-04-19T13:58:50Z</time>
      </trkpt>
      <trkpt lat="45.51744" lon="6.05035">
        <ele>1196</ele>
        <time>2011-04-19T13:58:59Z</time>
      </trkpt>
      <trkpt lat="45.51741" lon="6.0504">
        <ele>1195</ele>
        <time>2011-04-19T13:59:07Z</time>
      </trkpt>
      <trkpt lat="45.5174" lon="6.05046">
        <ele>1194</ele>
        <time>2011-04-19T13:59:12Z</time>
      </trkpt>
      <trkpt lat="45.51741" lon="6.05055">
        <ele>1192</ele>
        <time>2011-04-19T13:59:20Z</time>
      </trkpt>
      <trkpt lat="45.51743" lon="6.05065">
        <ele>1189</ele>
        <time>2011-04-19T13:59:30Z</time>
      </trkpt>
      <trkpt lat="45.51747" lon="6.05072">
        <ele>1188</ele>
        <time>2011-04-19T13:59:40Z</time>
      </trkpt>
      <trkpt lat="45.51749" lon="6.05076">
        <ele>1187</ele>
        <time>2011-04-19T13:59:49Z</time>
      </trkpt>
      <trkpt lat="45.51749" lon="6.0508">
        <ele>1186</ele>
        <time>2011-04-19T14:00:04Z</time>
      </trkpt>
      <trkpt lat="45.51752" lon="6.05086">
        <ele>1184</ele>
        <time>2011-04-19T14:00:14Z</time>
      </trkpt>
      <trkpt lat="45.51756" lon="6.05088">
        <ele>1182</ele>
        <time>2011-04-19T14:00:22Z</time>
      </trkpt>
      <trkpt lat="45.51757" lon="6.05094">
        <ele>1181</ele>
        <time>2011-04-19T14:00:29Z</time>
      </trkpt>
      <trkpt lat="45.5176" lon="6.05099">
        <ele>1179</ele>
        <time>2011-04-19T14:00:38Z</time>
      </trkpt>
      <trkpt lat="45.51765" lon="6.05101">
        <ele>1178</ele>
        <time>2011-04-19T14:00:45Z</time>
      </trkpt>
      <trkpt lat="45.5177" lon="6.05104">
        <ele>1175</ele>
        <time>2011-04-19T14:00:53Z</time>
      </trkpt>
      <trkpt lat="45.51775" lon="6.05106">
        <ele>1172</ele>
        <time>2011-04-19T14:01:00Z</time>
      </trkpt>
      <trkpt lat="45.51782" lon="6.05108">
        <ele>1170</ele>
        <time>2011-04-19T14:01:08Z</time>
      </trkpt>
      <trkpt lat="45.51787" lon="6.05112">
        <ele>1168</ele>
        <time>2011-04-19T14:01:15Z</time>
      </trkpt>
      <trkpt lat="45.51792" lon="6.05113">
        <ele>1167</ele>
        <time>2011-04-19T14:01:22Z</time>
      </trkpt>
      <trkpt lat="45.51799" lon="6.05116">
        <ele>1167</ele>
        <time>2011-04-19T14:01:29Z</time>
      </trkpt>
      <trkpt lat="45.51803" lon="6.05119">
        <ele>1165</ele>
        <time>2011-04-19T14:01:37Z</time>
      </trkpt>
      <trkpt lat="45.51806" lon="6.05122">
        <ele>1163</ele>
        <time>2011-04-19T14:01:46Z</time>
      </trkpt>
      <trkpt lat="45.51809" lon="6.0513">
        <ele>1162</ele>
        <time>2011-04-19T14:01:53Z</time>
      </trkpt>
      <trkpt lat="45.51808" lon="6.05137">
        <ele>1161</ele>
        <time>2011-04-19T14:02:00Z</time>
      </trkpt>
      <trkpt lat="45.51808" lon="6.05146">
        <ele>1160</ele>
        <time>2011-04-19T14:02:08Z</time>
      </trkpt>
      <trkpt lat="45.51811" lon="6.05154">
        <ele>1159</ele>
        <time>2011-04-19T14:02:17Z</time>
      </trkpt>
      <trkpt lat="45.51813" lon="6.05165">
        <ele>1157</ele>
        <time>2011-04-19T14:02:26Z</time>
      </trkpt>
      <trkpt lat="45.5182" lon="6.05172">
        <ele>1155</ele>
        <time>2011-04-19T14:02:34Z</time>
      </trkpt>
      <trkpt lat="45.51825" lon="6.05178">
        <ele>1154</ele>
        <time>2011-04-19T14:02:42Z</time>
      </trkpt>
      <trkpt lat="45.5183" lon="6.05181">
        <ele>1152</ele>
        <time>2011-04-19T14:02:50Z</time>
      </trkpt>
      <trkpt lat="45.51837" lon="6.05184">
        <ele>1149</ele>
        <time>2011-04-19T14:02:58Z</time>
      </trkpt>
      <trkpt lat="45.5184" lon="6.05186">
        <ele>1148</ele>
        <time>2011-04-19T14:03:00Z</time>
      </trkpt>
      <trkpt lat="45.51843" lon="6.05189">
        <ele>1147</ele>
        <time>2011-04-19T14:03:06Z</time>
      </trkpt>
      <trkpt lat="45.51843" lon="6.05197">
        <ele>1145</ele>
        <time>2011-04-19T14:03:13Z</time>
      </trkpt>
      <trkpt lat="45.51845" lon="6.05205">
        <ele>1145</ele>
        <time>2011-04-19T14:03:21Z</time>
      </trkpt>
      <trkpt lat="45.51848" lon="6.0521">
        <ele>1144</ele>
        <time>2011-04-19T14:03:27Z</time>
      </trkpt>
      <trkpt lat="45.5185" lon="6.05218">
        <ele>1142</ele>
        <time>2011-04-19T14:03:34Z</time>
      </trkpt>
      <trkpt lat="45.51854" lon="6.0523">
        <ele>1140</ele>
        <time>2011-04-19T14:03:44Z</time>
      </trkpt>
      <trkpt lat="45.51858" lon="6.0524">
        <ele>1139</ele>
        <time>2011-04-19T14:03:52Z</time>
      </trkpt>
      <trkpt lat="45.51858" lon="6.05247">
        <ele>1138</ele>
        <time>2011-04-19T14:03:58Z</time>
      </trkpt>
      <trkpt lat="45.51856" lon="6.05252">
        <ele>1136</ele>
        <time>2011-04-19T14:04:03Z</time>
      </trkpt>
      <trkpt lat="45.51857" lon="6.05258">
        <ele>1134</ele>
        <time>2011-04-19T14:04:09Z</time>
      </trkpt>
      <trkpt lat="45.51855" lon="6.05266">
        <ele>1133</ele>
        <time>2011-04-19T14:04:17Z</time>
      </trkpt>
      <trkpt lat="45.51856" lon="6.05275">
        <ele>1131</ele>
        <time>2011-04-19T14:04:25Z</time>
      </trkpt>
      <trkpt lat="45.51858" lon="6.05279">
        <ele>1131</ele>
        <time>2011-04-19T14:04:34Z</time>
      </trkpt>
      <trkpt lat="45.51853" lon="6.05287">
        <ele>1129</ele>
        <time>2011-04-19T14:04:44Z</time>
      </trkpt>
      <trkpt lat="45.5185" lon="6.05295">
        <ele>1127</ele>
        <time>2011-04-19T14:04:51Z</time>
      </trkpt>
      <trkpt lat="45.51851" lon="6.05301">
        <ele>1127</ele>
        <time>2011-04-19T14:05:00Z</time>
      </trkpt>
      <trkpt lat="45.51854" lon="6.05308">
        <ele>1125</ele>
        <time>2011-04-19T14:05:10Z</time>
      </trkpt>
      <trkpt lat="45.51851" lon="6.05316">
        <ele>1122</ele>
        <time>2011-04-19T14:05:18Z</time>
      </trkpt>
      <trkpt lat="45.51848" lon="6.05322">
        <ele>1121</ele>
        <time>2011-04-19T14:05:26Z</time>
      </trkpt>
      <trkpt lat="45.51847" lon="6.05331">
        <ele>1118</ele>
        <time>2011-04-19T14:05:34Z</time>
      </trkpt>
      <trkpt lat="45.51847" lon="6.05338">
        <ele>1117</ele>
        <time>2011-04-19T14:05:39Z</time>
      </trkpt>
      <trkpt lat="45.51847" lon="6.05344">
        <ele>1116</ele>
        <time>2011-04-19T14:05:44Z</time>
      </trkpt>
      <trkpt lat="45.51846" lon="6.05352">
        <ele>1114</ele>
        <time>2011-04-19T14:05:51Z</time>
      </trkpt>
      <trkpt lat="45.51845" lon="6.05363">
        <ele>1112</ele>
        <time>2011-04-19T14:06:01Z</time>
      </trkpt>
      <trkpt lat="45.51845" lon="6.05371">
        <ele>1111</ele>
        <time>2011-04-19T14:06:10Z</time>
      </trkpt>
      <trkpt lat="45.51846" lon="6.05375">
        <ele>1111</ele>
        <time>2011-04-19T14:06:25Z</time>
      </trkpt>
      <trkpt lat="45.51847" lon="6.05389">
        <ele>1110</ele>
        <time>2011-04-19T14:06:59Z</time>
      </trkpt>
      <trkpt lat="45.51848" lon="6.05395">
        <ele>1110</ele>
        <time>2011-04-19T14:07:05Z</time>
      </trkpt>
      <trkpt lat="45.5185" lon="6.05402">
        <ele>1109</ele>
        <time>2011-04-19T14:07:11Z</time>
      </trkpt>
      <trkpt lat="45.51852" lon="6.05414">
        <ele>1109</ele>
        <time>2011-04-19T14:07:20Z</time>
      </trkpt>
      <trkpt lat="45.51855" lon="6.05426">
        <ele>1109</ele>
        <time>2011-04-19T14:07:28Z</time>
      </trkpt>
      <trkpt lat="45.51855" lon="6.05438">
        <ele>1107</ele>
        <time>2011-04-19T14:07:37Z</time>
      </trkpt>
      <trkpt lat="45.51857" lon="6.05452">
        <ele>1105</ele>
        <time>2011-04-19T14:07:46Z</time>
      </trkpt>
      <trkpt lat="45.51859" lon="6.05457">
        <ele>1105</ele>
        <time>2011-04-19T14:07:55Z</time>
      </trkpt>
      <trkpt lat="45.5186" lon="6.05467">
        <ele>1103</ele>
        <time>2011-04-19T14:08:03Z</time>
      </trkpt>
      <trkpt lat="45.51863" lon="6.05475">
        <ele>1102</ele>
        <time>2011-04-19T14:08:11Z</time>
      </trkpt>
      <trkpt lat="45.51869" lon="6.05481">
        <ele>1101</ele>
        <time>2011-04-19T14:08:19Z</time>
      </trkpt>
      <trkpt lat="45.51873" lon="6.05482">
        <ele>1100</ele>
        <time>2011-04-19T14:08:27Z</time>
      </trkpt>
      <trkpt lat="45.51877" lon="6.05485">
        <ele>1100</ele>
        <time>2011-04-19T14:08:35Z</time>
      </trkpt>
      <trkpt lat="45.51882" lon="6.0549">
        <ele>1099</ele>
        <time>2011-04-19T14:08:43Z</time>
      </trkpt>
      <trkpt lat="45.51886" lon="6.05494">
        <ele>1098</ele>
        <time>2011-04-19T14:08:49Z</time>
      </trkpt>
      <trkpt lat="45.51891" lon="6.05498">
        <ele>1096</ele>
        <time>2011-04-19T14:08:55Z</time>
      </trkpt>
      <trkpt lat="45.51898" lon="6.05499">
        <ele>1094</ele>
        <time>2011-04-19T14:09:02Z</time>
      </trkpt>
      <trkpt lat="45.51901" lon="6.05502">
        <ele>1091</ele>
        <time>2011-04-19T14:09:11Z</time>
      </trkpt>
      <trkpt lat="45.51906" lon="6.05501">
        <ele>1089</ele>
        <time>2011-04-19T14:09:20Z</time>
      </trkpt>
      <trkpt lat="45.5191" lon="6.055">
        <ele>1088</ele>
        <time>2011-04-19T14:09:27Z</time>
      </trkpt>
      <trkpt lat="45.51911" lon="6.05506">
        <ele>1087</ele>
        <time>2011-04-19T14:09:32Z</time>
      </trkpt>
      <trkpt lat="45.51911" lon="6.05515">
        <ele>1084</ele>
        <time>2011-04-19T14:09:41Z</time>
      </trkpt>
      <trkpt lat="45.51909" lon="6.05523">
        <ele>1084</ele>
        <time>2011-04-19T14:09:48Z</time>
      </trkpt>
      <trkpt lat="45.51905" lon="6.05538">
        <ele>1081</ele>
        <time>2011-04-19T14:09:59Z</time>
      </trkpt>
      <trkpt lat="45.51899" lon="6.05545">
        <ele>1079</ele>
        <time>2011-04-19T14:10:07Z</time>
      </trkpt>
      <trkpt lat="45.51892" lon="6.05551">
        <ele>1077</ele>
        <time>2011-04-19T14:10:17Z</time>
      </trkpt>
      <trkpt lat="45.51886" lon="6.05555">
        <ele>1076</ele>
        <time>2011-04-19T14:10:23Z</time>
      </trkpt>
      <trkpt lat="45.51882" lon="6.05555">
        <ele>1075</ele>
        <time>2011-04-19T14:11:25Z</time>
      </trkpt>
      <trkpt lat="45.51873" lon="6.05557">
        <ele>1073</ele>
        <time>2011-04-19T14:11:38Z</time>
      </trkpt>
      <trkpt lat="45.51869" lon="6.05557">
        <ele>1073</ele>
        <time>2011-04-19T14:11:45Z</time>
      </trkpt>
      <trkpt lat="45.51863" lon="6.05557">
        <ele>1072</ele>
        <time>2011-04-19T14:11:52Z</time>
      </trkpt>
      <trkpt lat="45.51859" lon="6.05551">
        <ele>1072</ele>
        <time>2011-04-19T14:12:00Z</time>
      </trkpt>
      <trkpt lat="45.51854" lon="6.05546">
        <ele>1071</ele>
        <time>2011-04-19T14:12:06Z</time>
      </trkpt>
      <trkpt lat="45.51847" lon="6.05541">
        <ele>1069</ele>
        <time>2011-04-19T14:12:13Z</time>
      </trkpt>
      <trkpt lat="45.51842" lon="6.05537">
        <ele>1069</ele>
        <time>2011-04-19T14:12:19Z</time>
      </trkpt>
      <trkpt lat="45.51836" lon="6.05532">
        <ele>1068</ele>
        <time>2011-04-19T14:12:27Z</time>
      </trkpt>
      <trkpt lat="45.51832" lon="6.05526">
        <ele>1067</ele>
        <time>2011-04-19T14:12:33Z</time>
      </trkpt>
      <trkpt lat="45.51826" lon="6.05519">
        <ele>1067</ele>
        <time>2011-04-19T14:12:41Z</time>
      </trkpt>
      <trkpt lat="45.5182" lon="6.0551">
        <ele>1066</ele>
        <time>2011-04-19T14:12:48Z</time>
      </trkpt>
      <trkpt lat="45.51815" lon="6.05501">
        <ele>1065</ele>
        <time>2011-04-19T14:12:56Z</time>
      </trkpt>
      <trkpt lat="45.5181" lon="6.05493">
        <ele>1064</ele>
        <time>2011-04-19T14:13:02Z</time>
      </trkpt>
      <trkpt lat="45.51805" lon="6.05484">
        <ele>1063</ele>
        <time>2011-04-19T14:13:09Z</time>
      </trkpt>
      <trkpt lat="45.518" lon="6.0547">
        <ele>1062</ele>
        <time>2011-04-19T14:13:20Z</time>
      </trkpt>
      <trkpt lat="45.51798" lon="6.05464">
        <ele>1061</ele>
        <time>2011-04-19T14:13:25Z</time>
      </trkpt>
      <trkpt lat="45.51795" lon="6.05456">
        <ele>1060</ele>
        <time>2011-04-19T14:13:31Z</time>
      </trkpt>
      <trkpt lat="45.51791" lon="6.05445">
        <ele>1060</ele>
        <time>2011-04-19T14:13:40Z</time>
      </trkpt>
      <trkpt lat="45.51787" lon="6.05437">
        <ele>1060</ele>
        <time>2011-04-19T14:13:46Z</time>
      </trkpt>
      <trkpt lat="45.51784" lon="6.05429">
        <ele>1058</ele>
        <time>2011-04-19T14:14:00Z</time>
      </trkpt>
      <trkpt lat="45.51789" lon="6.05437">
        <ele>1057</ele>
        <time>2011-04-19T14:14:08Z</time>
      </trkpt>
      <trkpt lat="45.5179" lon="6.05441">
        <ele>1056</ele>
        <time>2011-04-19T14:14:14Z</time>
      </trkpt>
      <trkpt lat="45.51791" lon="6.05447">
        <ele>1054</ele>
        <time>2011-04-19T14:14:21Z</time>
      </trkpt>
      <trkpt lat="45.51792" lon="6.05458">
        <ele>1053</ele>
        <time>2011-04-19T14:14:29Z</time>
      </trkpt>
      <trkpt lat="45.51792" lon="6.05466">
        <ele>1051</ele>
        <time>2011-04-19T14:14:36Z</time>
      </trkpt>
      <trkpt lat="45.51794" lon="6.05474">
        <ele>1049</ele>
        <time>2011-04-19T14:14:44Z</time>
      </trkpt>
      <trkpt lat="45.51795" lon="6.05484">
        <ele>1048</ele>
        <time>2011-04-19T14:14:50Z</time>
      </trkpt>
      <trkpt lat="45.51793" lon="6.05494">
        <ele>1047</ele>
        <time>2011-04-19T14:14:59Z</time>
      </trkpt>
      <trkpt lat="45.5179" lon="6.05504">
        <ele>1046</ele>
        <time>2011-04-19T14:15:06Z</time>
      </trkpt>
      <trkpt lat="45.51793" lon="6.05519">
        <ele>1042</ele>
        <time>2011-04-19T14:15:16Z</time>
      </trkpt>
      <trkpt lat="45.51792" lon="6.05521">
        <ele>1041</ele>
        <time>2011-04-19T14:15:24Z</time>
      </trkpt>
      <trkpt lat="45.5179" lon="6.05516">
        <ele>1040</ele>
        <time>2011-04-19T14:15:32Z</time>
      </trkpt>
      <trkpt lat="45.5179" lon="6.05508">
        <ele>1040</ele>
        <time>2011-04-19T14:15:40Z</time>
      </trkpt>
      <trkpt lat="45.51788" lon="6.055">
        <ele>1039</ele>
        <time>2011-04-19T14:15:47Z</time>
      </trkpt>
      <trkpt lat="45.51784" lon="6.0549">
        <ele>1038</ele>
        <time>2011-04-19T14:15:53Z</time>
      </trkpt>
      <trkpt lat="45.5178" lon="6.0548">
        <ele>1038</ele>
        <time>2011-04-19T14:16:01Z</time>
      </trkpt>
      <trkpt lat="45.51774" lon="6.05464">
        <ele>1037</ele>
        <time>2011-04-19T14:16:10Z</time>
      </trkpt>
      <trkpt lat="45.51773" lon="6.05456">
        <ele>1036</ele>
        <time>2011-04-19T14:16:17Z</time>
      </trkpt>
      <trkpt lat="45.51771" lon="6.05446">
        <ele>1035</ele>
        <time>2011-04-19T14:16:24Z</time>
      </trkpt>
      <trkpt lat="45.51768" lon="6.0544">
        <ele>1034</ele>
        <time>2011-04-19T14:16:30Z</time>
      </trkpt>
      <trkpt lat="45.51767" lon="6.0545">
        <ele>1030</ele>
        <time>2011-04-19T14:16:49Z</time>
      </trkpt>
      <trkpt lat="45.51765" lon="6.05455">
        <ele>1027</ele>
        <time>2011-04-19T14:16:57Z</time>
      </trkpt>
      <trkpt lat="45.51766" lon="6.05461">
        <ele>1026</ele>
        <time>2011-04-19T14:17:05Z</time>
      </trkpt>
      <trkpt lat="45.51765" lon="6.05472">
        <ele>1024</ele>
        <time>2011-04-19T14:17:42Z</time>
      </trkpt>
      <trkpt lat="45.51764" lon="6.05476">
        <ele>1022</ele>
        <time>2011-04-19T14:18:43Z</time>
      </trkpt>
      <trkpt lat="45.51763" lon="6.05484">
        <ele>1021</ele>
        <time>2011-04-19T14:18:50Z</time>
      </trkpt>
      <trkpt lat="45.5176" lon="6.05494">
        <ele>1019</ele>
        <time>2011-04-19T14:18:58Z</time>
      </trkpt>
      <trkpt lat="45.51758" lon="6.05504">
        <ele>1017</ele>
        <time>2011-04-19T14:19:06Z</time>
      </trkpt>
      <trkpt lat="45.51758" lon="6.05511">
        <ele>1015</ele>
        <time>2011-04-19T14:19:13Z</time>
      </trkpt>
      <trkpt lat="45.51758" lon="6.05516">
        <ele>1014</ele>
        <time>2011-04-19T14:19:19Z</time>
      </trkpt>
      <trkpt lat="45.51754" lon="6.05518">
        <ele>1010</ele>
        <time>2011-04-19T14:19:32Z</time>
      </trkpt>
      <trkpt lat="45.51753" lon="6.05511">
        <ele>1009</ele>
        <time>2011-04-19T14:19:41Z</time>
      </trkpt>
      <trkpt lat="45.51753" lon="6.05505">
        <ele>1007</ele>
        <time>2011-04-19T14:19:47Z</time>
      </trkpt>
      <trkpt lat="45.51752" lon="6.05499">
        <ele>1006</ele>
        <time>2011-04-19T14:19:52Z</time>
      </trkpt>
      <trkpt lat="45.5175" lon="6.0549">
        <ele>1004</ele>
        <time>2011-04-19T14:20:01Z</time>
      </trkpt>
      <trkpt lat="45.51747" lon="6.05474">
        <ele>1003</ele>
        <time>2011-04-19T14:20:14Z</time>
      </trkpt>
      <trkpt lat="45.51741" lon="6.05461">
        <ele>1001</ele>
        <time>2011-04-19T14:20:25Z</time>
      </trkpt>
      <trkpt lat="45.51735" lon="6.05458">
        <ele>998</ele>
        <time>2011-04-19T14:20:34Z</time>
      </trkpt>
      <trkpt lat="45.51727" lon="6.05448">
        <ele>995</ele>
        <time>2011-04-19T14:20:49Z</time>
      </trkpt>
      <trkpt lat="45.51724" lon="6.05445">
        <ele>994</ele>
        <time>2011-04-19T14:20:56Z</time>
      </trkpt>
      <trkpt lat="45.51717" lon="6.05454">
        <ele>992</ele>
        <time>2011-04-19T14:21:05Z</time>
      </trkpt>
      <trkpt lat="45.51716" lon="6.05459">
        <ele>988</ele>
        <time>2011-04-19T14:21:12Z</time>
      </trkpt>
      <trkpt lat="45.51713" lon="6.05454">
        <ele>986</ele>
        <time>2011-04-19T14:21:27Z</time>
      </trkpt>
      <trkpt lat="45.5171" lon="6.05447">
        <ele>984</ele>
        <time>2011-04-19T14:21:34Z</time>
      </trkpt>
      <trkpt lat="45.51711" lon="6.0544">
        <ele>983</ele>
        <time>2011-04-19T14:21:40Z</time>
      </trkpt>
      <trkpt lat="45.51708" lon="6.05432">
        <ele>982</ele>
        <time>2011-04-19T14:21:49Z</time>
      </trkpt>
      <trkpt lat="45.51705" lon="6.05421">
        <ele>981</ele>
        <time>2011-04-19T14:21:58Z</time>
      </trkpt>
      <trkpt lat="45.51701" lon="6.05411">
        <ele>980</ele>
        <time>2011-04-19T14:22:06Z</time>
      </trkpt>
      <trkpt lat="45.51699" lon="6.05403">
        <ele>978</ele>
        <time>2011-04-19T14:22:12Z</time>
      </trkpt>
      <trkpt lat="45.51695" lon="6.05398">
        <ele>977</ele>
        <time>2011-04-19T14:22:19Z</time>
      </trkpt>
      <trkpt lat="45.51693" lon="6.054">
        <ele>977</ele>
        <time>2011-04-19T14:22:31Z</time>
      </trkpt>
      <trkpt lat="45.51692" lon="6.05407">
        <ele>975</ele>
        <time>2011-04-19T14:22:39Z</time>
      </trkpt>
      <trkpt lat="45.5169" lon="6.05412">
        <ele>973</ele>
        <time>2011-04-19T14:22:45Z</time>
      </trkpt>
      <trkpt lat="45.51684" lon="6.05421">
        <ele>973</ele>
        <time>2011-04-19T14:22:52Z</time>
      </trkpt>
      <trkpt lat="45.51685" lon="6.05424">
        <ele>972</ele>
        <time>2011-04-19T14:23:04Z</time>
      </trkpt>
      <trkpt lat="45.51686" lon="6.05418">
        <ele>970</ele>
        <time>2011-04-19T14:23:12Z</time>
      </trkpt>
      <trkpt lat="45.51687" lon="6.05411">
        <ele>969</ele>
        <time>2011-04-19T14:23:20Z</time>
      </trkpt>
      <trkpt lat="45.51686" lon="6.05404">
        <ele>967</ele>
        <time>2011-04-19T14:23:28Z</time>
      </trkpt>
      <trkpt lat="45.51687" lon="6.05395">
        <ele>966</ele>
        <time>2011-04-19T14:23:35Z</time>
      </trkpt>
      <trkpt lat="45.51689" lon="6.05388">
        <ele>965</ele>
        <time>2011-04-19T14:23:42Z</time>
      </trkpt>
      <trkpt lat="45.51686" lon="6.05377">
        <ele>964</ele>
        <time>2011-04-19T14:23:50Z</time>
      </trkpt>
      <trkpt lat="45.51686" lon="6.05368">
        <ele>963</ele>
        <time>2011-04-19T14:23:58Z</time>
      </trkpt>
      <trkpt lat="45.5168" lon="6.05352">
        <ele>962</ele>
        <time>2011-04-19T14:24:05Z</time>
      </trkpt>
      <trkpt lat="45.51677" lon="6.05341">
        <ele>961</ele>
        <time>2011-04-19T14:24:13Z</time>
      </trkpt>
      <trkpt lat="45.51674" lon="6.05332">
        <ele>960</ele>
        <time>2011-04-19T14:24:21Z</time>
      </trkpt>
      <trkpt lat="45.5167" lon="6.05322">
        <ele>960</ele>
        <time>2011-04-19T14:24:29Z</time>
      </trkpt>
      <trkpt lat="45.51661" lon="6.05313">
        <ele>957</ele>
        <time>2011-04-19T14:24:46Z</time>
      </trkpt>
      <trkpt lat="45.51654" lon="6.05309">
        <ele>957</ele>
        <time>2011-04-19T14:24:54Z</time>
      </trkpt>
      <trkpt lat="45.51649" lon="6.05305">
        <ele>957</ele>
        <time>2011-04-19T14:25:00Z</time>
      </trkpt>
      <trkpt lat="45.51646" lon="6.05299">
        <ele>957</ele>
        <time>2011-04-19T14:25:06Z</time>
      </trkpt>
      <trkpt lat="45.51643" lon="6.05292">
        <ele>958</ele>
        <time>2011-04-19T14:25:12Z</time>
      </trkpt>
      <trkpt lat="45.51641" lon="6.05284">
        <ele>959</ele>
        <time>2011-04-19T14:25:20Z</time>
      </trkpt>
      <trkpt lat="45.51637" lon="6.05279">
        <ele>959</ele>
        <time>2011-04-19T14:25:26Z</time>
      </trkpt>
      <trkpt lat="45.51635" lon="6.05271">
        <ele>960</ele>
        <time>2011-04-19T14:25:34Z</time>
      </trkpt>
      <trkpt lat="45.51634" lon="6.05264">
        <ele>960</ele>
        <time>2011-04-19T14:25:40Z</time>
      </trkpt>
      <trkpt lat="45.51632" lon="6.05257">
        <ele>960</ele>
        <time>2011-04-19T14:25:48Z</time>
      </trkpt>
      <trkpt lat="45.51632" lon="6.0525">
        <ele>961</ele>
        <time>2011-04-19T14:25:55Z</time>
      </trkpt>
      <trkpt lat="45.5163" lon="6.05241">
        <ele>963</ele>
        <time>2011-04-19T14:26:03Z</time>
      </trkpt>
      <trkpt lat="45.51628" lon="6.05234">
        <ele>964</ele>
        <time>2011-04-19T14:26:11Z</time>
      </trkpt>
      <trkpt lat="45.51626" lon="6.05227">
        <ele>965</ele>
        <time>2011-04-19T14:26:19Z</time>
      </trkpt>
      <trkpt lat="45.51623" lon="6.05221">
        <ele>967</ele>
        <time>2011-04-19T14:26:25Z</time>
      </trkpt>
      <trkpt lat="45.51623" lon="6.05211">
        <ele>969</ele>
        <time>2011-04-19T14:26:33Z</time>
      </trkpt>
      <trkpt lat="45.51622" lon="6.05203">
        <ele>970</ele>
        <time>2011-04-19T14:26:44Z</time>
      </trkpt>
      <trkpt lat="45.51621" lon="6.05197">
        <ele>970</ele>
        <time>2011-04-19T14:26:51Z</time>
      </trkpt>
      <trkpt lat="45.51622" lon="6.05197">
        <ele>971</ele>
        <time>2011-04-19T14:26:57Z</time>
      </trkpt>
      <trkpt lat="45.51625" lon="6.05198">
        <ele>974</ele>
        <time>2011-04-19T14:27:07Z</time>
      </trkpt>
      <trkpt lat="45.51629" lon="6.05199">
        <ele>976</ele>
        <time>2011-04-19T14:27:17Z</time>
      </trkpt>
      <trkpt lat="45.51632" lon="6.05198">
        <ele>977</ele>
        <time>2011-04-19T14:27:23Z</time>
      </trkpt>
      <trkpt lat="45.51632" lon="6.05195">
        <ele>981</ele>
        <time>2011-04-19T14:27:29Z</time>
      </trkpt>
      <trkpt lat="45.51631" lon="6.05189">
        <ele>980</ele>
        <time>2011-04-19T14:27:38Z</time>
      </trkpt>
      <trkpt lat="45.51628" lon="6.05182">
        <ele>982</ele>
        <time>2011-04-19T14:27:50Z</time>
      </trkpt>
      <trkpt lat="45.51625" lon="6.05174">
        <ele>984</ele>
        <time>2011-04-19T14:28:01Z</time>
      </trkpt>
      <trkpt lat="45.51621" lon="6.05169">
        <ele>986</ele>
        <time>2011-04-19T14:28:10Z</time>
      </trkpt>
      <trkpt lat="45.51619" lon="6.05164">
        <ele>987</ele>
        <time>2011-04-19T14:28:18Z</time>
      </trkpt>
      <trkpt lat="45.51618" lon="6.05158">
        <ele>988</ele>
        <time>2011-04-19T14:28:24Z</time>
      </trkpt>
      <trkpt lat="45.51618" lon="6.05149">
        <ele>993</ele>
        <time>2011-04-19T14:28:35Z</time>
      </trkpt>
      <trkpt lat="45.51617" lon="6.05147">
        <ele>997</ele>
        <time>2011-04-19T14:28:38Z</time>
      </trkpt>
      <trkpt lat="45.51614" lon="6.05144">
        <ele>1000</ele>
        <time>2011-04-19T14:28:42Z</time>
      </trkpt>
      <trkpt lat="45.51614" lon="6.05143">
        <ele>993</ele>
        <time>2011-04-19T14:28:43Z</time>
      </trkpt>
      <trkpt lat="45.51612" lon="6.05141">
        <ele>996</ele>
        <time>2011-04-19T14:28:46Z</time>
      </trkpt>
      <trkpt lat="45.51611" lon="6.05138">
        <ele>993</ele>
        <time>2011-04-19T14:28:48Z</time>
      </trkpt>
      <trkpt lat="45.5161" lon="6.05136">
        <ele>990</ele>
        <time>2011-04-19T14:28:53Z</time>
      </trkpt>
      <trkpt lat="45.51605" lon="6.05124">
        <ele>989</ele>
        <time>2011-04-19T14:29:04Z</time>
      </trkpt>
      <trkpt lat="45.51601" lon="6.05118">
        <ele>987</ele>
        <time>2011-04-19T14:29:11Z</time>
      </trkpt>
      <trkpt lat="45.516" lon="6.05111">
        <ele>986</ele>
        <time>2011-04-19T14:29:19Z</time>
      </trkpt>
      <trkpt lat="45.51594" lon="6.05108">
        <ele>983</ele>
        <time>2011-04-19T14:29:31Z</time>
      </trkpt>
      <trkpt lat="45.51594" lon="6.0511">
        <ele>981</ele>
        <time>2011-04-19T14:29:37Z</time>
      </trkpt>
      <trkpt lat="45.51594" lon="6.05114">
        <ele>979</ele>
        <time>2011-04-19T14:29:47Z</time>
      </trkpt>
      <trkpt lat="45.51591" lon="6.05115">
        <ele>977</ele>
        <time>2011-04-19T14:29:53Z</time>
      </trkpt>
      <trkpt lat="45.51589" lon="6.05114">
        <ele>974</ele>
        <time>2011-04-19T14:29:58Z</time>
      </trkpt>
      <trkpt lat="45.51584" lon="6.05118">
        <ele>974</ele>
        <time>2011-04-19T14:30:16Z</time>
      </trkpt>
      <trkpt lat="45.51582" lon="6.05117">
        <ele>973</ele>
        <time>2011-04-19T14:30:35Z</time>
      </trkpt>
      <trkpt lat="45.51578" lon="6.05115">
        <ele>972</ele>
        <time>2011-04-19T14:30:42Z</time>
      </trkpt>
      <trkpt lat="45.51572" lon="6.05105">
        <ele>969</ele>
        <time>2011-04-19T14:30:52Z</time>
      </trkpt>
      <trkpt lat="45.51567" lon="6.05101">
        <ele>968</ele>
        <time>2011-04-19T14:30:59Z</time>
      </trkpt>
      <trkpt lat="45.51559" lon="6.05098">
        <ele>965</ele>
        <time>2011-04-19T14:31:07Z</time>
      </trkpt>
      <trkpt lat="45.5155" lon="6.05094">
        <ele>963</ele>
        <time>2011-04-19T14:31:16Z</time>
      </trkpt>
      <trkpt lat="45.51547" lon="6.05094">
        <ele>962</ele>
        <time>2011-04-19T14:31:22Z</time>
      </trkpt>
      <trkpt lat="45.51543" lon="6.05094">
        <ele>961</ele>
        <time>2011-04-19T14:31:40Z</time>
      </trkpt>
      <trkpt lat="45.51547" lon="6.05098">
        <ele>959</ele>
        <time>2011-04-19T14:31:50Z</time>
      </trkpt>
      <trkpt lat="45.51551" lon="6.05105">
        <ele>957</ele>
        <time>2011-04-19T14:31:57Z</time>
      </trkpt>
      <trkpt lat="45.51558" lon="6.05111">
        <ele>955</ele>
        <time>2011-04-19T14:32:05Z</time>
      </trkpt>
      <trkpt lat="45.51562" lon="6.05116">
        <ele>953</ele>
        <time>2011-04-19T14:32:11Z</time>
      </trkpt>
      <trkpt lat="45.5156" lon="6.05123">
        <ele>950</ele>
        <time>2011-04-19T14:32:22Z</time>
      </trkpt>
      <trkpt lat="45.51552" lon="6.05126">
        <ele>948</ele>
        <time>2011-04-19T14:32:29Z</time>
      </trkpt>
      <trkpt lat="45.51545" lon="6.05127">
        <ele>949</ele>
        <time>2011-04-19T14:32:37Z</time>
      </trkpt>
      <trkpt lat="45.51543" lon="6.05127">
        <ele>949</ele>
        <time>2011-04-19T14:32:40Z</time>
      </trkpt>
      <trkpt lat="45.51542" lon="6.05125">
        <ele>947</ele>
        <time>2011-04-19T14:32:43Z</time>
      </trkpt>
      <trkpt lat="45.51535" lon="6.05121">
        <ele>947</ele>
        <time>2011-04-19T14:32:52Z</time>
      </trkpt>
      <trkpt lat="45.51531" lon="6.05116">
        <ele>946</ele>
        <time>2011-04-19T14:32:58Z</time>
      </trkpt>
      <trkpt lat="45.51525" lon="6.05113">
        <ele>946</ele>
        <time>2011-04-19T14:33:05Z</time>
      </trkpt>
      <trkpt lat="45.51518" lon="6.05105">
        <ele>945</ele>
        <time>2011-04-19T14:33:14Z</time>
      </trkpt>
      <trkpt lat="45.5151" lon="6.05098">
        <ele>944</ele>
        <time>2011-04-19T14:33:22Z</time>
      </trkpt>
      <trkpt lat="45.51502" lon="6.05092">
        <ele>944</ele>
        <time>2011-04-19T14:33:31Z</time>
      </trkpt>
      <trkpt lat="45.51497" lon="6.0508">
        <ele>944</ele>
        <time>2011-04-19T14:33:38Z</time>
      </trkpt>
      <trkpt lat="45.51491" lon="6.05076">
        <ele>943</ele>
        <time>2011-04-19T14:33:45Z</time>
      </trkpt>
      <trkpt lat="45.51484" lon="6.05066">
        <ele>942</ele>
        <time>2011-04-19T14:33:55Z</time>
      </trkpt>
      <trkpt lat="45.51478" lon="6.05057">
        <ele>940</ele>
        <time>2011-04-19T14:34:05Z</time>
      </trkpt>
      <trkpt lat="45.51473" lon="6.05051">
        <ele>939</ele>
        <time>2011-04-19T14:34:14Z</time>
      </trkpt>
      <trkpt lat="45.51464" lon="6.05046">
        <ele>938</ele>
        <time>2011-04-19T14:34:23Z</time>
      </trkpt>
      <trkpt lat="45.51453" lon="6.05025">
        <ele>936</ele>
        <time>2011-04-19T14:34:41Z</time>
      </trkpt>
      <trkpt lat="45.51444" lon="6.05029">
        <ele>932</ele>
        <time>2011-04-19T14:34:54Z</time>
      </trkpt>
      <trkpt lat="45.51435" lon="6.05036">
        <ele>929</ele>
        <time>2011-04-19T14:35:03Z</time>
      </trkpt>
      <trkpt lat="45.51432" lon="6.05044">
        <ele>928</ele>
        <time>2011-04-19T14:35:10Z</time>
      </trkpt>
      <trkpt lat="45.51426" lon="6.0505">
        <ele>927</ele>
        <time>2011-04-19T14:35:16Z</time>
      </trkpt>
      <trkpt lat="45.51418" lon="6.05054">
        <ele>925</ele>
        <time>2011-04-19T14:35:22Z</time>
      </trkpt>
      <trkpt lat="45.5141" lon="6.05052">
        <ele>923</ele>
        <time>2011-04-19T14:35:31Z</time>
      </trkpt>
      <trkpt lat="45.51405" lon="6.05048">
        <ele>919</ele>
        <time>2011-04-19T14:35:39Z</time>
      </trkpt>
      <trkpt lat="45.51398" lon="6.05048">
        <ele>919</ele>
        <time>2011-04-19T14:35:47Z</time>
      </trkpt>
      <trkpt lat="45.51391" lon="6.05047">
        <ele>917</ele>
        <time>2011-04-19T14:35:54Z</time>
      </trkpt>
      <trkpt lat="45.51385" lon="6.05045">
        <ele>914</ele>
        <time>2011-04-19T14:36:02Z</time>
      </trkpt>
      <trkpt lat="45.51383" lon="6.05051">
        <ele>912</ele>
        <time>2011-04-19T14:36:11Z</time>
      </trkpt>
      <trkpt lat="45.51382" lon="6.05059">
        <ele>911</ele>
        <time>2011-04-19T14:36:18Z</time>
      </trkpt>
      <trkpt lat="45.51382" lon="6.05063">
        <ele>909</ele>
        <time>2011-04-19T14:36:23Z</time>
      </trkpt>
      <trkpt lat="45.51386" lon="6.05072">
        <ele>908</ele>
        <time>2011-04-19T14:36:32Z</time>
      </trkpt>
      <trkpt lat="45.51388" lon="6.05079">
        <ele>906</ele>
        <time>2011-04-19T14:36:39Z</time>
      </trkpt>
      <trkpt lat="45.51392" lon="6.05089">
        <ele>904</ele>
        <time>2011-04-19T14:36:47Z</time>
      </trkpt>
      <trkpt lat="45.51393" lon="6.051">
        <ele>903</ele>
        <time>2011-04-19T14:36:56Z</time>
      </trkpt>
      <trkpt lat="45.51398" lon="6.05112">
        <ele>901</ele>
        <time>2011-04-19T14:37:04Z</time>
      </trkpt>
      <trkpt lat="45.51404" lon="6.0512">
        <ele>898</ele>
        <time>2011-04-19T14:37:11Z</time>
      </trkpt>
      <trkpt lat="45.51406" lon="6.05126">
        <ele>897</ele>
        <time>2011-04-19T14:37:17Z</time>
      </trkpt>
      <trkpt lat="45.51409" lon="6.05133">
        <ele>895</ele>
        <time>2011-04-19T14:37:24Z</time>
      </trkpt>
      <trkpt lat="45.5141" lon="6.05143">
        <ele>893</ele>
        <time>2011-04-19T14:37:33Z</time>
      </trkpt>
      <trkpt lat="45.51413" lon="6.05149">
        <ele>891</ele>
        <time>2011-04-19T14:37:39Z</time>
      </trkpt>
      <trkpt lat="45.51416" lon="6.05159">
        <ele>888</ele>
        <time>2011-04-19T14:37:47Z</time>
      </trkpt>
      <trkpt lat="45.5142" lon="6.05166">
        <ele>887</ele>
        <time>2011-04-19T14:37:57Z</time>
      </trkpt>
      <trkpt lat="45.51419" lon="6.05169">
        <ele>885</ele>
        <time>2011-04-19T14:38:42Z</time>
      </trkpt>
      <trkpt lat="45.51414" lon="6.05171">
        <ele>884</ele>
        <time>2011-04-19T14:38:48Z</time>
      </trkpt>
      <trkpt lat="45.51409" lon="6.05171">
        <ele>881</ele>
        <time>2011-04-19T14:38:58Z</time>
      </trkpt>
      <trkpt lat="45.51403" lon="6.05165">
        <ele>878</ele>
        <time>2011-04-19T14:39:09Z</time>
      </trkpt>
      <trkpt lat="45.51397" lon="6.05164">
        <ele>876</ele>
        <time>2011-04-19T14:39:16Z</time>
      </trkpt>
      <trkpt lat="45.51388" lon="6.05163">
        <ele>874</ele>
        <time>2011-04-19T14:39:26Z</time>
      </trkpt>
      <trkpt lat="45.51381" lon="6.05163">
        <ele>871</ele>
        <time>2011-04-19T14:39:35Z</time>
      </trkpt>
      <trkpt lat="45.51374" lon="6.05158">
        <ele>869</ele>
        <time>2011-04-19T14:39:43Z</time>
      </trkpt>
      <trkpt lat="45.51368" lon="6.05155">
        <ele>869</ele>
        <time>2011-04-19T14:39:49Z</time>
      </trkpt>
      <trkpt lat="45.51356" lon="6.05153">
        <ele>868</ele>
        <time>2011-04-19T14:40:00Z</time>
      </trkpt>
      <trkpt lat="45.51348" lon="6.05151">
        <ele>866</ele>
        <time>2011-04-19T14:40:07Z</time>
      </trkpt>
      <trkpt lat="45.51343" lon="6.05149">
        <ele>864</ele>
        <time>2011-04-19T14:40:13Z</time>
      </trkpt>
      <trkpt lat="45.51338" lon="6.05144">
        <ele>863</ele>
        <time>2011-04-19T14:40:18Z</time>
      </trkpt>
      <trkpt lat="45.5133" lon="6.05139">
        <ele>861</ele>
        <time>2011-04-19T14:40:25Z</time>
      </trkpt>
      <trkpt lat="45.51322" lon="6.05133">
        <ele>860</ele>
        <time>2011-04-19T14:40:33Z</time>
      </trkpt>
      <trkpt lat="45.51316" lon="6.05131">
        <ele>859</ele>
        <time>2011-04-19T14:40:39Z</time>
      </trkpt>
      <trkpt lat="45.51309" lon="6.05126">
        <ele>857</ele>
        <time>2011-04-19T14:40:48Z</time>
      </trkpt>
      <trkpt lat="45.51303" lon="6.05123">
        <ele>855</ele>
        <time>2011-04-19T14:40:54Z</time>
      </trkpt>
      <trkpt lat="45.51299" lon="6.05121">
        <ele>853</ele>
        <time>2011-04-19T14:40:58Z</time>
      </trkpt>
      <trkpt lat="45.51297" lon="6.0512">
        <ele>852</ele>
        <time>2011-04-19T14:41:01Z</time>
      </trkpt>
      <trkpt lat="45.51294" lon="6.05119">
        <ele>850</ele>
        <time>2011-04-19T14:41:04Z</time>
      </trkpt>
      <trkpt lat="45.51287" lon="6.05114">
        <ele>848</ele>
        <time>2011-04-19T14:41:12Z</time>
      </trkpt>
      <trkpt lat="45.51279" lon="6.05109">
        <ele>846</ele>
        <time>2011-04-19T14:41:21Z</time>
      </trkpt>
      <trkpt lat="45.51276" lon="6.05102">
        <ele>844</ele>
        <time>2011-04-19T14:41:27Z</time>
      </trkpt>
      <trkpt lat="45.51272" lon="6.05092">
        <ele>842</ele>
        <time>2011-04-19T14:41:35Z</time>
      </trkpt>
      <trkpt lat="45.5127" lon="6.05083">
        <ele>840</ele>
        <time>2011-04-19T14:41:42Z</time>
      </trkpt>
      <trkpt lat="45.51266" lon="6.05077">
        <ele>840</ele>
        <time>2011-04-19T14:41:48Z</time>
      </trkpt>
      <trkpt lat="45.51259" lon="6.05072">
        <ele>838</ele>
        <time>2011-04-19T14:41:54Z</time>
      </trkpt>
      <trkpt lat="45.51254" lon="6.05066">
        <ele>836</ele>
        <time>2011-04-19T14:42:04Z</time>
      </trkpt>
      <trkpt lat="45.51257" lon="6.05071">
        <ele>834</ele>
        <time>2011-04-19T14:42:13Z</time>
      </trkpt>
      <trkpt lat="45.51253" lon="6.05075">
        <ele>832</ele>
        <time>2011-04-19T14:42:24Z</time>
      </trkpt>
      <trkpt lat="45.51248" lon="6.05078">
        <ele>829</ele>
        <time>2011-04-19T14:42:29Z</time>
      </trkpt>
      <trkpt lat="45.5124" lon="6.05078">
        <ele>826</ele>
        <time>2011-04-19T14:42:41Z</time>
      </trkpt>
      <trkpt lat="45.51236" lon="6.05079">
        <ele>824</ele>
        <time>2011-04-19T14:42:49Z</time>
      </trkpt>
      <trkpt lat="45.5124" lon="6.05084">
        <ele>822</ele>
        <time>2011-04-19T14:42:59Z</time>
      </trkpt>
      <trkpt lat="45.51246" lon="6.05091">
        <ele>820</ele>
        <time>2011-04-19T14:43:07Z</time>
      </trkpt>
      <trkpt lat="45.51243" lon="6.05104">
        <ele>817</ele>
        <time>2011-04-19T14:43:17Z</time>
      </trkpt>
      <trkpt lat="45.51243" lon="6.0511">
        <ele>814</ele>
        <time>2011-04-19T14:43:24Z</time>
      </trkpt>
      <trkpt lat="45.51245" lon="6.05123">
        <ele>811</ele>
        <time>2011-04-19T14:43:36Z</time>
      </trkpt>
      <trkpt lat="45.5125" lon="6.05138">
        <ele>809</ele>
        <time>2011-04-19T14:43:45Z</time>
      </trkpt>
      <trkpt lat="45.51258" lon="6.05147">
        <ele>807</ele>
        <time>2011-04-19T14:43:54Z</time>
      </trkpt>
      <trkpt lat="45.51265" lon="6.05157">
        <ele>807</ele>
        <time>2011-04-19T14:44:03Z</time>
      </trkpt>
      <trkpt lat="45.51266" lon="6.05159">
        <ele>807</ele>
        <time>2011-04-19T14:44:05Z</time>
      </trkpt>
      <trkpt lat="45.5127" lon="6.05161">
        <ele>806</ele>
        <time>2011-04-19T14:44:08Z</time>
      </trkpt>
      <trkpt lat="45.51275" lon="6.05172">
        <ele>805</ele>
        <time>2011-04-19T14:44:17Z</time>
      </trkpt>
      <trkpt lat="45.51274" lon="6.05178">
        <ele>803</ele>
        <time>2011-04-19T14:44:26Z</time>
      </trkpt>
      <trkpt lat="45.51268" lon="6.05175">
        <ele>801</ele>
        <time>2011-04-19T14:44:37Z</time>
      </trkpt>
      <trkpt lat="45.51261" lon="6.05174">
        <ele>799</ele>
        <time>2011-04-19T14:44:45Z</time>
      </trkpt>
      <trkpt lat="45.51257" lon="6.05171">
        <ele>797</ele>
        <time>2011-04-19T14:44:51Z</time>
      </trkpt>
      <trkpt lat="45.51251" lon="6.0517">
        <ele>794</ele>
        <time>2011-04-19T14:44:58Z</time>
      </trkpt>
      <trkpt lat="45.51243" lon="6.05168">
        <ele>793</ele>
        <time>2011-04-19T14:45:05Z</time>
      </trkpt>
      <trkpt lat="45.51238" lon="6.05156">
        <ele>791</ele>
        <time>2011-04-19T14:45:16Z</time>
      </trkpt>
      <trkpt lat="45.51233" lon="6.05145">
        <ele>789</ele>
        <time>2011-04-19T14:45:27Z</time>
      </trkpt>
      <trkpt lat="45.51225" lon="6.05147">
        <ele>786</ele>
        <time>2011-04-19T14:45:35Z</time>
      </trkpt>
      <trkpt lat="45.51218" lon="6.05146">
        <ele>784</ele>
        <time>2011-04-19T14:45:42Z</time>
      </trkpt>
      <trkpt lat="45.51211" lon="6.05148">
        <ele>782</ele>
        <time>2011-04-19T14:45:48Z</time>
      </trkpt>
      <trkpt lat="45.51205" lon="6.05142">
        <ele>780</ele>
        <time>2011-04-19T14:45:55Z</time>
      </trkpt>
      <trkpt lat="45.51206" lon="6.05145">
        <ele>779</ele>
        <time>2011-04-19T14:46:05Z</time>
      </trkpt>
      <trkpt lat="45.51207" lon="6.05149">
        <ele>777</ele>
        <time>2011-04-19T14:46:10Z</time>
      </trkpt>
      <trkpt lat="45.51214" lon="6.05152">
        <ele>776</ele>
        <time>2011-04-19T14:46:19Z</time>
      </trkpt>
      <trkpt lat="45.51218" lon="6.05156">
        <ele>775</ele>
        <time>2011-04-19T14:46:28Z</time>
      </trkpt>
      <trkpt lat="45.51219" lon="6.05162">
        <ele>773</ele>
        <time>2011-04-19T14:46:36Z</time>
      </trkpt>
      <trkpt lat="45.51221" lon="6.0517">
        <ele>771</ele>
        <time>2011-04-19T14:46:43Z</time>
      </trkpt>
      <trkpt lat="45.51222" lon="6.05171">
        <ele>770</ele>
        <time>2011-04-19T14:46:45Z</time>
      </trkpt>
      <trkpt lat="45.51232" lon="6.05178">
        <ele>768</ele>
        <time>2011-04-19T14:46:54Z</time>
      </trkpt>
      <trkpt lat="45.51237" lon="6.05183">
        <ele>766</ele>
        <time>2011-04-19T14:47:00Z</time>
      </trkpt>
      <trkpt lat="45.51238" lon="6.05197">
        <ele>764</ele>
        <time>2011-04-19T14:47:08Z</time>
      </trkpt>
      <trkpt lat="45.51241" lon="6.05205">
        <ele>763</ele>
        <time>2011-04-19T14:47:16Z</time>
      </trkpt>
      <trkpt lat="45.51245" lon="6.05216">
        <ele>762</ele>
        <time>2011-04-19T14:47:23Z</time>
      </trkpt>
      <trkpt lat="45.51251" lon="6.05229">
        <ele>761</ele>
        <time>2011-04-19T14:47:32Z</time>
      </trkpt>
      <trkpt lat="45.51248" lon="6.05236">
        <ele>759</ele>
        <time>2011-04-19T14:47:40Z</time>
      </trkpt>
      <trkpt lat="45.51246" lon="6.0524">
        <ele>758</ele>
        <time>2011-04-19T14:47:43Z</time>
      </trkpt>
      <trkpt lat="45.51246" lon="6.05246">
        <ele>757</ele>
        <time>2011-04-19T14:47:48Z</time>
      </trkpt>
      <trkpt lat="45.51246" lon="6.05256">
        <ele>755</ele>
        <time>2011-04-19T14:47:54Z</time>
      </trkpt>
      <trkpt lat="45.5125" lon="6.05266">
        <ele>753</ele>
        <time>2011-04-19T14:48:01Z</time>
      </trkpt>
      <trkpt lat="45.51251" lon="6.05273">
        <ele>751</ele>
        <time>2011-04-19T14:48:07Z</time>
      </trkpt>
      <trkpt lat="45.51262" lon="6.05283">
        <ele>749</ele>
        <time>2011-04-19T14:48:18Z</time>
      </trkpt>
      <trkpt lat="45.51266" lon="6.05291">
        <ele>747</ele>
        <time>2011-04-19T14:48:25Z</time>
      </trkpt>
      <trkpt lat="45.51269" lon="6.05297">
        <ele>747</ele>
        <time>2011-04-19T14:48:30Z</time>
      </trkpt>
      <trkpt lat="45.51277" lon="6.05303">
        <ele>745</ele>
        <time>2011-04-19T14:48:38Z</time>
      </trkpt>
      <trkpt lat="45.51282" lon="6.05303">
        <ele>745</ele>
        <time>2011-04-19T14:48:44Z</time>
      </trkpt>
      <trkpt lat="45.51283" lon="6.05312">
        <ele>742</ele>
        <time>2011-04-19T14:48:52Z</time>
      </trkpt>
      <trkpt lat="45.51285" lon="6.0532">
        <ele>741</ele>
        <time>2011-04-19T14:49:01Z</time>
      </trkpt>
      <trkpt lat="45.51289" lon="6.05334">
        <ele>739</ele>
        <time>2011-04-19T14:49:09Z</time>
      </trkpt>
      <trkpt lat="45.51291" lon="6.05343">
        <ele>737</ele>
        <time>2011-04-19T14:49:15Z</time>
      </trkpt>
      <trkpt lat="45.51294" lon="6.05353">
        <ele>736</ele>
        <time>2011-04-19T14:49:22Z</time>
      </trkpt>
      <trkpt lat="45.51296" lon="6.05358">
        <ele>735</ele>
        <time>2011-04-19T14:49:24Z</time>
      </trkpt>
      <trkpt lat="45.513" lon="6.05369">
        <ele>734</ele>
        <time>2011-04-19T14:49:30Z</time>
      </trkpt>
      <trkpt lat="45.51306" lon="6.05375">
        <ele>732</ele>
        <time>2011-04-19T14:49:37Z</time>
      </trkpt>
      <trkpt lat="45.5131" lon="6.05379">
        <ele>730</ele>
        <time>2011-04-19T14:49:43Z</time>
      </trkpt>
      <trkpt lat="45.51308" lon="6.05381">
        <ele>727</ele>
        <time>2011-04-19T14:49:53Z</time>
      </trkpt>
      <trkpt lat="45.51303" lon="6.05381">
        <ele>725</ele>
        <time>2011-04-19T14:50:15Z</time>
      </trkpt>
      <trkpt lat="45.51298" lon="6.05379">
        <ele>723</ele>
        <time>2011-04-19T14:50:21Z</time>
      </trkpt>
      <trkpt lat="45.51293" lon="6.05375">
        <ele>722</ele>
        <time>2011-04-19T14:50:27Z</time>
      </trkpt>
      <trkpt lat="45.5129" lon="6.05374">
        <ele>720</ele>
        <time>2011-04-19T14:50:31Z</time>
      </trkpt>
      <trkpt lat="45.51281" lon="6.05371">
        <ele>718</ele>
        <time>2011-04-19T14:50:39Z</time>
      </trkpt>
      <trkpt lat="45.51273" lon="6.05367">
        <ele>715</ele>
        <time>2011-04-19T14:50:47Z</time>
      </trkpt>
      <trkpt lat="45.51265" lon="6.05363">
        <ele>713</ele>
        <time>2011-04-19T14:50:58Z</time>
      </trkpt>
      <trkpt lat="45.51255" lon="6.05364">
        <ele>710</ele>
        <time>2011-04-19T14:51:09Z</time>
      </trkpt>
      <trkpt lat="45.51247" lon="6.05365">
        <ele>708</ele>
        <time>2011-04-19T14:51:17Z</time>
      </trkpt>
      <trkpt lat="45.51244" lon="6.05362">
        <ele>706</ele>
        <time>2011-04-19T14:51:23Z</time>
      </trkpt>
      <trkpt lat="45.51238" lon="6.0536">
        <ele>706</ele>
        <time>2011-04-19T14:51:28Z</time>
      </trkpt>
      <trkpt lat="45.51231" lon="6.05355">
        <ele>703</ele>
        <time>2011-04-19T14:51:37Z</time>
      </trkpt>
      <trkpt lat="45.51225" lon="6.05353">
        <ele>700</ele>
        <time>2011-04-19T14:51:43Z</time>
      </trkpt>
      <trkpt lat="45.51216" lon="6.0535">
        <ele>698</ele>
        <time>2011-04-19T14:51:51Z</time>
      </trkpt>
      <trkpt lat="45.51209" lon="6.05343">
        <ele>695</ele>
        <time>2011-04-19T14:52:00Z</time>
      </trkpt>
      <trkpt lat="45.51201" lon="6.05339">
        <ele>692</ele>
        <time>2011-04-19T14:52:09Z</time>
      </trkpt>
      <trkpt lat="45.51195" lon="6.05336">
        <ele>690</ele>
        <time>2011-04-19T14:52:16Z</time>
      </trkpt>
      <trkpt lat="45.51188" lon="6.05328">
        <ele>687</ele>
        <time>2011-04-19T14:52:25Z</time>
      </trkpt>
      <trkpt lat="45.51183" lon="6.05322">
        <ele>685</ele>
        <time>2011-04-19T14:52:34Z</time>
      </trkpt>
      <trkpt lat="45.51179" lon="6.05317">
        <ele>682</ele>
        <time>2011-04-19T14:52:42Z</time>
      </trkpt>
      <trkpt lat="45.51166" lon="6.05309">
        <ele>679</ele>
        <time>2011-04-19T14:52:57Z</time>
      </trkpt>
      <trkpt lat="45.51159" lon="6.05305">
        <ele>677</ele>
        <time>2011-04-19T14:53:05Z</time>
      </trkpt>
      <trkpt lat="45.51153" lon="6.05302">
        <ele>675</ele>
        <time>2011-04-19T14:53:11Z</time>
      </trkpt>
      <trkpt lat="45.51147" lon="6.05297">
        <ele>673</ele>
        <time>2011-04-19T14:53:19Z</time>
      </trkpt>
      <trkpt lat="45.51138" lon="6.05298">
        <ele>670</ele>
        <time>2011-04-19T14:53:27Z</time>
      </trkpt>
      <trkpt lat="45.51133" lon="6.05294">
        <ele>668</ele>
        <time>2011-04-19T14:53:33Z</time>
      </trkpt>
      <trkpt lat="45.51126" lon="6.05293">
        <ele>665</ele>
        <time>2011-04-19T14:53:40Z</time>
      </trkpt>
      <trkpt lat="45.5112" lon="6.05286">
        <ele>664</ele>
        <time>2011-04-19T14:53:48Z</time>
      </trkpt>
      <trkpt lat="45.51118" lon="6.05284">
        <ele>662</ele>
        <time>2011-04-19T14:53:51Z</time>
      </trkpt>
      <trkpt lat="45.51111" lon="6.05277">
        <ele>661</ele>
        <time>2011-04-19T14:54:02Z</time>
      </trkpt>
      <trkpt lat="45.51106" lon="6.05266">
        <ele>658</ele>
        <time>2011-04-19T14:54:11Z</time>
      </trkpt>
      <trkpt lat="45.511" lon="6.05261">
        <ele>657</ele>
        <time>2011-04-19T14:54:18Z</time>
      </trkpt>
      <trkpt lat="45.51093" lon="6.05253">
        <ele>654</ele>
        <time>2011-04-19T14:54:26Z</time>
      </trkpt>
      <trkpt lat="45.51089" lon="6.05245">
        <ele>652</ele>
        <time>2011-04-19T14:54:34Z</time>
      </trkpt>
      <trkpt lat="45.51081" lon="6.05242">
        <ele>650</ele>
        <time>2011-04-19T14:54:42Z</time>
      </trkpt>
      <trkpt lat="45.51074" lon="6.05239">
        <ele>649</ele>
        <time>2011-04-19T14:54:48Z</time>
      </trkpt>
      <trkpt lat="45.51069" lon="6.05235">
        <ele>646</ele>
        <time>2011-04-19T14:54:55Z</time>
      </trkpt>
      <trkpt lat="45.51063" lon="6.05229">
        <ele>643</ele>
        <time>2011-04-19T14:55:01Z</time>
      </trkpt>
      <trkpt lat="45.5106" lon="6.05226">
        <ele>641</ele>
        <time>2011-04-19T14:55:07Z</time>
      </trkpt>
      <trkpt lat="45.51056" lon="6.0522">
        <ele>639</ele>
        <time>2011-04-19T14:55:15Z</time>
      </trkpt>
      <trkpt lat="45.51054" lon="6.05214">
        <ele>638</ele>
        <time>2011-04-19T14:55:20Z</time>
      </trkpt>
      <trkpt lat="45.51053" lon="6.05212">
        <ele>637</ele>
        <time>2011-04-19T14:55:22Z</time>
      </trkpt>
      <trkpt lat="45.51048" lon="6.05201">
        <ele>635</ele>
        <time>2011-04-19T14:55:30Z</time>
      </trkpt>
      <trkpt lat="45.51046" lon="6.05195">
        <ele>634</ele>
        <time>2011-04-19T14:55:36Z</time>
      </trkpt>
      <trkpt lat="45.51042" lon="6.05188">
        <ele>633</ele>
        <time>2011-04-19T14:55:43Z</time>
      </trkpt>
      <trkpt lat="45.51037" lon="6.0518">
        <ele>632</ele>
        <time>2011-04-19T14:55:59Z</time>
      </trkpt>
      <trkpt lat="45.51036" lon="6.05179">
        <ele>632</ele>
        <time>2011-04-19T14:56:09Z</time>
      </trkpt>
      <trkpt lat="45.51034" lon="6.05174">
        <ele>632</ele>
        <time>2011-04-19T14:56:24Z</time>
      </trkpt>
      <trkpt lat="45.51032" lon="6.05169">
        <ele>630</ele>
        <time>2011-04-19T14:56:32Z</time>
      </trkpt>
      <trkpt lat="45.5103" lon="6.05161">
        <ele>629</ele>
        <time>2011-04-19T14:56:39Z</time>
      </trkpt>
      <trkpt lat="45.5103" lon="6.05151">
        <ele>626</ele>
        <time>2011-04-19T14:56:48Z</time>
      </trkpt>
      <trkpt lat="45.51028" lon="6.05142">
        <ele>625</ele>
        <time>2011-04-19T14:56:56Z</time>
      </trkpt>
      <trkpt lat="45.51029" lon="6.05129">
        <ele>623</ele>
        <time>2011-04-19T14:57:06Z</time>
      </trkpt>
      <trkpt lat="45.5103" lon="6.0512">
        <ele>620</ele>
        <time>2011-04-19T14:57:13Z</time>
      </trkpt>
      <trkpt lat="45.51029" lon="6.05107">
        <ele>619</ele>
        <time>2011-04-19T14:57:21Z</time>
      </trkpt>
      <trkpt lat="45.51027" lon="6.05098">
        <ele>618</ele>
        <time>2011-04-19T14:57:27Z</time>
      </trkpt>
      <trkpt lat="45.5102" lon="6.05087">
        <ele>617</ele>
        <time>2011-04-19T14:57:35Z</time>
      </trkpt>
      <trkpt lat="45.51017" lon="6.05081">
        <ele>617</ele>
        <time>2011-04-19T14:57:50Z</time>
      </trkpt>
      <trkpt lat="45.51015" lon="6.05069">
        <ele>612</ele>
        <time>2011-04-19T15:04:30Z</time>
      </trkpt>
      <trkpt lat="45.51013" lon="6.05063">
        <ele>612</ele>
        <time>2011-04-19T15:04:35Z</time>
      </trkpt>
      <trkpt lat="45.51007" lon="6.05053">
        <ele>611</ele>
        <time>2011-04-19T15:04:43Z</time>
      </trkpt>
      <trkpt lat="45.51002" lon="6.05046">
        <ele>609</ele>
        <time>2011-04-19T15:04:52Z</time>
      </trkpt>
      <trkpt lat="45.50996" lon="6.0504">
        <ele>608</ele>
        <time>2011-04-19T15:04:58Z</time>
      </trkpt>
      <trkpt lat="45.50992" lon="6.05035">
        <ele>605</ele>
        <time>2011-04-19T15:05:03Z</time>
      </trkpt>
      <trkpt lat="45.50985" lon="6.05028">
        <ele>605</ele>
        <time>2011-04-19T15:05:11Z</time>
      </trkpt>
      <trkpt lat="45.50978" lon="6.05022">
        <ele>603</ele>
        <time>2011-04-19T15:05:19Z</time>
      </trkpt>
      <trkpt lat="45.50974" lon="6.05016">
        <ele>601</ele>
        <time>2011-04-19T15:05:24Z</time>
      </trkpt>
      <trkpt lat="45.50968" lon="6.05006">
        <ele>599</ele>
        <time>2011-04-19T15:05:33Z</time>
      </trkpt>
      <trkpt lat="45.50964" lon="6.05">
        <ele>598</ele>
        <time>2011-04-19T15:05:39Z</time>
      </trkpt>
      <trkpt lat="45.50959" lon="6.04992">
        <ele>596</ele>
        <time>2011-04-19T15:05:45Z</time>
      </trkpt>
      <trkpt lat="45.50954" lon="6.04978">
        <ele>592</ele>
        <time>2011-04-19T15:05:56Z</time>
      </trkpt>
      <trkpt lat="45.50956" lon="6.04969">
        <ele>591</ele>
        <time>2011-04-19T15:06:04Z</time>
      </trkpt>
      <trkpt lat="45.50954" lon="6.0496">
        <ele>589</ele>
        <time>2011-04-19T15:06:11Z</time>
      </trkpt>
      <trkpt lat="45.50946" lon="6.04945">
        <ele>587</ele>
        <time>2011-04-19T15:06:18Z</time>
      </trkpt>
      <trkpt lat="45.50947" lon="6.04931">
        <ele>585</ele>
        <time>2011-04-19T15:06:26Z</time>
      </trkpt>
      <trkpt lat="45.50951" lon="6.04925">
        <ele>584</ele>
        <time>2011-04-19T15:06:32Z</time>
      </trkpt>
      <trkpt lat="45.50957" lon="6.04915">
        <ele>582</ele>
        <time>2011-04-19T15:06:40Z</time>
      </trkpt>
      <trkpt lat="45.50956" lon="6.04913">
        <ele>582</ele>
        <time>2011-04-19T15:06:42Z</time>
      </trkpt>
      <trkpt lat="45.50946" lon="6.04913">
        <ele>579</ele>
        <time>2011-04-19T15:06:51Z</time>
      </trkpt>
      <trkpt lat="45.5094" lon="6.04915">
        <ele>577</ele>
        <time>2011-04-19T15:06:59Z</time>
      </trkpt>
      <trkpt lat="45.50937" lon="6.04919">
        <ele>577</ele>
        <time>2011-04-19T15:07:02Z</time>
      </trkpt>
      <trkpt lat="45.50928" lon="6.04932">
        <ele>575</ele>
        <time>2011-04-19T15:07:12Z</time>
      </trkpt>
      <trkpt lat="45.50924" lon="6.04944">
        <ele>574</ele>
        <time>2011-04-19T15:07:20Z</time>
      </trkpt>
      <trkpt lat="45.50919" lon="6.04955">
        <ele>573</ele>
        <time>2011-04-19T15:07:28Z</time>
      </trkpt>
      <trkpt lat="45.50915" lon="6.04966">
        <ele>572</ele>
        <time>2011-04-19T15:07:36Z</time>
      </trkpt>
      <trkpt lat="45.50914" lon="6.04971">
        <ele>571</ele>
        <time>2011-04-19T15:07:39Z</time>
      </trkpt>
      <trkpt lat="45.50915" lon="6.04986">
        <ele>570</ele>
        <time>2011-04-19T15:07:48Z</time>
      </trkpt>
      <trkpt lat="45.50924" lon="6.04994">
        <ele>570</ele>
        <time>2011-04-19T15:07:58Z</time>
      </trkpt>
      <trkpt lat="45.5093" lon="6.05003">
        <ele>568</ele>
        <time>2011-04-19T15:08:05Z</time>
      </trkpt>
      <trkpt lat="45.50934" lon="6.05008">
        <ele>568</ele>
        <time>2011-04-19T15:08:11Z</time>
      </trkpt>
      <trkpt lat="45.50935" lon="6.05017">
        <ele>567</ele>
        <time>2011-04-19T15:08:19Z</time>
      </trkpt>
      <trkpt lat="45.50936" lon="6.05028">
        <ele>565</ele>
        <time>2011-04-19T15:08:26Z</time>
      </trkpt>
      <trkpt lat="45.50936" lon="6.05043">
        <ele>562</ele>
        <time>2011-04-19T15:08:35Z</time>
      </trkpt>
      <trkpt lat="45.5094" lon="6.05059">
        <ele>559</ele>
        <time>2011-04-19T15:08:46Z</time>
      </trkpt>
      <trkpt lat="45.50941" lon="6.05073">
        <ele>558</ele>
        <time>2011-04-19T15:08:55Z</time>
      </trkpt>
      <trkpt lat="45.50941" lon="6.05084">
        <ele>557</ele>
        <time>2011-04-19T15:09:01Z</time>
      </trkpt>
      <trkpt lat="45.50944" lon="6.051">
        <ele>554</ele>
        <time>2011-04-19T15:09:12Z</time>
      </trkpt>
      <trkpt lat="45.5094" lon="6.05108">
        <ele>552</ele>
        <time>2011-04-19T15:09:19Z</time>
      </trkpt>
      <trkpt lat="45.50936" lon="6.0512">
        <ele>550</ele>
        <time>2011-04-19T15:09:28Z</time>
      </trkpt>
      <trkpt lat="45.50938" lon="6.05128">
        <ele>550</ele>
        <time>2011-04-19T15:09:36Z</time>
      </trkpt>
      <trkpt lat="45.5094" lon="6.05137">
        <ele>548</ele>
        <time>2011-04-19T15:09:52Z</time>
      </trkpt>
      <trkpt lat="45.50941" lon="6.05149">
        <ele>546</ele>
        <time>2011-04-19T15:10:01Z</time>
      </trkpt>
      <trkpt lat="45.50942" lon="6.05167">
        <ele>544</ele>
        <time>2011-04-19T15:10:12Z</time>
      </trkpt>
      <trkpt lat="45.50942" lon="6.05176">
        <ele>543</ele>
        <time>2011-04-19T15:10:21Z</time>
      </trkpt>
      <trkpt lat="45.50944" lon="6.05185">
        <ele>543</ele>
        <time>2011-04-19T15:10:46Z</time>
      </trkpt>
      <trkpt lat="45.50943" lon="6.05196">
        <ele>540</ele>
        <time>2011-04-19T15:10:55Z</time>
      </trkpt>
      <trkpt lat="45.50943" lon="6.05206">
        <ele>538</ele>
        <time>2011-04-19T15:11:03Z</time>
      </trkpt>
      <trkpt lat="45.50944" lon="6.05216">
        <ele>539</ele>
        <time>2011-04-19T15:11:13Z</time>
      </trkpt>
      <trkpt lat="45.50944" lon="6.05226">
        <ele>536</ele>
        <time>2011-04-19T15:11:21Z</time>
      </trkpt>
      <trkpt lat="45.50942" lon="6.05242">
        <ele>533</ele>
        <time>2011-04-19T15:11:32Z</time>
      </trkpt>
      <trkpt lat="45.50943" lon="6.05259">
        <ele>531</ele>
        <time>2011-04-19T15:11:43Z</time>
      </trkpt>
      <trkpt lat="45.50943" lon="6.05274">
        <ele>530</ele>
        <time>2011-04-19T15:11:52Z</time>
      </trkpt>
      <trkpt lat="45.50944" lon="6.05282">
        <ele>528</ele>
        <time>2011-04-19T15:11:57Z</time>
      </trkpt>
      <trkpt lat="45.50945" lon="6.05292">
        <ele>527</ele>
        <time>2011-04-19T15:12:04Z</time>
      </trkpt>
      <trkpt lat="45.50952" lon="6.05311">
        <ele>526</ele>
        <time>2011-04-19T15:12:16Z</time>
      </trkpt>
      <trkpt lat="45.50955" lon="6.05325">
        <ele>525</ele>
        <time>2011-04-19T15:12:25Z</time>
      </trkpt>
      <trkpt lat="45.5096" lon="6.05337">
        <ele>525</ele>
        <time>2011-04-19T15:12:35Z</time>
      </trkpt>
      <trkpt lat="45.50958" lon="6.0534">
        <ele>525</ele>
        <time>2011-04-19T15:12:44Z</time>
      </trkpt>
      <trkpt lat="45.50956" lon="6.05349">
        <ele>523</ele>
        <time>2011-04-19T15:12:51Z</time>
      </trkpt>
      <trkpt lat="45.50959" lon="6.05368">
        <ele>521</ele>
        <time>2011-04-19T15:13:03Z</time>
      </trkpt>
      <trkpt lat="45.50963" lon="6.05386">
        <ele>518</ele>
        <time>2011-04-19T15:13:16Z</time>
      </trkpt>
      <trkpt lat="45.50966" lon="6.05399">
        <ele>516</ele>
        <time>2011-04-19T15:13:26Z</time>
      </trkpt>
      <trkpt lat="45.5097" lon="6.05413">
        <ele>515</ele>
        <time>2011-04-19T15:13:36Z</time>
      </trkpt>
      <trkpt lat="45.50978" lon="6.05431">
        <ele>514</ele>
        <time>2011-04-19T15:13:49Z</time>
      </trkpt>
      <trkpt lat="45.50978" lon="6.05439">
        <ele>513</ele>
        <time>2011-04-19T15:13:57Z</time>
      </trkpt>
      <trkpt lat="45.50975" lon="6.05442">
        <ele>511</ele>
        <time>2011-04-19T15:14:01Z</time>
      </trkpt>
      <trkpt lat="45.50974" lon="6.05447">
        <ele>510</ele>
        <time>2011-04-19T15:14:09Z</time>
      </trkpt>
      <trkpt lat="45.50973" lon="6.05454">
        <ele>509</ele>
        <time>2011-04-19T15:14:16Z</time>
      </trkpt>
      <trkpt lat="45.50974" lon="6.05467">
        <ele>507</ele>
        <time>2011-04-19T15:14:27Z</time>
      </trkpt>
      <trkpt lat="45.50975" lon="6.0548">
        <ele>504</ele>
        <time>2011-04-19T15:14:37Z</time>
      </trkpt>
      <trkpt lat="45.50979" lon="6.05492">
        <ele>503</ele>
        <time>2011-04-19T15:14:46Z</time>
      </trkpt>
      <trkpt lat="45.50983" lon="6.05509">
        <ele>502</ele>
        <time>2011-04-19T15:14:58Z</time>
      </trkpt>
      <trkpt lat="45.50986" lon="6.05523">
        <ele>501</ele>
        <time>2011-04-19T15:15:09Z</time>
      </trkpt>
      <trkpt lat="45.50987" lon="6.05524">
        <ele>500</ele>
        <time>2011-04-19T15:15:18Z</time>
      </trkpt>
      <trkpt lat="45.50988" lon="6.05531">
        <ele>500</ele>
        <time>2011-04-19T15:15:32Z</time>
      </trkpt>
      <trkpt lat="45.50993" lon="6.05544">
        <ele>499</ele>
        <time>2011-04-19T15:15:42Z</time>
      </trkpt>
      <trkpt lat="45.51" lon="6.0556">
        <ele>496</ele>
        <time>2011-04-19T15:15:54Z</time>
      </trkpt>
      <trkpt lat="45.51004" lon="6.0557">
        <ele>494</ele>
        <time>2011-04-19T15:16:03Z</time>
      </trkpt>
      <trkpt lat="45.51002" lon="6.0557">
        <ele>493</ele>
        <time>2011-04-19T15:16:06Z</time>
      </trkpt>
      <trkpt lat="45.50995" lon="6.05564">
        <ele>492</ele>
        <time>2011-04-19T15:16:15Z</time>
      </trkpt>
      <trkpt lat="45.50986" lon="6.05555">
        <ele>491</ele>
        <time>2011-04-19T15:16:27Z</time>
      </trkpt>
      <trkpt lat="45.5098" lon="6.05551">
        <ele>489</ele>
        <time>2011-04-19T15:16:34Z</time>
      </trkpt>
      <trkpt lat="45.5097" lon="6.05535">
        <ele>487</ele>
        <time>2011-04-19T15:16:48Z</time>
      </trkpt>
      <trkpt lat="45.50968" lon="6.05533">
        <ele>486</ele>
        <time>2011-04-19T15:16:51Z</time>
      </trkpt>
      <trkpt lat="45.50958" lon="6.05521">
        <ele>484</ele>
        <time>2011-04-19T15:17:03Z</time>
      </trkpt>
      <trkpt lat="45.5095" lon="6.05514">
        <ele>482</ele>
        <time>2011-04-19T15:17:13Z</time>
      </trkpt>
      <trkpt lat="45.50939" lon="6.055">
        <ele>480</ele>
        <time>2011-04-19T15:17:25Z</time>
      </trkpt>
      <trkpt lat="45.5093" lon="6.05481">
        <ele>479</ele>
        <time>2011-04-19T15:17:39Z</time>
      </trkpt>
      <trkpt lat="45.50924" lon="6.05463">
        <ele>477</ele>
        <time>2011-04-19T15:17:52Z</time>
      </trkpt>
      <trkpt lat="45.50921" lon="6.05462">
        <ele>475</ele>
        <time>2011-04-19T15:17:57Z</time>
      </trkpt>
      <trkpt lat="45.50918" lon="6.05474">
        <ele>473</ele>
        <time>2011-04-19T15:18:06Z</time>
      </trkpt>
      <trkpt lat="45.50916" lon="6.05489">
        <ele>472</ele>
        <time>2011-04-19T15:18:17Z</time>
      </trkpt>
      <trkpt lat="45.50918" lon="6.05509">
        <ele>468</ele>
        <time>2011-04-19T15:18:30Z</time>
      </trkpt>
      <trkpt lat="45.50922" lon="6.05524">
        <ele>466</ele>
        <time>2011-04-19T15:18:40Z</time>
      </trkpt>
      <trkpt lat="45.50928" lon="6.05543">
        <ele>463</ele>
        <time>2011-04-19T15:18:53Z</time>
      </trkpt>
      <trkpt lat="45.50932" lon="6.0556">
        <ele>461</ele>
        <time>2011-04-19T15:19:05Z</time>
      </trkpt>
      <trkpt lat="45.50934" lon="6.05574">
        <ele>459</ele>
        <time>2011-04-19T15:19:16Z</time>
      </trkpt>
      <trkpt lat="45.50934" lon="6.05589">
        <ele>457</ele>
        <time>2011-04-19T15:19:27Z</time>
      </trkpt>
      <trkpt lat="45.50933" lon="6.05603">
        <ele>455</ele>
        <time>2011-04-19T15:19:39Z</time>
      </trkpt>
      <trkpt lat="45.50929" lon="6.05595">
        <ele>453</ele>
        <time>2011-04-19T15:19:48Z</time>
      </trkpt>
      <trkpt lat="45.50926" lon="6.0559">
        <ele>452</ele>
        <time>2011-04-19T15:19:54Z</time>
      </trkpt>
      <trkpt lat="45.50917" lon="6.05576">
        <ele>449</ele>
        <time>2011-04-19T15:20:08Z</time>
      </trkpt>
      <trkpt lat="45.50915" lon="6.05572">
        <ele>448</ele>
        <time>2011-04-19T15:20:18Z</time>
      </trkpt>
      <trkpt lat="45.50911" lon="6.05574">
        <ele>447</ele>
        <time>2011-04-19T15:24:13Z</time>
      </trkpt>
      <trkpt lat="45.50909" lon="6.05572">
        <ele>446</ele>
        <time>2011-04-19T15:24:21Z</time>
      </trkpt>
      <trkpt lat="45.50905" lon="6.05568">
        <ele>444</ele>
        <time>2011-04-19T15:24:30Z</time>
      </trkpt>
      <trkpt lat="45.50906" lon="6.05576">
        <ele>442</ele>
        <time>2011-04-19T15:24:41Z</time>
      </trkpt>
      <trkpt lat="45.50909" lon="6.05582">
        <ele>441</ele>
        <time>2011-04-19T15:25:01Z</time>
      </trkpt>
      <trkpt lat="45.50909" lon="6.05586">
        <ele>440</ele>
        <time>2011-04-19T15:25:13Z</time>
      </trkpt>
      <trkpt lat="45.50909" lon="6.05584">
        <ele>441</ele>
        <time>2011-04-19T15:25:22Z</time>
      </trkpt>
      <trkpt lat="45.50902" lon="6.05573">
        <ele>438</ele>
        <time>2011-04-19T15:25:34Z</time>
      </trkpt>
      <trkpt lat="45.509" lon="6.0557">
        <ele>438</ele>
        <time>2011-04-19T15:25:41Z</time>
      </trkpt>
      <trkpt lat="45.50897" lon="6.05566">
        <ele>437</ele>
        <time>2011-04-19T15:25:49Z</time>
      </trkpt>
      <trkpt lat="45.50888" lon="6.05553">
        <ele>434</ele>
        <time>2011-04-19T15:26:01Z</time>
      </trkpt>
      <trkpt lat="45.50885" lon="6.0555">
        <ele>434</ele>
        <time>2011-04-19T15:26:04Z</time>
      </trkpt>
      <trkpt lat="45.50878" lon="6.05539">
        <ele>432</ele>
        <time>2011-04-19T15:26:16Z</time>
      </trkpt>
      <trkpt lat="45.50876" lon="6.05538">
        <ele>432</ele>
        <time>2011-04-19T15:26:45Z</time>
      </trkpt>
      <trkpt lat="45.50869" lon="6.05523">
        <ele>429</ele>
        <time>2011-04-19T15:26:56Z</time>
      </trkpt>
      <trkpt lat="45.50866" lon="6.05515">
        <ele>428</ele>
        <time>2011-04-19T15:27:03Z</time>
      </trkpt>
      <trkpt lat="45.50863" lon="6.05511">
        <ele>428</ele>
        <time>2011-04-19T15:27:07Z</time>
      </trkpt>
      <trkpt lat="45.50855" lon="6.05503">
        <ele>427</ele>
        <time>2011-04-19T15:27:18Z</time>
      </trkpt>
      <trkpt lat="45.50851" lon="6.05497">
        <ele>426</ele>
        <time>2011-04-19T15:27:27Z</time>
      </trkpt>
      <trkpt lat="45.50842" lon="6.05485">
        <ele>423</ele>
        <time>2011-04-19T15:27:39Z</time>
      </trkpt>
      <trkpt lat="45.50836" lon="6.05473">
        <ele>420</ele>
        <time>2011-04-19T15:27:49Z</time>
      </trkpt>
      <trkpt lat="45.5083" lon="6.05459">
        <ele>418</ele>
        <time>2011-04-19T15:28:00Z</time>
      </trkpt>
      <trkpt lat="45.50825" lon="6.05447">
        <ele>415</ele>
        <time>2011-04-19T15:28:10Z</time>
      </trkpt>
      <trkpt lat="45.50818" lon="6.05431">
        <ele>414</ele>
        <time>2011-04-19T15:28:20Z</time>
      </trkpt>
      <trkpt lat="45.50812" lon="6.05416">
        <ele>413</ele>
        <time>2011-04-19T15:28:31Z</time>
      </trkpt>
      <trkpt lat="45.50807" lon="6.05399">
        <ele>411</ele>
        <time>2011-04-19T15:28:42Z</time>
      </trkpt>
      <trkpt lat="45.50806" lon="6.05391">
        <ele>410</ele>
        <time>2011-04-19T15:28:51Z</time>
      </trkpt>
      <trkpt lat="45.50805" lon="6.05387">
        <ele>410</ele>
        <time>2011-04-19T15:28:59Z</time>
      </trkpt>
      <trkpt lat="45.50801" lon="6.05377">
        <ele>408</ele>
        <time>2011-04-19T15:29:08Z</time>
      </trkpt>
      <trkpt lat="45.50796" lon="6.05379">
        <ele>407</ele>
        <time>2011-04-19T15:29:17Z</time>
      </trkpt>
      <trkpt lat="45.50795" lon="6.05379">
        <ele>407</ele>
        <time>2011-04-19T15:29:32Z</time>
      </trkpt>
      <trkpt lat="45.50795" lon="6.05384">
        <ele>407</ele>
        <time>2011-04-19T15:29:42Z</time>
      </trkpt>
      <trkpt lat="45.50796" lon="6.05396">
        <ele>405</ele>
        <time>2011-04-19T15:29:54Z</time>
      </trkpt>
      <trkpt lat="45.50796" lon="6.05406">
        <ele>404</ele>
        <time>2011-04-19T15:30:02Z</time>
      </trkpt>
      <trkpt lat="45.50796" lon="6.0542">
        <ele>402</ele>
        <time>2011-04-19T15:30:12Z</time>
      </trkpt>
      <trkpt lat="45.50796" lon="6.05423">
        <ele>401</ele>
        <time>2011-04-19T15:30:14Z</time>
      </trkpt>
      <trkpt lat="45.50793" lon="6.05442">
        <ele>399</ele>
        <time>2011-04-19T15:30:28Z</time>
      </trkpt>
      <trkpt lat="45.50789" lon="6.05459">
        <ele>396</ele>
        <time>2011-04-19T15:30:39Z</time>
      </trkpt>
      <trkpt lat="45.50788" lon="6.05472">
        <ele>394</ele>
        <time>2011-04-19T15:30:47Z</time>
      </trkpt>
      <trkpt lat="45.50788" lon="6.05489">
        <ele>392</ele>
        <time>2011-04-19T15:30:58Z</time>
      </trkpt>
      <trkpt lat="45.50789" lon="6.05493">
        <ele>390</ele>
        <time>2011-04-19T15:31:01Z</time>
      </trkpt>
      <trkpt lat="45.50789" lon="6.05507">
        <ele>389</ele>
        <time>2011-04-19T15:31:12Z</time>
      </trkpt>
      <trkpt lat="45.50787" lon="6.05503">
        <ele>388</ele>
        <time>2011-04-19T15:31:41Z</time>
      </trkpt>
      <trkpt lat="45.50786" lon="6.055">
        <ele>388</ele>
        <time>2011-04-19T15:31:43Z</time>
      </trkpt>
      <trkpt lat="45.50782" lon="6.05478">
        <ele>385</ele>
        <time>2011-04-19T15:31:57Z</time>
      </trkpt>
      <trkpt lat="45.50781" lon="6.05466">
        <ele>385</ele>
        <time>2011-04-19T15:32:05Z</time>
      </trkpt>
      <trkpt lat="45.50778" lon="6.05449">
        <ele>384</ele>
        <time>2011-04-19T15:32:14Z</time>
      </trkpt>
      <trkpt lat="45.50776" lon="6.05433">
        <ele>384</ele>
        <time>2011-04-19T15:32:23Z</time>
      </trkpt>
      <trkpt lat="45.50774" lon="6.05419">
        <ele>383</ele>
        <time>2011-04-19T15:32:31Z</time>
      </trkpt>
      <trkpt lat="45.5077" lon="6.054">
        <ele>383</ele>
        <time>2011-04-19T15:32:40Z</time>
      </trkpt>
      <trkpt lat="45.50762" lon="6.05387">
        <ele>383</ele>
        <time>2011-04-19T15:32:49Z</time>
      </trkpt>
      <trkpt lat="45.50757" lon="6.05385">
        <ele>381</ele>
        <time>2011-04-19T15:32:56Z</time>
      </trkpt>
      <trkpt lat="45.50754" lon="6.0539">
        <ele>379</ele>
        <time>2011-04-19T15:33:01Z</time>
      </trkpt>
      <trkpt lat="45.50749" lon="6.05396">
        <ele>377</ele>
        <time>2011-04-19T15:33:08Z</time>
      </trkpt>
      <trkpt lat="45.50746" lon="6.05394">
        <ele>375</ele>
        <time>2011-04-19T15:33:11Z</time>
      </trkpt>
      <trkpt lat="45.50744" lon="6.05393">
        <ele>374</ele>
        <time>2011-04-19T15:33:13Z</time>
      </trkpt>
      <trkpt lat="45.50742" lon="6.05392">
        <ele>372</ele>
        <time>2011-04-19T15:33:15Z</time>
      </trkpt>
      <trkpt lat="45.50737" lon="6.05386">
        <ele>369</ele>
        <time>2011-04-19T15:33:23Z</time>
      </trkpt>
      <trkpt lat="45.50732" lon="6.05382">
        <ele>367</ele>
        <time>2011-04-19T15:33:29Z</time>
      </trkpt>
      <trkpt lat="45.50722" lon="6.05372">
        <ele>364</ele>
        <time>2011-04-19T15:33:38Z</time>
      </trkpt>
      <trkpt lat="45.50714" lon="6.0536">
        <ele>361</ele>
        <time>2011-04-19T15:33:48Z</time>
      </trkpt>
      <trkpt lat="45.50706" lon="6.05338">
        <ele>359</ele>
        <time>2011-04-19T15:34:01Z</time>
      </trkpt>
      <trkpt lat="45.50699" lon="6.05317">
        <ele>358</ele>
        <time>2011-04-19T15:34:12Z</time>
      </trkpt>
      <trkpt lat="45.50695" lon="6.05313">
        <ele>356</ele>
        <time>2011-04-19T15:34:16Z</time>
      </trkpt>
      <trkpt lat="45.50693" lon="6.05326">
        <ele>353</ele>
        <time>2011-04-19T15:34:26Z</time>
      </trkpt>
      <trkpt lat="45.50692" lon="6.05327">
        <ele>353</ele>
        <time>2011-04-19T15:34:27Z</time>
      </trkpt>
      <trkpt lat="45.50686" lon="6.05329">
        <ele>354</ele>
        <time>2011-04-19T15:34:34Z</time>
      </trkpt>
      <trkpt lat="45.50682" lon="6.05316">
        <ele>354</ele>
        <time>2011-04-19T15:34:44Z</time>
      </trkpt>
      <trkpt lat="45.50676" lon="6.05296">
        <ele>352</ele>
        <time>2011-04-19T15:34:56Z</time>
      </trkpt>
      <trkpt lat="45.50666" lon="6.05279">
        <ele>351</ele>
        <time>2011-04-19T15:35:07Z</time>
      </trkpt>
      <trkpt lat="45.50658" lon="6.05266">
        <ele>350</ele>
        <time>2011-04-19T15:35:17Z</time>
      </trkpt>
      <trkpt lat="45.50655" lon="6.0526">
        <ele>348</ele>
        <time>2011-04-19T15:35:23Z</time>
      </trkpt>
      <trkpt lat="45.50652" lon="6.05252">
        <ele>345</ele>
        <time>2011-04-19T15:35:28Z</time>
      </trkpt>
      <trkpt lat="45.50646" lon="6.05237">
        <ele>342</ele>
        <time>2011-04-19T15:35:37Z</time>
      </trkpt>
      <trkpt lat="45.50643" lon="6.05229">
        <ele>340</ele>
        <time>2011-04-19T15:35:42Z</time>
      </trkpt>
      <trkpt lat="45.50637" lon="6.05207">
        <ele>338</ele>
        <time>2011-04-19T15:35:55Z</time>
      </trkpt>
      <trkpt lat="45.50628" lon="6.05192">
        <ele>334</ele>
        <time>2011-04-19T15:36:05Z</time>
      </trkpt>
      <trkpt lat="45.5062" lon="6.05178">
        <ele>331</ele>
        <time>2011-04-19T15:36:16Z</time>
      </trkpt>
      <trkpt lat="45.5061" lon="6.05166">
        <ele>328</ele>
        <time>2011-04-19T15:36:27Z</time>
      </trkpt>
      <trkpt lat="45.50606" lon="6.05163">
        <ele>327</ele>
        <time>2011-04-19T15:36:29Z</time>
      </trkpt>
      <trkpt lat="45.50599" lon="6.05157">
        <ele>326</ele>
        <time>2011-04-19T15:36:34Z</time>
      </trkpt>
      <trkpt lat="45.50587" lon="6.05143">
        <ele>323</ele>
        <time>2011-04-19T15:36:47Z</time>
      </trkpt>
      <trkpt lat="45.50576" lon="6.05132">
        <ele>320</ele>
        <time>2011-04-19T15:36:58Z</time>
      </trkpt>
      <trkpt lat="45.50566" lon="6.05124">
        <ele>318</ele>
        <time>2011-04-19T15:37:06Z</time>
      </trkpt>
      <trkpt lat="45.50555" lon="6.05124">
        <ele>318</ele>
        <time>2011-04-19T15:37:14Z</time>
      </trkpt>
      <trkpt lat="45.50547" lon="6.05132">
        <ele>316</ele>
        <time>2011-04-19T15:37:23Z</time>
      </trkpt>
      <trkpt lat="45.5053" lon="6.05134">
        <ele>314</ele>
        <time>2011-04-19T15:37:36Z</time>
      </trkpt>
      <trkpt lat="45.50523" lon="6.05136">
        <ele>313</ele>
        <time>2011-04-19T15:37:42Z</time>
      </trkpt>
      <trkpt lat="45.50509" lon="6.05139">
        <ele>312</ele>
        <time>2011-04-19T15:37:52Z</time>
      </trkpt>
      <trkpt lat="45.50496" lon="6.05142">
        <ele>311</ele>
        <time>2011-04-19T15:38:05Z</time>
      </trkpt>
      <trkpt lat="45.50494" lon="6.05144">
        <ele>309</ele>
        <time>2011-04-19T15:38:14Z</time>
      </trkpt>
      <trkpt lat="45.50488" lon="6.05148">
        <ele>309</ele>
        <time>2011-04-19T15:38:20Z</time>
      </trkpt>
      <trkpt lat="45.50479" lon="6.05151">
        <ele>309</ele>
        <time>2011-04-19T15:38:28Z</time>
      </trkpt>
      <trkpt lat="45.50477" lon="6.05149">
        <ele>307</ele>
        <time>2011-04-19T15:38:34Z</time>
      </trkpt>
    </trkseg>
  </trk>
</gpx>